<?xml version="1.0" encoding="utf-8"?>
<gpx xmlns:xsi="http://www.w3.org/2001/XMLSchema-instance" xmlns:xsd="http://www.w3.org/2001/XMLSchema" version="1.1" creator="Shapelink.com" xmlns="http://www.topografix.com/GPX/1/1" xmlns:gpxtpx="http://www.garmin.com/xmlschemas/TrackPointExtension/v1">
  <metadata>
    <name>Cykling 27.88 km, 2012-03-27</name>
    <desc></desc>
    <author><name>Dennis Rehn</name></author> 
    <time>2012-03-27T16:02:39Z</time>
  </metadata>
  <trk>
    <name>Cykling 27.88 km, 2012-03-27</name>
    <trkseg>
      <trkpt lat="59.9963042928" lon="23.4318746161">
        <ele>18</ele>
        <time>2012-03-27T16:02:39Z</time>
      </trkpt>
      <trkpt lat="59.9963491359" lon="23.4315365741">
        <ele>24.8</ele>
        <time>2012-03-27T16:02:44Z</time>
      </trkpt>
      <trkpt lat="59.9960780653" lon="23.4311621546">
        <ele>32.8</ele>
        <time>2012-03-27T16:02:50Z</time>
      </trkpt>
      <trkpt lat="59.9960287797" lon="23.4310911599">
        <ele>34</ele>
        <time>2012-03-27T16:02:51Z</time>
      </trkpt>
      <trkpt lat="59.9952274701" lon="23.4300970666">
        <ele>42.6</ele>
        <time>2012-03-27T16:03:05Z</time>
      </trkpt>
      <trkpt lat="59.9950741651" lon="23.4298166082">
        <ele>44.4</ele>
        <time>2012-03-27T16:03:08Z</time>
      </trkpt>
      <trkpt lat="59.9948838122" lon="23.4295170391">
        <ele>45.2</ele>
        <time>2012-03-27T16:03:12Z</time>
      </trkpt>
      <trkpt lat="59.9945666411" lon="23.4290703677">
        <ele>43.8</ele>
        <time>2012-03-27T16:03:18Z</time>
      </trkpt>
      <trkpt lat="59.9942256654" lon="23.4285889951">
        <ele>40.6</ele>
        <time>2012-03-27T16:03:24Z</time>
      </trkpt>
      <trkpt lat="59.9940643138" lon="23.4283824651">
        <ele>38.6</ele>
        <time>2012-03-27T16:03:27Z</time>
      </trkpt>
      <trkpt lat="59.9938758887" lon="23.4281755998">
        <ele>36.6</ele>
        <time>2012-03-27T16:03:30Z</time>
      </trkpt>
      <trkpt lat="59.9936570373" lon="23.4279489533">
        <ele>34.2</ele>
        <time>2012-03-27T16:03:34Z</time>
      </trkpt>
      <trkpt lat="59.9934727193" lon="23.4277207141">
        <ele>32.2</ele>
        <time>2012-03-27T16:03:38Z</time>
      </trkpt>
      <trkpt lat="59.9934290496" lon="23.4276769606">
        <ele>31.6</ele>
        <time>2012-03-27T16:03:39Z</time>
      </trkpt>
      <trkpt lat="59.9932128804" lon="23.4275529923">
        <ele>29.8</ele>
        <time>2012-03-27T16:03:43Z</time>
      </trkpt>
      <trkpt lat="59.9930351003" lon="23.4275045449">
        <ele>29</ele>
        <time>2012-03-27T16:03:46Z</time>
      </trkpt>
      <trkpt lat="59.9929752536" lon="23.4274986776">
        <ele>28.6</ele>
        <time>2012-03-27T16:03:47Z</time>
      </trkpt>
      <trkpt lat="59.9927748423" lon="23.4274882002">
        <ele>27.4</ele>
        <time>2012-03-27T16:03:50Z</time>
      </trkpt>
      <trkpt lat="59.9925901053" lon="23.4274664911">
        <ele>26.6</ele>
        <time>2012-03-27T16:03:53Z</time>
      </trkpt>
      <trkpt lat="59.9924108164" lon="23.4274431056">
        <ele>26</ele>
        <time>2012-03-27T16:03:56Z</time>
      </trkpt>
      <trkpt lat="59.9922897818" lon="23.427416535">
        <ele>25.8</ele>
        <time>2012-03-27T16:03:58Z</time>
      </trkpt>
      <trkpt lat="59.9920232374" lon="23.4271734599">
        <ele>25.2</ele>
        <time>2012-03-27T16:04:03Z</time>
      </trkpt>
      <trkpt lat="59.9919674139" lon="23.4270936642">
        <ele>25.2</ele>
        <time>2012-03-27T16:04:04Z</time>
      </trkpt>
      <trkpt lat="59.9917697687" lon="23.4267462344">
        <ele>24.8</ele>
        <time>2012-03-27T16:04:08Z</time>
      </trkpt>
      <trkpt lat="59.9913132904" lon="23.4262952044">
        <ele>24.2</ele>
        <time>2012-03-27T16:04:16Z</time>
      </trkpt>
      <trkpt lat="59.9909968737" lon="23.4261681348">
        <ele>23.6</ele>
        <time>2012-03-27T16:04:21Z</time>
      </trkpt>
      <trkpt lat="59.990784644" lon="23.4261279017">
        <ele>23.2</ele>
        <time>2012-03-27T16:04:24Z</time>
      </trkpt>
      <trkpt lat="59.9905822211" lon="23.4260765206">
        <ele>23</ele>
        <time>2012-03-27T16:04:27Z</time>
      </trkpt>
      <trkpt lat="59.9903487014" lon="23.4260300011">
        <ele>22.8</ele>
        <time>2012-03-27T16:04:30Z</time>
      </trkpt>
      <trkpt lat="59.9901290956" lon="23.4259942942">
        <ele>22.6</ele>
        <time>2012-03-27T16:04:33Z</time>
      </trkpt>
      <trkpt lat="59.9899058018" lon="23.4259678074">
        <ele>22</ele>
        <time>2012-03-27T16:04:36Z</time>
      </trkpt>
      <trkpt lat="59.9897031274" lon="23.425959174">
        <ele>21.4</ele>
        <time>2012-03-27T16:04:39Z</time>
      </trkpt>
      <trkpt lat="59.9894980223" lon="23.4259380516">
        <ele>21.2</ele>
        <time>2012-03-27T16:04:42Z</time>
      </trkpt>
      <trkpt lat="59.9892920791" lon="23.4259103914">
        <ele>20.4</ele>
        <time>2012-03-27T16:04:45Z</time>
      </trkpt>
      <trkpt lat="59.9890837888" lon="23.4258847427">
        <ele>19.8</ele>
        <time>2012-03-27T16:04:48Z</time>
      </trkpt>
      <trkpt lat="59.98888321" lon="23.4258678951">
        <ele>19.4</ele>
        <time>2012-03-27T16:04:51Z</time>
      </trkpt>
      <trkpt lat="59.9886734948" lon="23.4258447611">
        <ele>19</ele>
        <time>2012-03-27T16:04:55Z</time>
      </trkpt>
      <trkpt lat="59.9884116443" lon="23.4258060367">
        <ele>18.8</ele>
        <time>2012-03-27T16:04:58Z</time>
      </trkpt>
      <trkpt lat="59.9882022644" lon="23.4257694916">
        <ele>18.6</ele>
        <time>2012-03-27T16:05:01Z</time>
      </trkpt>
      <trkpt lat="59.9880067147" lon="23.4257328627">
        <ele>18.4</ele>
        <time>2012-03-27T16:05:04Z</time>
      </trkpt>
      <trkpt lat="59.9877673276" lon="23.4256811464">
        <ele>18.4</ele>
        <time>2012-03-27T16:05:07Z</time>
      </trkpt>
      <trkpt lat="59.9875324668" lon="23.4256175278">
        <ele>18.4</ele>
        <time>2012-03-27T16:05:10Z</time>
      </trkpt>
      <trkpt lat="59.9873071613" lon="23.4255438509">
        <ele>18.2</ele>
        <time>2012-03-27T16:05:13Z</time>
      </trkpt>
      <trkpt lat="59.9870485797" lon="23.4254125065">
        <ele>18.2</ele>
        <time>2012-03-27T16:05:16Z</time>
      </trkpt>
      <trkpt lat="59.9868250344" lon="23.4252964172">
        <ele>18.2</ele>
        <time>2012-03-27T16:05:19Z</time>
      </trkpt>
      <trkpt lat="59.9865375353" lon="23.4251840997">
        <ele>18.2</ele>
        <time>2012-03-27T16:05:23Z</time>
      </trkpt>
      <trkpt lat="59.9863058595" lon="23.4251616362">
        <ele>18.2</ele>
        <time>2012-03-27T16:05:26Z</time>
      </trkpt>
      <trkpt lat="59.9860803864" lon="23.4251555174">
        <ele>18.2</ele>
        <time>2012-03-27T16:05:29Z</time>
      </trkpt>
      <trkpt lat="59.9858674024" lon="23.4251603789">
        <ele>18.2</ele>
        <time>2012-03-27T16:05:32Z</time>
      </trkpt>
      <trkpt lat="59.9856519037" lon="23.4251644023">
        <ele>18.2</ele>
        <time>2012-03-27T16:05:35Z</time>
      </trkpt>
      <trkpt lat="59.985440596" lon="23.4251549307">
        <ele>18.2</ele>
        <time>2012-03-27T16:05:38Z</time>
      </trkpt>
      <trkpt lat="59.9852365806" lon="23.4251544278">
        <ele>18.2</ele>
        <time>2012-03-27T16:05:41Z</time>
      </trkpt>
      <trkpt lat="59.9850199923" lon="23.4251602951">
        <ele>18.2</ele>
        <time>2012-03-27T16:05:44Z</time>
      </trkpt>
      <trkpt lat="59.984792759" lon="23.4251490634">
        <ele>18.2</ele>
        <time>2012-03-27T16:05:48Z</time>
      </trkpt>
      <trkpt lat="59.9846469139" lon="23.4251246721">
        <ele>18.2</ele>
        <time>2012-03-27T16:05:52Z</time>
      </trkpt>
      <trkpt lat="59.9845214369" lon="23.4250205689">
        <ele>18.2</ele>
        <time>2012-03-27T16:05:56Z</time>
      </trkpt>
      <trkpt lat="59.9844966264" lon="23.4250059843">
        <ele>18.2</ele>
        <time>2012-03-27T16:05:57Z</time>
      </trkpt>
      <trkpt lat="59.9844033359" lon="23.4250297051">
        <ele>18.2</ele>
        <time>2012-03-27T16:06:00Z</time>
      </trkpt>
      <trkpt lat="59.9843404716" lon="23.4250827626">
        <ele>18.2</ele>
        <time>2012-03-27T16:06:02Z</time>
      </trkpt>
      <trkpt lat="59.9842150784" lon="23.4253843433">
        <ele>18</ele>
        <time>2012-03-27T16:06:06Z</time>
      </trkpt>
      <trkpt lat="59.9841646194" lon="23.4254456988">
        <ele>17.8</ele>
        <time>2012-03-27T16:06:07Z</time>
      </trkpt>
      <trkpt lat="59.9838788804" lon="23.4254767119">
        <ele>17.2</ele>
        <time>2012-03-27T16:06:11Z</time>
      </trkpt>
      <trkpt lat="59.9837238152" lon="23.4254892847">
        <ele>17</ele>
        <time>2012-03-27T16:06:13Z</time>
      </trkpt>
      <trkpt lat="59.983600266" lon="23.4254696711">
        <ele>16.8</ele>
        <time>2012-03-27T16:06:15Z</time>
      </trkpt>
      <trkpt lat="59.9833641479" lon="23.4255363072">
        <ele>16.6</ele>
        <time>2012-03-27T16:06:19Z</time>
      </trkpt>
      <trkpt lat="59.9832972604" lon="23.4257902787">
        <ele>16.6</ele>
        <time>2012-03-27T16:06:21Z</time>
      </trkpt>
      <trkpt lat="59.9833729489" lon="23.426323619">
        <ele>16.4</ele>
        <time>2012-03-27T16:06:26Z</time>
      </trkpt>
      <trkpt lat="59.9833681712" lon="23.4263920992">
        <ele>16.4</ele>
        <time>2012-03-27T16:06:27Z</time>
      </trkpt>
      <trkpt lat="59.9832717794" lon="23.4269040656">
        <ele>16.4</ele>
        <time>2012-03-27T16:06:31Z</time>
      </trkpt>
      <trkpt lat="59.9831865355" lon="23.4273870307">
        <ele>16.2</ele>
        <time>2012-03-27T16:06:35Z</time>
      </trkpt>
      <trkpt lat="59.9831239227" lon="23.4277410821">
        <ele>16.2</ele>
        <time>2012-03-27T16:06:38Z</time>
      </trkpt>
      <trkpt lat="59.9829919916" lon="23.4285178328">
        <ele>16.2</ele>
        <time>2012-03-27T16:06:44Z</time>
      </trkpt>
      <trkpt lat="59.9829315581" lon="23.4289239359">
        <ele>16.2</ele>
        <time>2012-03-27T16:06:47Z</time>
      </trkpt>
      <trkpt lat="59.9828651734" lon="23.4293352357">
        <ele>16.2</ele>
        <time>2012-03-27T16:06:50Z</time>
      </trkpt>
      <trkpt lat="59.9828026444" lon="23.4297507265">
        <ele>16.2</ele>
        <time>2012-03-27T16:06:53Z</time>
      </trkpt>
      <trkpt lat="59.982782025" lon="23.4298870162">
        <ele>16.2</ele>
        <time>2012-03-27T16:06:54Z</time>
      </trkpt>
      <trkpt lat="59.9826983736" lon="23.430209887">
        <ele>16.2</ele>
        <time>2012-03-27T16:06:57Z</time>
      </trkpt>
      <trkpt lat="59.9824392053" lon="23.4305501921">
        <ele>16.2</ele>
        <time>2012-03-27T16:07:01Z</time>
      </trkpt>
      <trkpt lat="59.9823682106" lon="23.4305884136">
        <ele>16.2</ele>
        <time>2012-03-27T16:07:02Z</time>
      </trkpt>
      <trkpt lat="59.9822216111" lon="23.4306014893">
        <ele>16.2</ele>
        <time>2012-03-27T16:07:04Z</time>
      </trkpt>
      <trkpt lat="59.9820028435" lon="23.430562765">
        <ele>16.2</ele>
        <time>2012-03-27T16:07:07Z</time>
      </trkpt>
      <trkpt lat="59.9819314298" lon="23.4305533772">
        <ele>16.2</ele>
        <time>2012-03-27T16:07:08Z</time>
      </trkpt>
      <trkpt lat="59.9817259894" lon="23.4306471707">
        <ele>16.2</ele>
        <time>2012-03-27T16:07:11Z</time>
      </trkpt>
      <trkpt lat="59.9816299328" lon="23.4308450673">
        <ele>16.2</ele>
        <time>2012-03-27T16:07:13Z</time>
      </trkpt>
      <trkpt lat="59.9815467005" lon="23.4311132881">
        <ele>16.2</ele>
        <time>2012-03-27T16:07:15Z</time>
      </trkpt>
      <trkpt lat="59.9814897874" lon="23.4313153758">
        <ele>16.2</ele>
        <time>2012-03-27T16:07:17Z</time>
      </trkpt>
      <trkpt lat="59.9813995144" lon="23.4316776415">
        <ele>16.2</ele>
        <time>2012-03-27T16:07:20Z</time>
      </trkpt>
      <trkpt lat="59.9813019491" lon="23.4320379794">
        <ele>16.2</ele>
        <time>2012-03-27T16:07:23Z</time>
      </trkpt>
      <trkpt lat="59.9812190521" lon="23.4323637">
        <ele>16.2</ele>
        <time>2012-03-27T16:07:26Z</time>
      </trkpt>
      <trkpt lat="59.9811167091" lon="23.4327884109">
        <ele>16.2</ele>
        <time>2012-03-27T16:07:29Z</time>
      </trkpt>
      <trkpt lat="59.9810260169" lon="23.4331594776">
        <ele>16.2</ele>
        <time>2012-03-27T16:07:32Z</time>
      </trkpt>
      <trkpt lat="59.9809343189" lon="23.4335212404">
        <ele>16.2</ele>
        <time>2012-03-27T16:07:35Z</time>
      </trkpt>
      <trkpt lat="59.9808427048" lon="23.4338743698">
        <ele>16.2</ele>
        <time>2012-03-27T16:07:38Z</time>
      </trkpt>
      <trkpt lat="59.9807512582" lon="23.4342352106">
        <ele>16.2</ele>
        <time>2012-03-27T16:07:41Z</time>
      </trkpt>
      <trkpt lat="59.9806606499" lon="23.4345812993">
        <ele>16.2</ele>
        <time>2012-03-27T16:07:44Z</time>
      </trkpt>
      <trkpt lat="59.9805727238" lon="23.4349232808">
        <ele>16.2</ele>
        <time>2012-03-27T16:07:47Z</time>
      </trkpt>
      <trkpt lat="59.9804953588" lon="23.4352774999">
        <ele>16.2</ele>
        <time>2012-03-27T16:07:50Z</time>
      </trkpt>
      <trkpt lat="59.9804814449" lon="23.435355703">
        <ele>16.2</ele>
        <time>2012-03-27T16:07:51Z</time>
      </trkpt>
      <trkpt lat="59.980263264" lon="23.4355701958">
        <ele>16.2</ele>
        <time>2012-03-27T16:07:55Z</time>
      </trkpt>
      <trkpt lat="59.9802056804" lon="23.4355245983">
        <ele>16.2</ele>
        <time>2012-03-27T16:07:56Z</time>
      </trkpt>
      <trkpt lat="59.9800823826" lon="23.4354039828">
        <ele>16.2</ele>
        <time>2012-03-27T16:07:58Z</time>
      </trkpt>
      <trkpt lat="59.9798214541" lon="23.4354310563">
        <ele>16</ele>
        <time>2012-03-27T16:08:02Z</time>
      </trkpt>
      <trkpt lat="59.9797854957" lon="23.4354669308">
        <ele>15.8</ele>
        <time>2012-03-27T16:08:03Z</time>
      </trkpt>
      <trkpt lat="59.979589946" lon="23.4356594631">
        <ele>15.4</ele>
        <time>2012-03-27T16:08:06Z</time>
      </trkpt>
      <trkpt lat="59.9794335397" lon="23.4357769773">
        <ele>15</ele>
        <time>2012-03-27T16:08:09Z</time>
      </trkpt>
      <trkpt lat="59.9791366528" lon="23.4358065654">
        <ele>14.8</ele>
        <time>2012-03-27T16:08:13Z</time>
      </trkpt>
      <trkpt lat="59.9790882893" lon="23.4357940764">
        <ele>14.6</ele>
        <time>2012-03-27T16:08:14Z</time>
      </trkpt>
      <trkpt lat="59.9786009656" lon="23.4354437968">
        <ele>14.4</ele>
        <time>2012-03-27T16:08:21Z</time>
      </trkpt>
      <trkpt lat="59.9784251133" lon="23.435181108">
        <ele>14.4</ele>
        <time>2012-03-27T16:08:24Z</time>
      </trkpt>
      <trkpt lat="59.9782216008" lon="23.4348942794">
        <ele>14.2</ele>
        <time>2012-03-27T16:08:27Z</time>
      </trkpt>
      <trkpt lat="59.9781656097" lon="23.4347974685">
        <ele>14.2</ele>
        <time>2012-03-27T16:08:28Z</time>
      </trkpt>
      <trkpt lat="59.9780111313" lon="23.4344567442">
        <ele>14.2</ele>
        <time>2012-03-27T16:08:31Z</time>
      </trkpt>
      <trkpt lat="59.9779745862" lon="23.4343970651">
        <ele>14.2</ele>
        <time>2012-03-27T16:08:32Z</time>
      </trkpt>
      <trkpt lat="59.9778735005" lon="23.4342442631">
        <ele>14.2</ele>
        <time>2012-03-27T16:08:33Z</time>
      </trkpt>
      <trkpt lat="59.9775656333" lon="23.4338633057">
        <ele>14.2</ele>
        <time>2012-03-27T16:08:38Z</time>
      </trkpt>
      <trkpt lat="59.9773698321" lon="23.433608496">
        <ele>14.2</ele>
        <time>2012-03-27T16:08:41Z</time>
      </trkpt>
      <trkpt lat="59.9771845921" lon="23.4333494114">
        <ele>14.2</ele>
        <time>2012-03-27T16:08:44Z</time>
      </trkpt>
      <trkpt lat="59.9770060577" lon="23.4330982897">
        <ele>14.2</ele>
        <time>2012-03-27T16:08:47Z</time>
      </trkpt>
      <trkpt lat="59.9768286129" lon="23.4328829587">
        <ele>14.6</ele>
        <time>2012-03-27T16:08:50Z</time>
      </trkpt>
      <trkpt lat="59.976787793" lon="23.4328441505">
        <ele>14.8</ele>
        <time>2012-03-27T16:08:51Z</time>
      </trkpt>
      <trkpt lat="59.9765240146" lon="23.432559585">
        <ele>15.2</ele>
        <time>2012-03-27T16:08:55Z</time>
      </trkpt>
      <trkpt lat="59.9764607313" lon="23.4325394684">
        <ele>15.4</ele>
        <time>2012-03-27T16:08:56Z</time>
      </trkpt>
      <trkpt lat="59.976324693" lon="23.4325615128">
        <ele>15.6</ele>
        <time>2012-03-27T16:08:58Z</time>
      </trkpt>
      <trkpt lat="59.9761335019" lon="23.4326931087">
        <ele>15.6</ele>
        <time>2012-03-27T16:09:01Z</time>
      </trkpt>
      <trkpt lat="59.9759499383" lon="23.4328359362">
        <ele>15.8</ele>
        <time>2012-03-27T16:09:04Z</time>
      </trkpt>
      <trkpt lat="59.9757657879" lon="23.4329824518">
        <ele>16</ele>
        <time>2012-03-27T16:09:07Z</time>
      </trkpt>
      <trkpt lat="59.9757031751" lon="23.4330231879">
        <ele>16</ele>
        <time>2012-03-27T16:09:08Z</time>
      </trkpt>
      <trkpt lat="59.9756616847" lon="23.4330423824">
        <ele>16</ele>
        <time>2012-03-27T16:09:09Z</time>
      </trkpt>
      <trkpt lat="59.9755333578" lon="23.4329600722">
        <ele>16</ele>
        <time>2012-03-27T16:09:11Z</time>
      </trkpt>
      <trkpt lat="59.9753204576" lon="23.4327469205">
        <ele>16</ele>
        <time>2012-03-27T16:09:14Z</time>
      </trkpt>
      <trkpt lat="59.9750712637" lon="23.432475766">
        <ele>16</ele>
        <time>2012-03-27T16:09:18Z</time>
      </trkpt>
      <trkpt lat="59.9748831739" lon="23.4322847425">
        <ele>16.2</ele>
        <time>2012-03-27T16:09:21Z</time>
      </trkpt>
      <trkpt lat="59.9747582836" lon="23.4321594331">
        <ele>16.2</ele>
        <time>2012-03-27T16:09:23Z</time>
      </trkpt>
      <trkpt lat="59.9746530069" lon="23.431985341">
        <ele>16.2</ele>
        <time>2012-03-27T16:09:25Z</time>
      </trkpt>
      <trkpt lat="59.9746266039" lon="23.4318592772">
        <ele>16.2</ele>
        <time>2012-03-27T16:09:26Z</time>
      </trkpt>
      <trkpt lat="59.9746178029" lon="23.4317843431">
        <ele>16.2</ele>
        <time>2012-03-27T16:09:27Z</time>
      </trkpt>
      <trkpt lat="59.974666837" lon="23.4311732187">
        <ele>16.2</ele>
        <time>2012-03-27T16:09:31Z</time>
      </trkpt>
      <trkpt lat="59.9746897196" lon="23.4309505955">
        <ele>16.6</ele>
        <time>2012-03-27T16:09:33Z</time>
      </trkpt>
      <trkpt lat="59.9746394282" lon="23.4303800395">
        <ele>17.2</ele>
        <time>2012-03-27T16:09:37Z</time>
      </trkpt>
      <trkpt lat="59.9745895559" lon="23.4302793729">
        <ele>17.2</ele>
        <time>2012-03-27T16:09:38Z</time>
      </trkpt>
      <trkpt lat="59.9743676032" lon="23.4299315241">
        <ele>17.6</ele>
        <time>2012-03-27T16:09:42Z</time>
      </trkpt>
      <trkpt lat="59.9742199979" lon="23.4297147681">
        <ele>17.8</ele>
        <time>2012-03-27T16:09:45Z</time>
      </trkpt>
      <trkpt lat="59.9740205925" lon="23.4294600422">
        <ele>17.8</ele>
        <time>2012-03-27T16:09:48Z</time>
      </trkpt>
      <trkpt lat="59.9738620908" lon="23.4292670909">
        <ele>18</ele>
        <time>2012-03-27T16:09:51Z</time>
      </trkpt>
      <trkpt lat="59.9736703968" lon="23.4290123649">
        <ele>18</ele>
        <time>2012-03-27T16:09:54Z</time>
      </trkpt>
      <trkpt lat="59.9735231268" lon="23.4287943517">
        <ele>18</ele>
        <time>2012-03-27T16:09:57Z</time>
      </trkpt>
      <trkpt lat="59.973448444" lon="23.4286991333">
        <ele>18</ele>
        <time>2012-03-27T16:09:58Z</time>
      </trkpt>
      <trkpt lat="59.9732645452" lon="23.4285763385">
        <ele>18.2</ele>
        <time>2012-03-27T16:10:01Z</time>
      </trkpt>
      <trkpt lat="59.9732003398" lon="23.4285600776">
        <ele>18.2</ele>
        <time>2012-03-27T16:10:02Z</time>
      </trkpt>
      <trkpt lat="59.9730701689" lon="23.4285476724">
        <ele>18.2</ele>
        <time>2012-03-27T16:10:04Z</time>
      </trkpt>
      <trkpt lat="59.9729384892" lon="23.428566364">
        <ele>18.2</ele>
        <time>2012-03-27T16:10:06Z</time>
      </trkpt>
      <trkpt lat="59.9726792371" lon="23.428715478">
        <ele>18.2</ele>
        <time>2012-03-27T16:10:10Z</time>
      </trkpt>
      <trkpt lat="59.972637579" lon="23.428740959">
        <ele>18.2</ele>
        <time>2012-03-27T16:10:11Z</time>
      </trkpt>
      <trkpt lat="59.9725239205" lon="23.4287801025">
        <ele>18.2</ele>
        <time>2012-03-27T16:10:12Z</time>
      </trkpt>
      <trkpt lat="59.9722127843" lon="23.4288126242">
        <ele>18.2</ele>
        <time>2012-03-27T16:10:17Z</time>
      </trkpt>
      <trkpt lat="59.971627141" lon="23.4290284582">
        <ele>18.2</ele>
        <time>2012-03-27T16:10:26Z</time>
      </trkpt>
      <trkpt lat="59.971587327" lon="23.4290676016">
        <ele>18.2</ele>
        <time>2012-03-27T16:10:27Z</time>
      </trkpt>
      <trkpt lat="59.971523876" lon="23.4291669271">
        <ele>18.2</ele>
        <time>2012-03-27T16:10:28Z</time>
      </trkpt>
      <trkpt lat="59.9714984788" lon="23.4292227506">
        <ele>18.2</ele>
        <time>2012-03-27T16:10:29Z</time>
      </trkpt>
      <trkpt lat="59.9714857383" lon="23.4294264308">
        <ele>18.2</ele>
        <time>2012-03-27T16:10:30Z</time>
      </trkpt>
      <trkpt lat="59.971595625" lon="23.429952395">
        <ele>18.2</ele>
        <time>2012-03-27T16:10:35Z</time>
      </trkpt>
      <trkpt lat="59.9716765942" lon="23.4302907723">
        <ele>18.2</ele>
        <time>2012-03-27T16:10:38Z</time>
      </trkpt>
      <trkpt lat="59.9717575634" lon="23.4306498529">
        <ele>18.2</ele>
        <time>2012-03-27T16:10:41Z</time>
      </trkpt>
      <trkpt lat="59.9718465791" lon="23.4310041558">
        <ele>18.2</ele>
        <time>2012-03-27T16:10:44Z</time>
      </trkpt>
      <trkpt lat="59.9719412108" lon="23.4313341512">
        <ele>18.2</ele>
        <time>2012-03-27T16:10:47Z</time>
      </trkpt>
      <trkpt lat="59.9719743193" lon="23.4314386735">
        <ele>18.2</ele>
        <time>2012-03-27T16:10:48Z</time>
      </trkpt>
      <trkpt lat="59.972127289" lon="23.4318213072">
        <ele>18.2</ele>
        <time>2012-03-27T16:10:52Z</time>
      </trkpt>
      <trkpt lat="59.9721628282" lon="23.4319105745">
        <ele>18.2</ele>
        <time>2012-03-27T16:10:53Z</time>
      </trkpt>
      <trkpt lat="59.9721994571" lon="23.4319934715">
        <ele>18.2</ele>
        <time>2012-03-27T16:10:54Z</time>
      </trkpt>
      <trkpt lat="59.9722809292" lon="23.432215508">
        <ele>18.2</ele>
        <time>2012-03-27T16:10:57Z</time>
      </trkpt>
      <trkpt lat="59.9722955975" lon="23.4325558131">
        <ele>18.2</ele>
        <time>2012-03-27T16:11:00Z</time>
      </trkpt>
      <trkpt lat="59.9722531851" lon="23.4326475949">
        <ele>18.2</ele>
        <time>2012-03-27T16:11:01Z</time>
      </trkpt>
      <trkpt lat="59.9720557914" lon="23.4330054183">
        <ele>18.2</ele>
        <time>2012-03-27T16:11:05Z</time>
      </trkpt>
      <trkpt lat="59.9720143009" lon="23.4331017263">
        <ele>18.2</ele>
        <time>2012-03-27T16:11:06Z</time>
      </trkpt>
      <trkpt lat="59.9719731458" lon="23.4333911533">
        <ele>18.2</ele>
        <time>2012-03-27T16:11:09Z</time>
      </trkpt>
      <trkpt lat="59.9720220123" lon="23.433509841">
        <ele>18.2</ele>
        <time>2012-03-27T16:11:10Z</time>
      </trkpt>
      <trkpt lat="59.9722759" lon="23.4339133457">
        <ele>18.2</ele>
        <time>2012-03-27T16:11:15Z</time>
      </trkpt>
      <trkpt lat="59.9723191507" lon="23.434003032">
        <ele>18.2</ele>
        <time>2012-03-27T16:11:16Z</time>
      </trkpt>
      <trkpt lat="59.9724048975" lon="23.4341997552">
        <ele>18.2</ele>
        <time>2012-03-27T16:11:18Z</time>
      </trkpt>
      <trkpt lat="59.9724856152" lon="23.4344917806">
        <ele>18.2</ele>
        <time>2012-03-27T16:11:21Z</time>
      </trkpt>
      <trkpt lat="59.9724540154" lon="23.4350304015">
        <ele>18.2</ele>
        <time>2012-03-27T16:11:25Z</time>
      </trkpt>
      <trkpt lat="59.9724313005" lon="23.4351459041">
        <ele>18.2</ele>
        <time>2012-03-27T16:11:26Z</time>
      </trkpt>
      <trkpt lat="59.9724092561" lon="23.4352610714">
        <ele>18.2</ele>
        <time>2012-03-27T16:11:27Z</time>
      </trkpt>
      <trkpt lat="59.9724400177" lon="23.4355846127">
        <ele>18.2</ele>
        <time>2012-03-27T16:11:30Z</time>
      </trkpt>
      <trkpt lat="59.9725374991" lon="23.4357311283">
        <ele>18.2</ele>
        <time>2012-03-27T16:11:32Z</time>
      </trkpt>
      <trkpt lat="59.9726515768" lon="23.4358409312">
        <ele>18.2</ele>
        <time>2012-03-27T16:11:34Z</time>
      </trkpt>
      <trkpt lat="59.9727797361" lon="23.4360635545">
        <ele>18.2</ele>
        <time>2012-03-27T16:11:37Z</time>
      </trkpt>
      <trkpt lat="59.9727838432" lon="23.4361719324">
        <ele>18.2</ele>
        <time>2012-03-27T16:11:38Z</time>
      </trkpt>
      <trkpt lat="59.9727208951" lon="23.4363389837">
        <ele>18.2</ele>
        <time>2012-03-27T16:11:40Z</time>
      </trkpt>
      <trkpt lat="59.9725172988" lon="23.4365428315">
        <ele>18.2</ele>
        <time>2012-03-27T16:11:44Z</time>
      </trkpt>
      <trkpt lat="59.9724846094" lon="23.4365765267">
        <ele>18.2</ele>
        <time>2012-03-27T16:11:45Z</time>
      </trkpt>
      <trkpt lat="59.9723050691" lon="23.4367470146">
        <ele>18.2</ele>
        <time>2012-03-27T16:11:48Z</time>
      </trkpt>
      <trkpt lat="59.9720937614" lon="23.4369599149">
        <ele>18.2</ele>
        <time>2012-03-27T16:11:52Z</time>
      </trkpt>
      <trkpt lat="59.971933248" lon="23.4371330011">
        <ele>18.2</ele>
        <time>2012-03-27T16:11:55Z</time>
      </trkpt>
      <trkpt lat="59.9717263827" lon="23.4373325741">
        <ele>18.2</ele>
        <time>2012-03-27T16:11:59Z</time>
      </trkpt>
      <trkpt lat="59.9715258038" lon="23.4374763237">
        <ele>18.2</ele>
        <time>2012-03-27T16:12:03Z</time>
      </trkpt>
      <trkpt lat="59.9714407275" lon="23.4375115277">
        <ele>18.2</ele>
        <time>2012-03-27T16:12:04Z</time>
      </trkpt>
      <trkpt lat="59.9712625283" lon="23.4376002082">
        <ele>18.2</ele>
        <time>2012-03-27T16:12:07Z</time>
      </trkpt>
      <trkpt lat="59.9710858379" lon="23.4376712867">
        <ele>18.2</ele>
        <time>2012-03-27T16:12:10Z</time>
      </trkpt>
      <trkpt lat="59.9709012684" lon="23.4377366655">
        <ele>18.2</ele>
        <time>2012-03-27T16:12:13Z</time>
      </trkpt>
      <trkpt lat="59.970663893" lon="23.4378515814">
        <ele>18.2</ele>
        <time>2012-03-27T16:12:17Z</time>
      </trkpt>
      <trkpt lat="59.9704810838" lon="23.4379308741">
        <ele>18.2</ele>
        <time>2012-03-27T16:12:20Z</time>
      </trkpt>
      <trkpt lat="59.9702973526" lon="23.4379966721">
        <ele>18.2</ele>
        <time>2012-03-27T16:12:23Z</time>
      </trkpt>
      <trkpt lat="59.9702365" lon="23.4380213987">
        <ele>18.2</ele>
        <time>2012-03-27T16:12:24Z</time>
      </trkpt>
      <trkpt lat="59.9701386832" lon="23.4380816645">
        <ele>18.2</ele>
        <time>2012-03-27T16:12:26Z</time>
      </trkpt>
      <trkpt lat="59.9699862164" lon="23.4383518132">
        <ele>18.2</ele>
        <time>2012-03-27T16:12:29Z</time>
      </trkpt>
      <trkpt lat="59.9698857174" lon="23.4386769471">
        <ele>18.2</ele>
        <time>2012-03-27T16:12:32Z</time>
      </trkpt>
      <trkpt lat="59.9698654332" lon="23.4387415715">
        <ele>18.2</ele>
        <time>2012-03-27T16:12:33Z</time>
      </trkpt>
      <trkpt lat="59.9697431413" lon="23.4391707248">
        <ele>18.2</ele>
        <time>2012-03-27T16:12:36Z</time>
      </trkpt>
      <trkpt lat="59.9696262138" lon="23.4395873052">
        <ele>18.2</ele>
        <time>2012-03-27T16:12:40Z</time>
      </trkpt>
      <trkpt lat="59.969596039" lon="23.4396992874">
        <ele>18.2</ele>
        <time>2012-03-27T16:12:41Z</time>
      </trkpt>
      <trkpt lat="59.9694501101" lon="23.4402928097">
        <ele>18.2</ele>
        <time>2012-03-27T16:12:46Z</time>
      </trkpt>
      <trkpt lat="59.9693625192" lon="23.4406427541">
        <ele>18.2</ele>
        <time>2012-03-27T16:12:49Z</time>
      </trkpt>
      <trkpt lat="59.9692740064" lon="23.4409705702">
        <ele>18.2</ele>
        <time>2012-03-27T16:12:52Z</time>
      </trkpt>
      <trkpt lat="59.969165377" lon="23.4413669502">
        <ele>18.2</ele>
        <time>2012-03-27T16:12:56Z</time>
      </trkpt>
      <trkpt lat="59.9690636207" lon="23.4417557028">
        <ele>18.6</ele>
        <time>2012-03-27T16:13:00Z</time>
      </trkpt>
      <trkpt lat="59.9689563324" lon="23.4421794916">
        <ele>19.2</ele>
        <time>2012-03-27T16:13:04Z</time>
      </trkpt>
      <trkpt lat="59.9688798894" lon="23.4425271728">
        <ele>19.4</ele>
        <time>2012-03-27T16:13:07Z</time>
      </trkpt>
      <trkpt lat="59.9687905384" lon="23.4428982395">
        <ele>19.8</ele>
        <time>2012-03-27T16:13:10Z</time>
      </trkpt>
      <trkpt lat="59.9686919672" lon="23.4432973018">
        <ele>20.6</ele>
        <time>2012-03-27T16:13:13Z</time>
      </trkpt>
      <trkpt lat="59.9685913006" lon="23.4436765828">
        <ele>21</ele>
        <time>2012-03-27T16:13:16Z</time>
      </trkpt>
      <trkpt lat="59.9684910531" lon="23.4440107691">
        <ele>21.4</ele>
        <time>2012-03-27T16:13:19Z</time>
      </trkpt>
      <trkpt lat="59.9683805797" lon="23.444358618">
        <ele>21.6</ele>
        <time>2012-03-27T16:13:23Z</time>
      </trkpt>
      <trkpt lat="59.9682697709" lon="23.4447121665">
        <ele>21.8</ele>
        <time>2012-03-27T16:13:26Z</time>
      </trkpt>
      <trkpt lat="59.9681621473" lon="23.4450314331">
        <ele>22</ele>
        <time>2012-03-27T16:13:29Z</time>
      </trkpt>
      <trkpt lat="59.9680593853" lon="23.4453886697">
        <ele>22</ele>
        <time>2012-03-27T16:13:32Z</time>
      </trkpt>
      <trkpt lat="59.9679474031" lon="23.445752528">
        <ele>22</ele>
        <time>2012-03-27T16:13:35Z</time>
      </trkpt>
      <trkpt lat="59.9678384384" lon="23.4460904862">
        <ele>22.2</ele>
        <time>2012-03-27T16:13:38Z</time>
      </trkpt>
      <trkpt lat="59.9677227681" lon="23.4464285282">
        <ele>22.2</ele>
        <time>2012-03-27T16:13:41Z</time>
      </trkpt>
      <trkpt lat="59.9675920943" lon="23.4467449449">
        <ele>22.2</ele>
        <time>2012-03-27T16:13:44Z</time>
      </trkpt>
      <trkpt lat="59.9674670364" lon="23.447068151">
        <ele>22.2</ele>
        <time>2012-03-27T16:13:47Z</time>
      </trkpt>
      <trkpt lat="59.9673513662" lon="23.4473914409">
        <ele>22.2</ele>
        <time>2012-03-27T16:13:50Z</time>
      </trkpt>
      <trkpt lat="59.9672218658" lon="23.447708109">
        <ele>22.2</ele>
        <time>2012-03-27T16:13:53Z</time>
      </trkpt>
      <trkpt lat="59.9670929522" lon="23.4480250287">
        <ele>22.2</ele>
        <time>2012-03-27T16:13:56Z</time>
      </trkpt>
      <trkpt lat="59.9669657149" lon="23.4483363324">
        <ele>21.6</ele>
        <time>2012-03-27T16:13:59Z</time>
      </trkpt>
      <trkpt lat="59.9668433392" lon="23.4486329679">
        <ele>21.2</ele>
        <time>2012-03-27T16:14:02Z</time>
      </trkpt>
      <trkpt lat="59.966726747" lon="23.4489259153">
        <ele>21</ele>
        <time>2012-03-27T16:14:05Z</time>
      </trkpt>
      <trkpt lat="59.9666870168" lon="23.4490197926">
        <ele>21</ele>
        <time>2012-03-27T16:14:06Z</time>
      </trkpt>
      <trkpt lat="59.9666074725" lon="23.4492135821">
        <ele>20.8</ele>
        <time>2012-03-27T16:14:08Z</time>
      </trkpt>
      <trkpt lat="59.9664805706" lon="23.4495177613">
        <ele>20.6</ele>
        <time>2012-03-27T16:14:11Z</time>
      </trkpt>
      <trkpt lat="59.966423406" lon="23.4496651989">
        <ele>20.6</ele>
        <time>2012-03-27T16:14:12Z</time>
      </trkpt>
      <trkpt lat="59.9663805745" lon="23.4501491698">
        <ele>20.4</ele>
        <time>2012-03-27T16:14:17Z</time>
      </trkpt>
      <trkpt lat="59.9664670757" lon="23.4502732219">
        <ele>20.4</ele>
        <time>2012-03-27T16:14:19Z</time>
      </trkpt>
      <trkpt lat="59.9667473664" lon="23.4504908998">
        <ele>20.4</ele>
        <time>2012-03-27T16:14:24Z</time>
      </trkpt>
      <trkpt lat="59.9669866697" lon="23.4506669197">
        <ele>20.4</ele>
        <time>2012-03-27T16:14:28Z</time>
      </trkpt>
      <trkpt lat="59.9671644498" lon="23.450796001">
        <ele>19.8</ele>
        <time>2012-03-27T16:14:31Z</time>
      </trkpt>
      <trkpt lat="59.9673410564" lon="23.4509198855">
        <ele>19.4</ele>
        <time>2012-03-27T16:14:34Z</time>
      </trkpt>
      <trkpt lat="59.9674552179" lon="23.451004375">
        <ele>19.2</ele>
        <time>2012-03-27T16:14:36Z</time>
      </trkpt>
      <trkpt lat="59.9675947765" lon="23.4511592725">
        <ele>18.8</ele>
        <time>2012-03-27T16:14:39Z</time>
      </trkpt>
      <trkpt lat="59.9677463213" lon="23.4514316843">
        <ele>18.6</ele>
        <time>2012-03-27T16:14:42Z</time>
      </trkpt>
      <trkpt lat="59.9679085111" lon="23.4518099594">
        <ele>18.6</ele>
        <time>2012-03-27T16:14:46Z</time>
      </trkpt>
      <trkpt lat="59.9679971916" lon="23.4519897512">
        <ele>18.4</ele>
        <time>2012-03-27T16:14:48Z</time>
      </trkpt>
      <trkpt lat="59.9681615606" lon="23.4523546153">
        <ele>18.4</ele>
        <time>2012-03-27T16:14:52Z</time>
      </trkpt>
      <trkpt lat="59.968276225" lon="23.4526344869">
        <ele>18.4</ele>
        <time>2012-03-27T16:14:55Z</time>
      </trkpt>
      <trkpt lat="59.9684265125" lon="23.4529825873">
        <ele>18.2</ele>
        <time>2012-03-27T16:14:59Z</time>
      </trkpt>
      <trkpt lat="59.9685611258" lon="23.4533052904">
        <ele>18.2</ele>
        <time>2012-03-27T16:15:03Z</time>
      </trkpt>
      <trkpt lat="59.9686890336" lon="23.4536196955">
        <ele>18.2</ele>
        <time>2012-03-27T16:15:06Z</time>
      </trkpt>
      <trkpt lat="59.9688435958" lon="23.4539843081">
        <ele>18.2</ele>
        <time>2012-03-27T16:15:10Z</time>
      </trkpt>
      <trkpt lat="59.9689888541" lon="23.4543473282">
        <ele>18.2</ele>
        <time>2012-03-27T16:15:14Z</time>
      </trkpt>
      <trkpt lat="59.9691275746" lon="23.4546712048">
        <ele>18.2</ele>
        <time>2012-03-27T16:15:18Z</time>
      </trkpt>
      <trkpt lat="59.9692567397" lon="23.4549877892">
        <ele>18.2</ele>
        <time>2012-03-27T16:15:22Z</time>
      </trkpt>
      <trkpt lat="59.9693879164" lon="23.4553017752">
        <ele>18.2</ele>
        <time>2012-03-27T16:15:26Z</time>
      </trkpt>
      <trkpt lat="59.9695237032" lon="23.4556064572">
        <ele>18.2</ele>
        <time>2012-03-27T16:15:30Z</time>
      </trkpt>
      <trkpt lat="59.969980852" lon="23.4557761907">
        <ele>18.2</ele>
        <time>2012-03-27T16:15:40Z</time>
      </trkpt>
      <trkpt lat="59.9701708697" lon="23.455680637">
        <ele>18.2</ele>
        <time>2012-03-27T16:15:44Z</time>
      </trkpt>
      <trkpt lat="59.9703708618" lon="23.4555890229">
        <ele>18.2</ele>
        <time>2012-03-27T16:15:48Z</time>
      </trkpt>
      <trkpt lat="59.9704225781" lon="23.4555632066">
        <ele>18.2</ele>
        <time>2012-03-27T16:15:49Z</time>
      </trkpt>
      <trkpt lat="59.9706425192" lon="23.4555993326">
        <ele>18.2</ele>
        <time>2012-03-27T16:15:53Z</time>
      </trkpt>
      <trkpt lat="59.970694487" lon="23.4556481991">
        <ele>18.2</ele>
        <time>2012-03-27T16:15:54Z</time>
      </trkpt>
      <trkpt lat="59.9709002626" lon="23.4558547291">
        <ele>18.2</ele>
        <time>2012-03-27T16:15:58Z</time>
      </trkpt>
      <trkpt lat="59.9711111512" lon="23.4560598342">
        <ele>18.2</ele>
        <time>2012-03-27T16:16:02Z</time>
      </trkpt>
      <trkpt lat="59.9713129874" lon="23.4562663642">
        <ele>18.2</ele>
        <time>2012-03-27T16:16:06Z</time>
      </trkpt>
      <trkpt lat="59.971499317" lon="23.4564529453">
        <ele>18.2</ele>
        <time>2012-03-27T16:16:10Z</time>
      </trkpt>
      <trkpt lat="59.9716690505" lon="23.4566454776">
        <ele>18.2</ele>
        <time>2012-03-27T16:16:14Z</time>
      </trkpt>
      <trkpt lat="59.9718339225" lon="23.4568126126">
        <ele>18.6</ele>
        <time>2012-03-27T16:16:18Z</time>
      </trkpt>
      <trkpt lat="59.9720367644" lon="23.4570048934">
        <ele>19.4</ele>
        <time>2012-03-27T16:16:23Z</time>
      </trkpt>
      <trkpt lat="59.9720776681" lon="23.4572845136">
        <ele>19.8</ele>
        <time>2012-03-27T16:16:27Z</time>
      </trkpt>
      <trkpt lat="59.9720576354" lon="23.4573686679">
        <ele>19.8</ele>
        <time>2012-03-27T16:16:28Z</time>
      </trkpt>
      <trkpt lat="59.9719321583" lon="23.4578253138">
        <ele>20</ele>
        <time>2012-03-27T16:16:33Z</time>
      </trkpt>
      <trkpt lat="59.971828139" lon="23.4582220291">
        <ele>20.2</ele>
        <time>2012-03-27T16:16:37Z</time>
      </trkpt>
      <trkpt lat="59.9717456611" lon="23.4585481689">
        <ele>20.2</ele>
        <time>2012-03-27T16:16:40Z</time>
      </trkpt>
      <trkpt lat="59.9716577349" lon="23.4588822714">
        <ele>20.2</ele>
        <time>2012-03-27T16:16:43Z</time>
      </trkpt>
      <trkpt lat="59.9715660369" lon="23.4592190561">
        <ele>20.2</ele>
        <time>2012-03-27T16:16:46Z</time>
      </trkpt>
      <trkpt lat="59.9715387958" lon="23.4593318765">
        <ele>20.4</ele>
        <time>2012-03-27T16:16:47Z</time>
      </trkpt>
      <trkpt lat="59.9714881691" lon="23.4595546674">
        <ele>20.4</ele>
        <time>2012-03-27T16:16:49Z</time>
      </trkpt>
      <trkpt lat="59.9714170906" lon="23.4598846628">
        <ele>20.4</ele>
        <time>2012-03-27T16:16:52Z</time>
      </trkpt>
      <trkpt lat="59.9713329363" lon="23.4603148219">
        <ele>20.4</ele>
        <time>2012-03-27T16:16:56Z</time>
      </trkpt>
      <trkpt lat="59.9712537273" lon="23.4607350066">
        <ele>21</ele>
        <time>2012-03-27T16:17:00Z</time>
      </trkpt>
      <trkpt lat="59.9711527254" lon="23.4612395969">
        <ele>21.4</ele>
        <time>2012-03-27T16:17:05Z</time>
      </trkpt>
      <trkpt lat="59.9711323574" lon="23.4613348991">
        <ele>21.6</ele>
        <time>2012-03-27T16:17:06Z</time>
      </trkpt>
      <trkpt lat="59.9710810602" lon="23.461604042">
        <ele>21.8</ele>
        <time>2012-03-27T16:17:09Z</time>
      </trkpt>
      <trkpt lat="59.9708914616" lon="23.4618249888">
        <ele>22.2</ele>
        <time>2012-03-27T16:17:14Z</time>
      </trkpt>
      <trkpt lat="59.9708591075" lon="23.4618338737">
        <ele>22.4</ele>
        <time>2012-03-27T16:17:15Z</time>
      </trkpt>
      <trkpt lat="59.9706229894" lon="23.4619048683">
        <ele>23.2</ele>
        <time>2012-03-27T16:17:19Z</time>
      </trkpt>
      <trkpt lat="59.9705687585" lon="23.4619274157">
        <ele>23.4</ele>
        <time>2012-03-27T16:17:20Z</time>
      </trkpt>
      <trkpt lat="59.9703380048" lon="23.4621089676">
        <ele>23.8</ele>
        <time>2012-03-27T16:17:24Z</time>
      </trkpt>
      <trkpt lat="59.9703056506" lon="23.4621462671">
        <ele>24</ele>
        <time>2012-03-27T16:17:25Z</time>
      </trkpt>
      <trkpt lat="59.9701672655" lon="23.4623581615">
        <ele>24</ele>
        <time>2012-03-27T16:17:28Z</time>
      </trkpt>
      <trkpt lat="59.9700402797" lon="23.4626625921">
        <ele>24.2</ele>
        <time>2012-03-27T16:17:32Z</time>
      </trkpt>
      <trkpt lat="59.9700004657" lon="23.4630491653">
        <ele>24.4</ele>
        <time>2012-03-27T16:17:36Z</time>
      </trkpt>
      <trkpt lat="59.9700007171" lon="23.4631267817">
        <ele>24.4</ele>
        <time>2012-03-27T16:17:37Z</time>
      </trkpt>
      <trkpt lat="59.9699956042" lon="23.4631945075">
        <ele>24.4</ele>
        <time>2012-03-27T16:17:38Z</time>
      </trkpt>
      <trkpt lat="59.9699402836" lon="23.4632557792">
        <ele>24.4</ele>
        <time>2012-03-27T16:17:41Z</time>
      </trkpt>
      <trkpt lat="59.9698454843" lon="23.4631717925">
        <ele>24.4</ele>
        <time>2012-03-27T16:17:44Z</time>
      </trkpt>
      <trkpt lat="59.9697124636" lon="23.4631666796">
        <ele>24.4</ele>
        <time>2012-03-27T16:17:47Z</time>
      </trkpt>
      <trkpt lat="59.9695549677" lon="23.4632828527">
        <ele>24.6</ele>
        <time>2012-03-27T16:17:51Z</time>
      </trkpt>
      <trkpt lat="59.9695294029" lon="23.4635571923">
        <ele>24.6</ele>
        <time>2012-03-27T16:17:55Z</time>
      </trkpt>
      <trkpt lat="59.9695421434" lon="23.4636364012">
        <ele>24.6</ele>
        <time>2012-03-27T16:17:56Z</time>
      </trkpt>
      <trkpt lat="59.9695870703" lon="23.4639936378">
        <ele>24.6</ele>
        <time>2012-03-27T16:18:00Z</time>
      </trkpt>
      <trkpt lat="59.9696542932" lon="23.4644099668">
        <ele>24.6</ele>
        <time>2012-03-27T16:18:05Z</time>
      </trkpt>
      <trkpt lat="59.9696746612" lon="23.4645794488">
        <ele>24.6</ele>
        <time>2012-03-27T16:18:07Z</time>
      </trkpt>
      <trkpt lat="59.969708105" lon="23.4649090251">
        <ele>24.6</ele>
        <time>2012-03-27T16:18:11Z</time>
      </trkpt>
      <trkpt lat="59.9692123994" lon="23.4653975223">
        <ele>24.6</ele>
        <time>2012-03-27T16:18:22Z</time>
      </trkpt>
      <trkpt lat="59.9690119882" lon="23.4654883821">
        <ele>24.2</ele>
        <time>2012-03-27T16:18:25Z</time>
      </trkpt>
      <trkpt lat="59.968354009" lon="23.4659624623">
        <ele>23.2</ele>
        <time>2012-03-27T16:18:35Z</time>
      </trkpt>
      <trkpt lat="59.9681782406" lon="23.4661453554">
        <ele>23</ele>
        <time>2012-03-27T16:18:38Z</time>
      </trkpt>
      <trkpt lat="59.9679998738" lon="23.4663399831">
        <ele>22.8</ele>
        <time>2012-03-27T16:18:41Z</time>
      </trkpt>
      <trkpt lat="59.9678240215" lon="23.4665429089">
        <ele>22.8</ele>
        <time>2012-03-27T16:18:44Z</time>
      </trkpt>
      <trkpt lat="59.9676417152" lon="23.4667403026">
        <ele>22.6</ele>
        <time>2012-03-27T16:18:47Z</time>
      </trkpt>
      <trkpt lat="59.9674584868" lon="23.466936942">
        <ele>22.6</ele>
        <time>2012-03-27T16:18:50Z</time>
      </trkpt>
      <trkpt lat="59.9672760967" lon="23.4671360121">
        <ele>22.6</ele>
        <time>2012-03-27T16:18:53Z</time>
      </trkpt>
      <trkpt lat="59.9670932875" lon="23.4673385188">
        <ele>22.2</ele>
        <time>2012-03-27T16:18:56Z</time>
      </trkpt>
      <trkpt lat="59.9669053653" lon="23.4675451327">
        <ele>21.6</ele>
        <time>2012-03-27T16:18:59Z</time>
      </trkpt>
      <trkpt lat="59.9667135874" lon="23.4677589549">
        <ele>21.2</ele>
        <time>2012-03-27T16:19:02Z</time>
      </trkpt>
      <trkpt lat="59.9665177862" lon="23.4679743698">
        <ele>21.2</ele>
        <time>2012-03-27T16:19:05Z</time>
      </trkpt>
      <trkpt lat="59.9663207277" lon="23.4681920477">
        <ele>21</ele>
        <time>2012-03-27T16:19:08Z</time>
      </trkpt>
      <trkpt lat="59.9661272735" lon="23.4683964823">
        <ele>20.8</ele>
        <time>2012-03-27T16:19:11Z</time>
      </trkpt>
      <trkpt lat="59.965942285" lon="23.4685954686">
        <ele>20.6</ele>
        <time>2012-03-27T16:19:14Z</time>
      </trkpt>
      <trkpt lat="59.9657041552" lon="23.4688575706">
        <ele>19.8</ele>
        <time>2012-03-27T16:19:18Z</time>
      </trkpt>
      <trkpt lat="59.965528722" lon="23.4690540423">
        <ele>19.4</ele>
        <time>2012-03-27T16:19:21Z</time>
      </trkpt>
      <trkpt lat="59.9652397141" lon="23.4693782542">
        <ele>19</ele>
        <time>2012-03-27T16:19:26Z</time>
      </trkpt>
      <trkpt lat="59.9650697292" lon="23.4695674337">
        <ele>18.8</ele>
        <time>2012-03-27T16:19:29Z</time>
      </trkpt>
      <trkpt lat="59.9649016721" lon="23.4697455491">
        <ele>18.8</ele>
        <time>2012-03-27T16:19:32Z</time>
      </trkpt>
      <trkpt lat="59.9647348723" lon="23.4699111754">
        <ele>18.6</ele>
        <time>2012-03-27T16:19:35Z</time>
      </trkpt>
      <trkpt lat="59.964541418" lon="23.4701668234">
        <ele>18.6</ele>
        <time>2012-03-27T16:19:39Z</time>
      </trkpt>
      <trkpt lat="59.964385347" lon="23.4704659734">
        <ele>18.4</ele>
        <time>2012-03-27T16:19:43Z</time>
      </trkpt>
      <trkpt lat="59.964254757" lon="23.4707869163">
        <ele>18.4</ele>
        <time>2012-03-27T16:19:47Z</time>
      </trkpt>
      <trkpt lat="59.9641382486" lon="23.4710909278">
        <ele>18.4</ele>
        <time>2012-03-27T16:19:51Z</time>
      </trkpt>
      <trkpt lat="59.964108912" lon="23.4711665326">
        <ele>18.4</ele>
        <time>2012-03-27T16:19:52Z</time>
      </trkpt>
      <trkpt lat="59.9639937447" lon="23.4716230947">
        <ele>19</ele>
        <time>2012-03-27T16:19:57Z</time>
      </trkpt>
      <trkpt lat="59.9639522543" lon="23.4718157945">
        <ele>19.4</ele>
        <time>2012-03-27T16:19:59Z</time>
      </trkpt>
      <trkpt lat="59.9638146235" lon="23.4722025354">
        <ele>20</ele>
        <time>2012-03-27T16:20:04Z</time>
      </trkpt>
      <trkpt lat="59.9637837781" lon="23.4722754579">
        <ele>20.2</ele>
        <time>2012-03-27T16:20:05Z</time>
      </trkpt>
      <trkpt lat="59.9637521783" lon="23.4723432675">
        <ele>20.4</ele>
        <time>2012-03-27T16:20:06Z</time>
      </trkpt>
      <trkpt lat="59.9635858814" lon="23.4726473628">
        <ele>21.4</ele>
        <time>2012-03-27T16:20:12Z</time>
      </trkpt>
      <trkpt lat="59.963433247" lon="23.4728806311">
        <ele>22.2</ele>
        <time>2012-03-27T16:20:16Z</time>
      </trkpt>
      <trkpt lat="59.9633252881" lon="23.4730142386">
        <ele>23</ele>
        <time>2012-03-27T16:20:19Z</time>
      </trkpt>
      <trkpt lat="59.9629372062" lon="23.4733985487">
        <ele>24</ele>
        <time>2012-03-27T16:20:29Z</time>
      </trkpt>
      <trkpt lat="59.9626942149" lon="23.4736023965">
        <ele>25.2</ele>
        <time>2012-03-27T16:20:34Z</time>
      </trkpt>
      <trkpt lat="59.9624933007" lon="23.4737838647">
        <ele>25.8</ele>
        <time>2012-03-27T16:20:38Z</time>
      </trkpt>
      <trkpt lat="59.9622804843" lon="23.4739642432">
        <ele>26.2</ele>
        <time>2012-03-27T16:20:42Z</time>
      </trkpt>
      <trkpt lat="59.9620662429" lon="23.4741494831">
        <ele>26.4</ele>
        <time>2012-03-27T16:20:46Z</time>
      </trkpt>
      <trkpt lat="59.9618502414" lon="23.4743370701">
        <ele>26.6</ele>
        <time>2012-03-27T16:20:50Z</time>
      </trkpt>
      <trkpt lat="59.9616410291" lon="23.474519544">
        <ele>26.6</ele>
        <time>2012-03-27T16:20:54Z</time>
      </trkpt>
      <trkpt lat="59.9614374328" lon="23.474709897">
        <ele>27.2</ele>
        <time>2012-03-27T16:20:58Z</time>
      </trkpt>
      <trkpt lat="59.9612293102" lon="23.4748973163">
        <ele>27.8</ele>
        <time>2012-03-27T16:21:02Z</time>
      </trkpt>
      <trkpt lat="59.9610223611" lon="23.4750867472">
        <ele>28.2</ele>
        <time>2012-03-27T16:21:06Z</time>
      </trkpt>
      <trkpt lat="59.9608224528" lon="23.4752973843">
        <ele>28.4</ele>
        <time>2012-03-27T16:21:10Z</time>
      </trkpt>
      <trkpt lat="59.9606364584" lon="23.4755594864">
        <ele>28.6</ele>
        <time>2012-03-27T16:21:14Z</time>
      </trkpt>
      <trkpt lat="59.9604259051" lon="23.4759559502">
        <ele>28.6</ele>
        <time>2012-03-27T16:21:19Z</time>
      </trkpt>
      <trkpt lat="59.9602964886" lon="23.4762652423">
        <ele>28.8</ele>
        <time>2012-03-27T16:21:23Z</time>
      </trkpt>
      <trkpt lat="59.960115691" lon="23.476921126">
        <ele>28.8</ele>
        <time>2012-03-27T16:21:29Z</time>
      </trkpt>
      <trkpt lat="59.9600524076" lon="23.4772754289">
        <ele>28.8</ele>
        <time>2012-03-27T16:21:32Z</time>
      </trkpt>
      <trkpt lat="59.9599956622" lon="23.4776671151">
        <ele>28.8</ele>
        <time>2012-03-27T16:21:35Z</time>
      </trkpt>
      <trkpt lat="59.9599519925" lon="23.4780703683">
        <ele>28.8</ele>
        <time>2012-03-27T16:21:38Z</time>
      </trkpt>
      <trkpt lat="59.9599201413" lon="23.4785071491">
        <ele>28.8</ele>
        <time>2012-03-27T16:21:41Z</time>
      </trkpt>
      <trkpt lat="59.9599004438" lon="23.4789669802">
        <ele>28.8</ele>
        <time>2012-03-27T16:21:44Z</time>
      </trkpt>
      <trkpt lat="59.9598841829" lon="23.4794358637">
        <ele>28.8</ele>
        <time>2012-03-27T16:21:47Z</time>
      </trkpt>
      <trkpt lat="59.9598699337" lon="23.4799073455">
        <ele>28.6</ele>
        <time>2012-03-27T16:21:50Z</time>
      </trkpt>
      <trkpt lat="59.9598561035" lon="23.4803743012">
        <ele>28.2</ele>
        <time>2012-03-27T16:21:53Z</time>
      </trkpt>
      <trkpt lat="59.9598421058" lon="23.4808329587">
        <ele>27.8</ele>
        <time>2012-03-27T16:21:56Z</time>
      </trkpt>
      <trkpt lat="59.9598266831" lon="23.4812932089">
        <ele>27.4</ele>
        <time>2012-03-27T16:21:59Z</time>
      </trkpt>
      <trkpt lat="59.9598222407" lon="23.4814444184">
        <ele>27.4</ele>
        <time>2012-03-27T16:22:00Z</time>
      </trkpt>
      <trkpt lat="59.9598120986" lon="23.4817469211">
        <ele>27.2</ele>
        <time>2012-03-27T16:22:02Z</time>
      </trkpt>
      <trkpt lat="59.9597860309" lon="23.4821948499">
        <ele>27.2</ele>
        <time>2012-03-27T16:22:05Z</time>
      </trkpt>
      <trkpt lat="59.9597692671" lon="23.482646299">
        <ele>27</ele>
        <time>2012-03-27T16:22:08Z</time>
      </trkpt>
      <trkpt lat="59.9597534253" lon="23.4830993407">
        <ele>27</ele>
        <time>2012-03-27T16:22:11Z</time>
      </trkpt>
      <trkpt lat="59.9597388408" lon="23.4835512089">
        <ele>26.8</ele>
        <time>2012-03-27T16:22:14Z</time>
      </trkpt>
      <trkpt lat="59.9597235019" lon="23.4839372792">
        <ele>26.2</ele>
        <time>2012-03-27T16:22:17Z</time>
      </trkpt>
      <trkpt lat="59.9597014575" lon="23.4845522592">
        <ele>25.8</ele>
        <time>2012-03-27T16:22:21Z</time>
      </trkpt>
      <trkpt lat="59.9596819277" lon="23.484971941">
        <ele>25.4</ele>
        <time>2012-03-27T16:22:24Z</time>
      </trkpt>
      <trkpt lat="59.9596673432" lon="23.4853823188">
        <ele>25.2</ele>
        <time>2012-03-27T16:22:27Z</time>
      </trkpt>
      <trkpt lat="59.9596508308" lon="23.4857852367">
        <ele>25</ele>
        <time>2012-03-27T16:22:30Z</time>
      </trkpt>
      <trkpt lat="59.959638258" lon="23.4861920941">
        <ele>25</ele>
        <time>2012-03-27T16:22:33Z</time>
      </trkpt>
      <trkpt lat="59.9596235058" lon="23.4865947606">
        <ele>24.8</ele>
        <time>2012-03-27T16:22:36Z</time>
      </trkpt>
      <trkpt lat="59.9596072449" lon="23.4870010313">
        <ele>24.8</ele>
        <time>2012-03-27T16:22:39Z</time>
      </trkpt>
      <trkpt lat="59.9595914031" lon="23.4874052065">
        <ele>24.8</ele>
        <time>2012-03-27T16:22:42Z</time>
      </trkpt>
      <trkpt lat="59.9595768186" lon="23.487805107">
        <ele>24.8</ele>
        <time>2012-03-27T16:22:45Z</time>
      </trkpt>
      <trkpt lat="59.9595644134" lon="23.4882128864">
        <ele>24.6</ele>
        <time>2012-03-27T16:22:48Z</time>
      </trkpt>
      <trkpt lat="59.9595521758" lon="23.4886180675">
        <ele>24.6</ele>
        <time>2012-03-27T16:22:51Z</time>
      </trkpt>
      <trkpt lat="59.9595413632" lon="23.4890056465">
        <ele>24.6</ele>
        <time>2012-03-27T16:22:54Z</time>
      </trkpt>
      <trkpt lat="59.9595294609" lon="23.4893695886">
        <ele>24.6</ele>
        <time>2012-03-27T16:22:57Z</time>
      </trkpt>
      <trkpt lat="59.9595115236" lon="23.4898445909">
        <ele>24.6</ele>
        <time>2012-03-27T16:23:01Z</time>
      </trkpt>
      <trkpt lat="59.959495598" lon="23.4903015721">
        <ele>24.6</ele>
        <time>2012-03-27T16:23:05Z</time>
      </trkpt>
      <trkpt lat="59.9594746433" lon="23.4907473215">
        <ele>24.6</ele>
        <time>2012-03-27T16:23:09Z</time>
      </trkpt>
      <trkpt lat="59.9594276208" lon="23.4912898819">
        <ele>24.6</ele>
        <time>2012-03-27T16:23:14Z</time>
      </trkpt>
      <trkpt lat="59.959378" lon="23.4916886089">
        <ele>24.8</ele>
        <time>2012-03-27T16:23:18Z</time>
      </trkpt>
      <trkpt lat="59.9593184047" lon="23.4920603462">
        <ele>25.6</ele>
        <time>2012-03-27T16:23:22Z</time>
      </trkpt>
      <trkpt lat="59.9592653472" lon="23.4922986436">
        <ele>25.8</ele>
        <time>2012-03-27T16:23:25Z</time>
      </trkpt>
      <trkpt lat="59.9591288899" lon="23.4927872245">
        <ele>26.4</ele>
        <time>2012-03-27T16:23:32Z</time>
      </trkpt>
      <trkpt lat="59.9590706357" lon="23.4929795053">
        <ele>27</ele>
        <time>2012-03-27T16:23:35Z</time>
      </trkpt>
      <trkpt lat="59.9589605813" lon="23.4933503206">
        <ele>27.8</ele>
        <time>2012-03-27T16:23:41Z</time>
      </trkpt>
      <trkpt lat="59.9588738287" lon="23.4936885302">
        <ele>29</ele>
        <time>2012-03-27T16:23:46Z</time>
      </trkpt>
      <trkpt lat="59.9587820469" lon="23.4940807193">
        <ele>29.8</ele>
        <time>2012-03-27T16:23:51Z</time>
      </trkpt>
      <trkpt lat="59.9587176739" lon="23.4944307475">
        <ele>30.4</ele>
        <time>2012-03-27T16:23:55Z</time>
      </trkpt>
      <trkpt lat="59.9586693103" lon="23.4947770038">
        <ele>31.2</ele>
        <time>2012-03-27T16:23:59Z</time>
      </trkpt>
      <trkpt lat="59.9586252215" lon="23.4952684346">
        <ele>32</ele>
        <time>2012-03-27T16:24:04Z</time>
      </trkpt>
      <trkpt lat="59.958601836" lon="23.4957167824">
        <ele>32.2</ele>
        <time>2012-03-27T16:24:08Z</time>
      </trkpt>
      <trkpt lat="59.9585870001" lon="23.4960838258">
        <ele>32.4</ele>
        <time>2012-03-27T16:24:11Z</time>
      </trkpt>
      <trkpt lat="59.9585817195" lon="23.4962080456">
        <ele>32.4</ele>
        <time>2012-03-27T16:24:12Z</time>
      </trkpt>
      <trkpt lat="59.9585238844" lon="23.4968267136">
        <ele>32.6</ele>
        <time>2012-03-27T16:24:17Z</time>
      </trkpt>
      <trkpt lat="59.9584631994" lon="23.4971826091">
        <ele>32.6</ele>
        <time>2012-03-27T16:24:20Z</time>
      </trkpt>
      <trkpt lat="59.9583909474" lon="23.4974680966">
        <ele>32.6</ele>
        <time>2012-03-27T16:24:23Z</time>
      </trkpt>
      <trkpt lat="59.9582425878" lon="23.4978845094">
        <ele>33.4</ele>
        <time>2012-03-27T16:24:27Z</time>
      </trkpt>
      <trkpt lat="59.9580749498" lon="23.4982262394">
        <ele>33.8</ele>
        <time>2012-03-27T16:24:31Z</time>
      </trkpt>
      <trkpt lat="59.9579027856" lon="23.4985641976">
        <ele>34.2</ele>
        <time>2012-03-27T16:24:35Z</time>
      </trkpt>
      <trkpt lat="59.9577342256" lon="23.4988870684">
        <ele>34.4</ele>
        <time>2012-03-27T16:24:39Z</time>
      </trkpt>
      <trkpt lat="59.9575708623" lon="23.4992049939">
        <ele>34.6</ele>
        <time>2012-03-27T16:24:43Z</time>
      </trkpt>
      <trkpt lat="59.9574143723" lon="23.4995037248">
        <ele>34.8</ele>
        <time>2012-03-27T16:24:47Z</time>
      </trkpt>
      <trkpt lat="59.9572698683" lon="23.4997853567">
        <ele>34.8</ele>
        <time>2012-03-27T16:24:51Z</time>
      </trkpt>
      <trkpt lat="59.9571099416" lon="23.5000986721">
        <ele>34.8</ele>
        <time>2012-03-27T16:24:55Z</time>
      </trkpt>
      <trkpt lat="59.9569465784" lon="23.5004202856">
        <ele>35.4</ele>
        <time>2012-03-27T16:24:59Z</time>
      </trkpt>
      <trkpt lat="59.956780533" lon="23.5007560645">
        <ele>36</ele>
        <time>2012-03-27T16:25:03Z</time>
      </trkpt>
      <trkpt lat="59.9566518708" lon="23.5010083597">
        <ele>36.2</ele>
        <time>2012-03-27T16:25:06Z</time>
      </trkpt>
      <trkpt lat="59.9564779464" lon="23.5013401153">
        <ele>36.4</ele>
        <time>2012-03-27T16:25:10Z</time>
      </trkpt>
      <trkpt lat="59.9562863362" lon="23.5016785764">
        <ele>36.6</ele>
        <time>2012-03-27T16:25:14Z</time>
      </trkpt>
      <trkpt lat="59.9561318577" lon="23.5019214001">
        <ele>36.8</ele>
        <time>2012-03-27T16:25:17Z</time>
      </trkpt>
      <trkpt lat="59.9559679916" lon="23.5021503936">
        <ele>36.8</ele>
        <time>2012-03-27T16:25:20Z</time>
      </trkpt>
      <trkpt lat="59.9558021976" lon="23.5023635453">
        <ele>36.8</ele>
        <time>2012-03-27T16:25:23Z</time>
      </trkpt>
      <trkpt lat="59.9556389182" lon="23.502567896">
        <ele>36.8</ele>
        <time>2012-03-27T16:25:26Z</time>
      </trkpt>
      <trkpt lat="59.9554530077" lon="23.5027960513">
        <ele>36.8</ele>
        <time>2012-03-27T16:25:30Z</time>
      </trkpt>
      <trkpt lat="59.9552572065" lon="23.5030694689">
        <ele>37</ele>
        <time>2012-03-27T16:25:34Z</time>
      </trkpt>
      <trkpt lat="59.9552069151" lon="23.5031258791">
        <ele>37</ele>
        <time>2012-03-27T16:25:35Z</time>
      </trkpt>
      <trkpt lat="59.9550175679" lon="23.5033357619">
        <ele>37</ele>
        <time>2012-03-27T16:25:39Z</time>
      </trkpt>
      <trkpt lat="59.9548239461" lon="23.5035740593">
        <ele>37</ele>
        <time>2012-03-27T16:25:43Z</time>
      </trkpt>
      <trkpt lat="59.9546706411" lon="23.5037647475">
        <ele>37</ele>
        <time>2012-03-27T16:25:46Z</time>
      </trkpt>
      <trkpt lat="59.9545031707" lon="23.5039644044">
        <ele>37</ele>
        <time>2012-03-27T16:25:49Z</time>
      </trkpt>
      <trkpt lat="59.9543322638" lon="23.5041639774">
        <ele>37</ele>
        <time>2012-03-27T16:25:52Z</time>
      </trkpt>
      <trkpt lat="59.9541554057" lon="23.504373944">
        <ele>37</ele>
        <time>2012-03-27T16:25:55Z</time>
      </trkpt>
      <trkpt lat="59.9539860913" lon="23.5045725112">
        <ele>36.6</ele>
        <time>2012-03-27T16:25:58Z</time>
      </trkpt>
      <trkpt lat="59.9538137595" lon="23.5047768619">
        <ele>36</ele>
        <time>2012-03-27T16:26:01Z</time>
      </trkpt>
      <trkpt lat="59.9536378234" lon="23.5049859903">
        <ele>35.6</ele>
        <time>2012-03-27T16:26:04Z</time>
      </trkpt>
      <trkpt lat="59.9534646533" lon="23.5051859825">
        <ele>35</ele>
        <time>2012-03-27T16:26:07Z</time>
      </trkpt>
      <trkpt lat="59.9532935788" lon="23.5053795205">
        <ele>34.4</ele>
        <time>2012-03-27T16:26:10Z</time>
      </trkpt>
      <trkpt lat="59.9531287068" lon="23.5055751541">
        <ele>33.6</ele>
        <time>2012-03-27T16:26:13Z</time>
      </trkpt>
      <trkpt lat="59.95287901" lon="23.5058763996">
        <ele>32.6</ele>
        <time>2012-03-27T16:26:17Z</time>
      </trkpt>
      <trkpt lat="59.952626631" lon="23.5061891283">
        <ele>31</ele>
        <time>2012-03-27T16:26:21Z</time>
      </trkpt>
      <trkpt lat="59.9524059355" lon="23.5064629649">
        <ele>29.6</ele>
        <time>2012-03-27T16:26:25Z</time>
      </trkpt>
      <trkpt lat="59.9523550574" lon="23.5065251586">
        <ele>29.2</ele>
        <time>2012-03-27T16:26:26Z</time>
      </trkpt>
      <trkpt lat="59.9522255571" lon="23.5069123186">
        <ele>27.4</ele>
        <time>2012-03-27T16:26:30Z</time>
      </trkpt>
      <trkpt lat="59.9522207794" lon="23.5070071179">
        <ele>27</ele>
        <time>2012-03-27T16:26:31Z</time>
      </trkpt>
      <trkpt lat="59.9522956297" lon="23.5078157198">
        <ele>24.8</ele>
        <time>2012-03-27T16:26:37Z</time>
      </trkpt>
      <trkpt lat="59.9523296603" lon="23.5081891334">
        <ele>23.8</ele>
        <time>2012-03-27T16:26:40Z</time>
      </trkpt>
      <trkpt lat="59.9523659539" lon="23.5085622956">
        <ele>23.2</ele>
        <time>2012-03-27T16:26:43Z</time>
      </trkpt>
      <trkpt lat="59.9524025828" lon="23.5089305125">
        <ele>22.6</ele>
        <time>2012-03-27T16:26:46Z</time>
      </trkpt>
      <trkpt lat="59.9524429835" lon="23.5092984779">
        <ele>21.8</ele>
        <time>2012-03-27T16:26:49Z</time>
      </trkpt>
      <trkpt lat="59.9524813726" lon="23.5096773398">
        <ele>21</ele>
        <time>2012-03-27T16:26:52Z</time>
      </trkpt>
      <trkpt lat="59.9525249585" lon="23.5100628233">
        <ele>20.6</ele>
        <time>2012-03-27T16:26:55Z</time>
      </trkpt>
      <trkpt lat="59.9525839671" lon="23.5105145239">
        <ele>20.2</ele>
        <time>2012-03-27T16:26:59Z</time>
      </trkpt>
      <trkpt lat="59.9525970429" lon="23.5106212255">
        <ele>20</ele>
        <time>2012-03-27T16:27:00Z</time>
      </trkpt>
      <trkpt lat="59.9526513576" lon="23.5109315235">
        <ele>19.8</ele>
        <time>2012-03-27T16:27:03Z</time>
      </trkpt>
      <trkpt lat="59.9526725638" lon="23.5110281668">
        <ele>19.8</ele>
        <time>2012-03-27T16:27:04Z</time>
      </trkpt>
      <trkpt lat="59.9528077638" lon="23.5114594155">
        <ele>19.6</ele>
        <time>2012-03-27T16:27:09Z</time>
      </trkpt>
      <trkpt lat="59.9528608213" lon="23.5115879939">
        <ele>19.6</ele>
        <time>2012-03-27T16:27:11Z</time>
      </trkpt>
      <trkpt lat="59.952967439" lon="23.5117786821">
        <ele>19.4</ele>
        <time>2012-03-27T16:27:14Z</time>
      </trkpt>
      <trkpt lat="59.9533761405" lon="23.5122814285">
        <ele>20.6</ele>
        <time>2012-03-27T16:27:27Z</time>
      </trkpt>
      <trkpt lat="59.953534726" lon="23.5124612202">
        <ele>21.8</ele>
        <time>2012-03-27T16:27:32Z</time>
      </trkpt>
      <trkpt lat="59.9537156074" lon="23.5126862742">
        <ele>22.6</ele>
        <time>2012-03-27T16:27:38Z</time>
      </trkpt>
      <trkpt lat="59.953879725" lon="23.5128855958">
        <ele>23.8</ele>
        <time>2012-03-27T16:27:43Z</time>
      </trkpt>
      <trkpt lat="59.9540316889" lon="23.5130939698">
        <ele>24.8</ele>
        <time>2012-03-27T16:27:48Z</time>
      </trkpt>
      <trkpt lat="59.9541920346" lon="23.5133156711">
        <ele>26</ele>
        <time>2012-03-27T16:27:53Z</time>
      </trkpt>
      <trkpt lat="59.9543399752" lon="23.5135789466">
        <ele>27</ele>
        <time>2012-03-27T16:27:58Z</time>
      </trkpt>
      <trkpt lat="59.9544786956" lon="23.5138801082">
        <ele>28.2</ele>
        <time>2012-03-27T16:28:03Z</time>
      </trkpt>
      <trkpt lat="59.9546028315" lon="23.5142153004">
        <ele>28.8</ele>
        <time>2012-03-27T16:28:08Z</time>
      </trkpt>
      <trkpt lat="59.9547218545" lon="23.5145742134">
        <ele>30</ele>
        <time>2012-03-27T16:28:13Z</time>
      </trkpt>
      <trkpt lat="59.9548348425" lon="23.5149368144">
        <ele>30.8</ele>
        <time>2012-03-27T16:28:19Z</time>
      </trkpt>
      <trkpt lat="59.9548516901" lon="23.5149988404">
        <ele>31</ele>
        <time>2012-03-27T16:28:20Z</time>
      </trkpt>
      <trkpt lat="59.9549699588" lon="23.515385246">
        <ele>31.4</ele>
        <time>2012-03-27T16:28:26Z</time>
      </trkpt>
      <trkpt lat="59.9550686975" lon="23.5157092065">
        <ele>31.6</ele>
        <time>2012-03-27T16:28:31Z</time>
      </trkpt>
      <trkpt lat="59.9551767402" lon="23.5160815305">
        <ele>31.6</ele>
        <time>2012-03-27T16:28:36Z</time>
      </trkpt>
      <trkpt lat="59.9552285404" lon="23.5163039023">
        <ele>31.8</ele>
        <time>2012-03-27T16:28:39Z</time>
      </trkpt>
      <trkpt lat="59.9553237588" lon="23.5167381685">
        <ele>31.8</ele>
        <time>2012-03-27T16:28:44Z</time>
      </trkpt>
      <trkpt lat="59.9554116011" lon="23.5171319502">
        <ele>31.8</ele>
        <time>2012-03-27T16:28:48Z</time>
      </trkpt>
      <trkpt lat="59.9555043887" lon="23.5175371312">
        <ele>31.8</ele>
        <time>2012-03-27T16:28:52Z</time>
      </trkpt>
      <trkpt lat="59.9555828433" lon="23.5178904283">
        <ele>31.8</ele>
        <time>2012-03-27T16:28:55Z</time>
      </trkpt>
      <trkpt lat="59.9556643992" lon="23.5182462399">
        <ele>31.8</ele>
        <time>2012-03-27T16:28:58Z</time>
      </trkpt>
      <trkpt lat="59.95574738" lon="23.5186292928">
        <ele>31.8</ele>
        <time>2012-03-27T16:29:01Z</time>
      </trkpt>
      <trkpt lat="59.9558147705" lon="23.5190349767">
        <ele>31.8</ele>
        <time>2012-03-27T16:29:04Z</time>
      </trkpt>
      <trkpt lat="59.9558611224" lon="23.5194555805">
        <ele>31.8</ele>
        <time>2012-03-27T16:29:07Z</time>
      </trkpt>
      <trkpt lat="59.9558721027" lon="23.5196046107">
        <ele>31.8</ele>
        <time>2012-03-27T16:29:08Z</time>
      </trkpt>
      <trkpt lat="59.9559033671" lon="23.5202431438">
        <ele>31.8</ele>
        <time>2012-03-27T16:29:12Z</time>
      </trkpt>
      <trkpt lat="59.9559186222" lon="23.5206184015">
        <ele>31.8</ele>
        <time>2012-03-27T16:29:15Z</time>
      </trkpt>
      <trkpt lat="59.9559310274" lon="23.5210257618">
        <ele>31.8</ele>
        <time>2012-03-27T16:29:18Z</time>
      </trkpt>
      <trkpt lat="59.9559571789" lon="23.5216898597">
        <ele>31.8</ele>
        <time>2012-03-27T16:29:23Z</time>
      </trkpt>
      <trkpt lat="59.9559734398" lon="23.5220849825">
        <ele>31.8</ele>
        <time>2012-03-27T16:29:26Z</time>
      </trkpt>
      <trkpt lat="59.9559861803" lon="23.5224793509">
        <ele>31.8</ele>
        <time>2012-03-27T16:29:29Z</time>
      </trkpt>
      <trkpt lat="59.9559985855" lon="23.5228658403">
        <ele>31.8</ele>
        <time>2012-03-27T16:29:32Z</time>
      </trkpt>
      <trkpt lat="59.9560141759" lon="23.5232601249">
        <ele>31.8</ele>
        <time>2012-03-27T16:29:35Z</time>
      </trkpt>
      <trkpt lat="59.9560279222" lon="23.5236287609">
        <ele>31.8</ele>
        <time>2012-03-27T16:29:38Z</time>
      </trkpt>
      <trkpt lat="59.956041417" lon="23.524009802">
        <ele>31.8</ele>
        <time>2012-03-27T16:29:41Z</time>
      </trkpt>
      <trkpt lat="59.9560554986" lon="23.524388161">
        <ele>31.8</ele>
        <time>2012-03-27T16:29:44Z</time>
      </trkpt>
      <trkpt lat="59.9560756152" lon="23.5247622452">
        <ele>31.8</ele>
        <time>2012-03-27T16:29:47Z</time>
      </trkpt>
      <trkpt lat="59.9561000065" lon="23.5251361617">
        <ele>31.8</ele>
        <time>2012-03-27T16:29:50Z</time>
      </trkpt>
      <trkpt lat="59.956142838" lon="23.5255135987">
        <ele>31.8</ele>
        <time>2012-03-27T16:29:53Z</time>
      </trkpt>
      <trkpt lat="59.9561577578" lon="23.5256406683">
        <ele>31.8</ele>
        <time>2012-03-27T16:29:54Z</time>
      </trkpt>
      <trkpt lat="59.9561943867" lon="23.5258852522">
        <ele>31.8</ele>
        <time>2012-03-27T16:29:56Z</time>
      </trkpt>
      <trkpt lat="59.9562366315" lon="23.5261320991">
        <ele>31.8</ele>
        <time>2012-03-27T16:29:58Z</time>
      </trkpt>
      <trkpt lat="59.9563078776" lon="23.5265045907">
        <ele>31.4</ele>
        <time>2012-03-27T16:30:01Z</time>
      </trkpt>
      <trkpt lat="59.9563973125" lon="23.5268737296">
        <ele>31</ele>
        <time>2012-03-27T16:30:04Z</time>
      </trkpt>
      <trkpt lat="59.9564860768" lon="23.5272318044">
        <ele>30.6</ele>
        <time>2012-03-27T16:30:07Z</time>
      </trkpt>
      <trkpt lat="59.9565741706" lon="23.5275816649">
        <ele>30.4</ele>
        <time>2012-03-27T16:30:10Z</time>
      </trkpt>
      <trkpt lat="59.9566494401" lon="23.5279226406">
        <ele>30.2</ele>
        <time>2012-03-27T16:30:13Z</time>
      </trkpt>
      <trkpt lat="59.9567217759" lon="23.5282635325">
        <ele>30</ele>
        <time>2012-03-27T16:30:16Z</time>
      </trkpt>
      <trkpt lat="59.9568915093" lon="23.5289327434">
        <ele>30</ele>
        <time>2012-03-27T16:30:23Z</time>
      </trkpt>
      <trkpt lat="59.9569906672" lon="23.5292935003">
        <ele>30</ele>
        <time>2012-03-27T16:30:27Z</time>
      </trkpt>
      <trkpt lat="59.9571269569" lon="23.5296506531">
        <ele>29.8</ele>
        <time>2012-03-27T16:30:31Z</time>
      </trkpt>
      <trkpt lat="59.9572867997" lon="23.5299819896">
        <ele>30.6</ele>
        <time>2012-03-27T16:30:35Z</time>
      </trkpt>
      <trkpt lat="59.9574643284" lon="23.5302469415">
        <ele>31</ele>
        <time>2012-03-27T16:30:39Z</time>
      </trkpt>
      <trkpt lat="59.9576425276" lon="23.5305211972">
        <ele>32</ele>
        <time>2012-03-27T16:30:43Z</time>
      </trkpt>
      <trkpt lat="59.9578417653" lon="23.5307572315">
        <ele>32.8</ele>
        <time>2012-03-27T16:30:47Z</time>
      </trkpt>
      <trkpt lat="59.9580451102" lon="23.5310129633">
        <ele>33.4</ele>
        <time>2012-03-27T16:30:51Z</time>
      </trkpt>
      <trkpt lat="59.958205456" lon="23.5312262826">
        <ele>34.2</ele>
        <time>2012-03-27T16:30:54Z</time>
      </trkpt>
      <trkpt lat="59.9583578389" lon="23.5314515043">
        <ele>34.8</ele>
        <time>2012-03-27T16:30:57Z</time>
      </trkpt>
      <trkpt lat="59.9585019238" lon="23.5316922325">
        <ele>35.2</ele>
        <time>2012-03-27T16:31:00Z</time>
      </trkpt>
      <trkpt lat="59.958673166" lon="23.5320210544">
        <ele>35.4</ele>
        <time>2012-03-27T16:31:04Z</time>
      </trkpt>
      <trkpt lat="59.9588285664" lon="23.5323580068">
        <ele>36.2</ele>
        <time>2012-03-27T16:31:08Z</time>
      </trkpt>
      <trkpt lat="59.9589716455" lon="23.5326629403">
        <ele>36.8</ele>
        <time>2012-03-27T16:31:12Z</time>
      </trkpt>
      <trkpt lat="59.9590979607" lon="23.532931664">
        <ele>37.2</ele>
        <time>2012-03-27T16:31:15Z</time>
      </trkpt>
      <trkpt lat="59.9592550375" lon="23.5332539481">
        <ele>37.6</ele>
        <time>2012-03-27T16:31:19Z</time>
      </trkpt>
      <trkpt lat="59.9594577957" lon="23.5336701932">
        <ele>37.8</ele>
        <time>2012-03-27T16:31:24Z</time>
      </trkpt>
      <trkpt lat="59.9595822669" lon="23.5339340554">
        <ele>38</ele>
        <time>2012-03-27T16:31:27Z</time>
      </trkpt>
      <trkpt lat="59.9597085821" lon="23.534222309">
        <ele>38</ele>
        <time>2012-03-27T16:31:30Z</time>
      </trkpt>
      <trkpt lat="59.9598457938" lon="23.5345034379">
        <ele>38</ele>
        <time>2012-03-27T16:31:33Z</time>
      </trkpt>
      <trkpt lat="59.9599750427" lon="23.5347913562">
        <ele>38.2</ele>
        <time>2012-03-27T16:31:36Z</time>
      </trkpt>
      <trkpt lat="59.9601062194" lon="23.5350898356">
        <ele>38.2</ele>
        <time>2012-03-27T16:31:39Z</time>
      </trkpt>
      <trkpt lat="59.9602434311" lon="23.535384208">
        <ele>38.2</ele>
        <time>2012-03-27T16:31:42Z</time>
      </trkpt>
      <trkpt lat="59.9603787988" lon="23.5356800052">
        <ele>38.2</ele>
        <time>2012-03-27T16:31:45Z</time>
      </trkpt>
      <trkpt lat="59.9605090536" lon="23.5359789038">
        <ele>38.2</ele>
        <time>2012-03-27T16:31:48Z</time>
      </trkpt>
      <trkpt lat="59.960632016" lon="23.5362923868">
        <ele>38.2</ele>
        <time>2012-03-27T16:31:51Z</time>
      </trkpt>
      <trkpt lat="59.9607512905" lon="23.5366115696">
        <ele>38.2</ele>
        <time>2012-03-27T16:31:54Z</time>
      </trkpt>
      <trkpt lat="59.9608677151" lon="23.5369348595">
        <ele>38.2</ele>
        <time>2012-03-27T16:31:57Z</time>
      </trkpt>
      <trkpt lat="59.9609770988" lon="23.5372529526">
        <ele>38.2</ele>
        <time>2012-03-27T16:32:00Z</time>
      </trkpt>
      <trkpt lat="59.9610821241" lon="23.5375788408">
        <ele>38.2</ele>
        <time>2012-03-27T16:32:03Z</time>
      </trkpt>
      <trkpt lat="59.9611819525" lon="23.5379255162">
        <ele>38.2</ele>
        <time>2012-03-27T16:32:06Z</time>
      </trkpt>
      <trkpt lat="59.9612776738" lon="23.5383070603">
        <ele>38.2</ele>
        <time>2012-03-27T16:32:09Z</time>
      </trkpt>
      <trkpt lat="59.9613648455" lon="23.538714253">
        <ele>37.8</ele>
        <time>2012-03-27T16:32:12Z</time>
      </trkpt>
      <trkpt lat="59.96143408" lon="23.539046763">
        <ele>37.4</ele>
        <time>2012-03-27T16:32:14Z</time>
      </trkpt>
      <trkpt lat="59.9614729721" lon="23.5392741639">
        <ele>37.2</ele>
        <time>2012-03-27T16:32:16Z</time>
      </trkpt>
      <trkpt lat="59.9615478224" lon="23.5397072567">
        <ele>37</ele>
        <time>2012-03-27T16:32:19Z</time>
      </trkpt>
      <trkpt lat="59.9615723814" lon="23.5398484917">
        <ele>36.8</ele>
        <time>2012-03-27T16:32:20Z</time>
      </trkpt>
      <trkpt lat="59.9616406101" lon="23.5402154513">
        <ele>36.6</ele>
        <time>2012-03-27T16:32:23Z</time>
      </trkpt>
      <trkpt lat="59.9618040571" lon="23.5408652162">
        <ele>36</ele>
        <time>2012-03-27T16:32:28Z</time>
      </trkpt>
      <trkpt lat="59.9619160393" lon="23.5411931999">
        <ele>35.4</ele>
        <time>2012-03-27T16:32:31Z</time>
      </trkpt>
      <trkpt lat="59.9620406781" lon="23.5414772625">
        <ele>35</ele>
        <time>2012-03-27T16:32:34Z</time>
      </trkpt>
      <trkpt lat="59.962182919" lon="23.5417222655">
        <ele>34.8</ele>
        <time>2012-03-27T16:32:37Z</time>
      </trkpt>
      <trkpt lat="59.9623764571" lon="23.5419765723">
        <ele>34.6</ele>
        <time>2012-03-27T16:32:41Z</time>
      </trkpt>
      <trkpt lat="59.9625537342" lon="23.542217971">
        <ele>34.4</ele>
        <time>2012-03-27T16:32:45Z</time>
      </trkpt>
      <trkpt lat="59.962720115" lon="23.5424931488">
        <ele>34.2</ele>
        <time>2012-03-27T16:32:49Z</time>
      </trkpt>
      <trkpt lat="59.9628858251" lon="23.5428248206">
        <ele>34.2</ele>
        <time>2012-03-27T16:32:53Z</time>
      </trkpt>
      <trkpt lat="59.9630022497" lon="23.5431137447">
        <ele>34.2</ele>
        <time>2012-03-27T16:32:56Z</time>
      </trkpt>
      <trkpt lat="59.9630947859" lon="23.543445165">
        <ele>34.2</ele>
        <time>2012-03-27T16:32:59Z</time>
      </trkpt>
      <trkpt lat="59.9631897528" lon="23.5438007252">
        <ele>34.2</ele>
        <time>2012-03-27T16:33:02Z</time>
      </trkpt>
      <trkpt lat="59.9632958677" lon="23.5441795871">
        <ele>34</ele>
        <time>2012-03-27T16:33:05Z</time>
      </trkpt>
      <trkpt lat="59.9634120408" lon="23.5445737878">
        <ele>33.8</ele>
        <time>2012-03-27T16:33:08Z</time>
      </trkpt>
      <trkpt lat="59.9635284654" lon="23.5449354668">
        <ele>33.4</ele>
        <time>2012-03-27T16:33:11Z</time>
      </trkpt>
      <trkpt lat="59.9636795072" lon="23.5453750137">
        <ele>32.6</ele>
        <time>2012-03-27T16:33:14Z</time>
      </trkpt>
      <trkpt lat="59.9637869632" lon="23.5456697213">
        <ele>31.8</ele>
        <time>2012-03-27T16:33:16Z</time>
      </trkpt>
      <trkpt lat="59.9638191497" lon="23.545753205">
        <ele>31.6</ele>
        <time>2012-03-27T16:33:17Z</time>
      </trkpt>
      <trkpt lat="59.9642789807" lon="23.5464100107">
        <ele>29.4</ele>
        <time>2012-03-27T16:33:25Z</time>
      </trkpt>
      <trkpt lat="59.9645856744" lon="23.5466359029">
        <ele>27.8</ele>
        <time>2012-03-27T16:33:30Z</time>
      </trkpt>
      <trkpt lat="59.9647619458" lon="23.54678267">
        <ele>27</ele>
        <time>2012-03-27T16:33:33Z</time>
      </trkpt>
      <trkpt lat="59.9649357026" lon="23.5469456141">
        <ele>26.6</ele>
        <time>2012-03-27T16:33:36Z</time>
      </trkpt>
      <trkpt lat="59.9651256364" lon="23.547073019">
        <ele>26.2</ele>
        <time>2012-03-27T16:33:39Z</time>
      </trkpt>
      <trkpt lat="59.9652529575" lon="23.547130435">
        <ele>26</ele>
        <time>2012-03-27T16:33:41Z</time>
      </trkpt>
      <trkpt lat="59.9654971222" lon="23.5471667286">
        <ele>25.8</ele>
        <time>2012-03-27T16:33:45Z</time>
      </trkpt>
      <trkpt lat="59.9657064183" lon="23.5471875995">
        <ele>25.6</ele>
        <time>2012-03-27T16:33:49Z</time>
      </trkpt>
      <trkpt lat="59.9657595595" lon="23.5471937183">
        <ele>25.6</ele>
        <time>2012-03-27T16:33:50Z</time>
      </trkpt>
      <trkpt lat="59.9659898941" lon="23.5473678104">
        <ele>25.4</ele>
        <time>2012-03-27T16:33:54Z</time>
      </trkpt>
      <trkpt lat="59.9660930753" lon="23.5475494462">
        <ele>25.4</ele>
        <time>2012-03-27T16:33:56Z</time>
      </trkpt>
      <trkpt lat="59.9661883775" lon="23.5477485163">
        <ele>25.4</ele>
        <time>2012-03-27T16:33:58Z</time>
      </trkpt>
      <trkpt lat="59.966421562" lon="23.5479804435">
        <ele>25.2</ele>
        <time>2012-03-27T16:34:02Z</time>
      </trkpt>
      <trkpt lat="59.9665614559" lon="23.5479997218">
        <ele>25</ele>
        <time>2012-03-27T16:34:04Z</time>
      </trkpt>
      <trkpt lat="59.9668687364" lon="23.5479831257">
        <ele>24.4</ele>
        <time>2012-03-27T16:34:08Z</time>
      </trkpt>
      <trkpt lat="59.9670777809" lon="23.5479846344">
        <ele>24</ele>
        <time>2012-03-27T16:34:11Z</time>
      </trkpt>
      <trkpt lat="59.9671393879" lon="23.5479967044">
        <ele>24</ele>
        <time>2012-03-27T16:34:12Z</time>
      </trkpt>
      <trkpt lat="59.9672947883" lon="23.5480654359">
        <ele>23.8</ele>
        <time>2012-03-27T16:34:15Z</time>
      </trkpt>
      <trkpt lat="59.9674938585" lon="23.548302979">
        <ele>23.6</ele>
        <time>2012-03-27T16:34:20Z</time>
      </trkpt>
      <trkpt lat="59.9676604068" lon="23.54845905">
        <ele>23.4</ele>
        <time>2012-03-27T16:34:24Z</time>
      </trkpt>
      <trkpt lat="59.9680461419" lon="23.5486566113">
        <ele>23.2</ele>
        <time>2012-03-27T16:34:32Z</time>
      </trkpt>
      <trkpt lat="59.9681761451" lon="23.5487074895">
        <ele>23.2</ele>
        <time>2012-03-27T16:34:35Z</time>
      </trkpt>
      <trkpt lat="59.9683763887" lon="23.5488478863">
        <ele>23.2</ele>
        <time>2012-03-27T16:34:40Z</time>
      </trkpt>
      <trkpt lat="59.9685264247" lon="23.5491020255">
        <ele>23.2</ele>
        <time>2012-03-27T16:34:44Z</time>
      </trkpt>
      <trkpt lat="59.9685613772" lon="23.5491928015">
        <ele>23.2</ele>
        <time>2012-03-27T16:34:45Z</time>
      </trkpt>
      <trkpt lat="59.9686353894" lon="23.5493802208">
        <ele>23.2</ele>
        <time>2012-03-27T16:34:47Z</time>
      </trkpt>
      <trkpt lat="59.9688334537" lon="23.5496663788">
        <ele>23.2</ele>
        <time>2012-03-27T16:34:51Z</time>
      </trkpt>
      <trkpt lat="59.9689524767" lon="23.5497429056">
        <ele>23.2</ele>
        <time>2012-03-27T16:34:53Z</time>
      </trkpt>
      <trkpt lat="59.9691992398" lon="23.5498491043">
        <ele>23.2</ele>
        <time>2012-03-27T16:34:57Z</time>
      </trkpt>
      <trkpt lat="59.9693776905" lon="23.5499279779">
        <ele>23.2</ele>
        <time>2012-03-27T16:35:00Z</time>
      </trkpt>
      <trkpt lat="59.9694891698" lon="23.5499954522">
        <ele>23.2</ele>
        <time>2012-03-27T16:35:02Z</time>
      </trkpt>
      <trkpt lat="59.9697505174" lon="23.550272474">
        <ele>23.2</ele>
        <time>2012-03-27T16:35:07Z</time>
      </trkpt>
      <trkpt lat="59.9699099411" lon="23.5504728852">
        <ele>23.2</ele>
        <time>2012-03-27T16:35:10Z</time>
      </trkpt>
      <trkpt lat="59.9700803452" lon="23.5506749729">
        <ele>23.2</ele>
        <time>2012-03-27T16:35:13Z</time>
      </trkpt>
      <trkpt lat="59.9702397689" lon="23.5508821734">
        <ele>23.2</ele>
        <time>2012-03-27T16:35:16Z</time>
      </trkpt>
      <trkpt lat="59.9704344804" lon="23.5510973368">
        <ele>23.2</ele>
        <time>2012-03-27T16:35:20Z</time>
      </trkpt>
      <trkpt lat="59.9705944909" lon="23.5512720994">
        <ele>23.2</ele>
        <time>2012-03-27T16:35:23Z</time>
      </trkpt>
      <trkpt lat="59.9707767972" lon="23.5514383125">
        <ele>23.2</ele>
        <time>2012-03-27T16:35:27Z</time>
      </trkpt>
      <trkpt lat="59.9709639651" lon="23.5516196968">
        <ele>23.2</ele>
        <time>2012-03-27T16:35:31Z</time>
      </trkpt>
      <trkpt lat="59.9712739277" lon="23.5519694735">
        <ele>23.2</ele>
        <time>2012-03-27T16:35:38Z</time>
      </trkpt>
      <trkpt lat="59.9713082935" lon="23.5520219442">
        <ele>23.2</ele>
        <time>2012-03-27T16:35:39Z</time>
      </trkpt>
      <trkpt lat="59.9713823895" lon="23.5522036638">
        <ele>23.2</ele>
        <time>2012-03-27T16:35:43Z</time>
      </trkpt>
      <trkpt lat="59.9714308369" lon="23.5522360179">
        <ele>23.6</ele>
        <time>2012-03-27T16:35:47Z</time>
      </trkpt>
      <trkpt lat="59.9714325133" lon="23.5522258758">
        <ele>23.8</ele>
        <time>2012-03-27T16:35:48Z</time>
      </trkpt>
      <trkpt lat="59.9713776956" lon="23.5521508578">
        <ele>24.6</ele>
        <time>2012-03-27T16:35:57Z</time>
      </trkpt>
      <trkpt lat="59.9712751012" lon="23.5519951221">
        <ele>24.8</ele>
        <time>2012-03-27T16:36:01Z</time>
      </trkpt>
      <trkpt lat="59.9711031884" lon="23.5517667153">
        <ele>25</ele>
        <time>2012-03-27T16:36:05Z</time>
      </trkpt>
      <trkpt lat="59.9710573394" lon="23.5517110595">
        <ele>25</ele>
        <time>2012-03-27T16:36:06Z</time>
      </trkpt>
      <trkpt lat="59.9708196287" lon="23.5514806411">
        <ele>25</ele>
        <time>2012-03-27T16:36:10Z</time>
      </trkpt>
      <trkpt lat="59.970625001" lon="23.551309818">
        <ele>25</ele>
        <time>2012-03-27T16:36:13Z</time>
      </trkpt>
      <trkpt lat="59.970422662" lon="23.5510998514">
        <ele>25.2</ele>
        <time>2012-03-27T16:36:16Z</time>
      </trkpt>
      <trkpt lat="59.9702282857" lon="23.5508984343">
        <ele>25.2</ele>
        <time>2012-03-27T16:36:20Z</time>
      </trkpt>
      <trkpt lat="59.9700402797" lon="23.5506698599">
        <ele>25.2</ele>
        <time>2012-03-27T16:36:24Z</time>
      </trkpt>
      <trkpt lat="59.9698548721" lon="23.5503882281">
        <ele>25.2</ele>
        <time>2012-03-27T16:36:28Z</time>
      </trkpt>
      <trkpt lat="59.9696574783" lon="23.5501331668">
        <ele>25.2</ele>
        <time>2012-03-27T16:36:32Z</time>
      </trkpt>
      <trkpt lat="59.9696060973" lon="23.5500689615">
        <ele>25.2</ele>
        <time>2012-03-27T16:36:33Z</time>
      </trkpt>
      <trkpt lat="59.9693265609" lon="23.5498635211">
        <ele>25.2</ele>
        <time>2012-03-27T16:36:38Z</time>
      </trkpt>
      <trkpt lat="59.9691446737" lon="23.5497826358">
        <ele>25.2</ele>
        <time>2012-03-27T16:36:41Z</time>
      </trkpt>
      <trkpt lat="59.9689176918" lon="23.5496833103">
        <ele>25.2</ele>
        <time>2012-03-27T16:36:45Z</time>
      </trkpt>
      <trkpt lat="59.9688184501" lon="23.5496094657">
        <ele>25.2</ele>
        <time>2012-03-27T16:36:47Z</time>
      </trkpt>
      <trkpt lat="59.9686471241" lon="23.5493762813">
        <ele>25.2</ele>
        <time>2012-03-27T16:36:51Z</time>
      </trkpt>
      <trkpt lat="59.9685154444" lon="23.5490394965">
        <ele>25.2</ele>
        <time>2012-03-27T16:36:55Z</time>
      </trkpt>
      <trkpt lat="59.9683162067" lon="23.5487509915">
        <ele>25.2</ele>
        <time>2012-03-27T16:37:00Z</time>
      </trkpt>
      <trkpt lat="59.9680930805" lon="23.5486137798">
        <ele>25.2</ele>
        <time>2012-03-27T16:37:04Z</time>
      </trkpt>
      <trkpt lat="59.9678856285" lon="23.5485288712">
        <ele>25.2</ele>
        <time>2012-03-27T16:37:07Z</time>
      </trkpt>
      <trkpt lat="59.9676634243" lon="23.5484125304">
        <ele>25.2</ele>
        <time>2012-03-27T16:37:10Z</time>
      </trkpt>
      <trkpt lat="59.967457481" lon="23.5482137956">
        <ele>25.2</ele>
        <time>2012-03-27T16:37:13Z</time>
      </trkpt>
      <trkpt lat="59.9672119752" lon="23.5479832095">
        <ele>25.2</ele>
        <time>2012-03-27T16:37:17Z</time>
      </trkpt>
      <trkpt lat="59.9669518848" lon="23.5479232789">
        <ele>25.2</ele>
        <time>2012-03-27T16:37:20Z</time>
      </trkpt>
      <trkpt lat="59.9667483723" lon="23.5479320799">
        <ele>25.2</ele>
        <time>2012-03-27T16:37:22Z</time>
      </trkpt>
      <trkpt lat="59.9665037046" lon="23.5479389531">
        <ele>24.8</ele>
        <time>2012-03-27T16:37:25Z</time>
      </trkpt>
      <trkpt lat="59.9664320394" lon="23.5479270508">
        <ele>24.6</ele>
        <time>2012-03-27T16:37:26Z</time>
      </trkpt>
      <trkpt lat="59.9662528343" lon="23.5478130569">
        <ele>24.2</ele>
        <time>2012-03-27T16:37:29Z</time>
      </trkpt>
      <trkpt lat="59.9661050614" lon="23.5475560679">
        <ele>23.8</ele>
        <time>2012-03-27T16:37:32Z</time>
      </trkpt>
      <trkpt lat="59.9660601345" lon="23.5474734223">
        <ele>23.8</ele>
        <time>2012-03-27T16:37:33Z</time>
      </trkpt>
      <trkpt lat="59.9658118626" lon="23.5471908685">
        <ele>23.4</ele>
        <time>2012-03-27T16:37:38Z</time>
      </trkpt>
      <trkpt lat="59.9657127047" lon="23.547142002">
        <ele>23.2</ele>
        <time>2012-03-27T16:37:40Z</time>
      </trkpt>
      <trkpt lat="59.9654155664" lon="23.5470886093">
        <ele>23.2</ele>
        <time>2012-03-27T16:37:45Z</time>
      </trkpt>
      <trkpt lat="59.9651872434" lon="23.5470304389">
        <ele>23</ele>
        <time>2012-03-27T16:37:48Z</time>
      </trkpt>
      <trkpt lat="59.9649594234" lon="23.5468946521">
        <ele>23</ele>
        <time>2012-03-27T16:37:51Z</time>
      </trkpt>
      <trkpt lat="59.9647526419" lon="23.5467005273">
        <ele>22.8</ele>
        <time>2012-03-27T16:37:54Z</time>
      </trkpt>
      <trkpt lat="59.9645518116" lon="23.5465151197">
        <ele>22.2</ele>
        <time>2012-03-27T16:37:57Z</time>
      </trkpt>
      <trkpt lat="59.9643424317" lon="23.5463665086">
        <ele>21.8</ele>
        <time>2012-03-27T16:38:00Z</time>
      </trkpt>
      <trkpt lat="59.9642006938" lon="23.5462613158">
        <ele>21.6</ele>
        <time>2012-03-27T16:38:02Z</time>
      </trkpt>
      <trkpt lat="59.9639494882" lon="23.545948168">
        <ele>21.4</ele>
        <time>2012-03-27T16:38:06Z</time>
      </trkpt>
      <trkpt lat="59.9638049005" lon="23.5456474254">
        <ele>21.2</ele>
        <time>2012-03-27T16:38:09Z</time>
      </trkpt>
      <trkpt lat="59.963765757" lon="23.545545753">
        <ele>21.2</ele>
        <time>2012-03-27T16:38:10Z</time>
      </trkpt>
      <trkpt lat="59.963642543" lon="23.545189606">
        <ele>21</ele>
        <time>2012-03-27T16:38:14Z</time>
      </trkpt>
      <trkpt lat="59.9635214246" lon="23.5448296034">
        <ele>21</ele>
        <time>2012-03-27T16:38:18Z</time>
      </trkpt>
      <trkpt lat="59.9634236078" lon="23.5445261787">
        <ele>21</ele>
        <time>2012-03-27T16:38:22Z</time>
      </trkpt>
      <trkpt lat="59.9633254558" lon="23.5441753961">
        <ele>21</ele>
        <time>2012-03-27T16:38:26Z</time>
      </trkpt>
      <trkpt lat="59.9631883279" lon="23.5437076861">
        <ele>20.8</ele>
        <time>2012-03-27T16:38:32Z</time>
      </trkpt>
      <trkpt lat="59.9630815425" lon="23.5433263935">
        <ele>21.6</ele>
        <time>2012-03-27T16:38:37Z</time>
      </trkpt>
      <trkpt lat="59.963060923" lon="23.543250202">
        <ele>21.8</ele>
        <time>2012-03-27T16:38:38Z</time>
      </trkpt>
      <trkpt lat="59.9629166705" lon="23.5428286763">
        <ele>23</ele>
        <time>2012-03-27T16:38:44Z</time>
      </trkpt>
      <trkpt lat="59.9627822248" lon="23.5425179592">
        <ele>23.8</ele>
        <time>2012-03-27T16:38:49Z</time>
      </trkpt>
      <trkpt lat="59.9626230526" lon="23.5422334775">
        <ele>24.8</ele>
        <time>2012-03-27T16:38:54Z</time>
      </trkpt>
      <trkpt lat="59.9624755311" lon="23.5420087588">
        <ele>25.6</ele>
        <time>2012-03-27T16:38:58Z</time>
      </trkpt>
      <trkpt lat="59.9624356333" lon="23.5419491635">
        <ele>25.8</ele>
        <time>2012-03-27T16:38:59Z</time>
      </trkpt>
      <trkpt lat="59.9622021974" lon="23.5416459902">
        <ele>26.2</ele>
        <time>2012-03-27T16:39:04Z</time>
      </trkpt>
      <trkpt lat="59.9620614653" lon="23.5414004843">
        <ele>26.6</ele>
        <time>2012-03-27T16:39:07Z</time>
      </trkpt>
      <trkpt lat="59.9619359882" lon="23.5411193554">
        <ele>26.6</ele>
        <time>2012-03-27T16:39:10Z</time>
      </trkpt>
      <trkpt lat="59.9618274426" lon="23.5408137513">
        <ele>26.8</ele>
        <time>2012-03-27T16:39:13Z</time>
      </trkpt>
      <trkpt lat="59.9617092578" lon="23.5403758809">
        <ele>27</ele>
        <time>2012-03-27T16:39:17Z</time>
      </trkpt>
      <trkpt lat="59.9616349942" lon="23.5400367492">
        <ele>27</ele>
        <time>2012-03-27T16:39:20Z</time>
      </trkpt>
      <trkpt lat="59.9615253589" lon="23.5394816998">
        <ele>27</ele>
        <time>2012-03-27T16:39:25Z</time>
      </trkpt>
      <trkpt lat="59.9614390254" lon="23.5390781951">
        <ele>27</ele>
        <time>2012-03-27T16:39:29Z</time>
      </trkpt>
      <trkpt lat="59.9613536138" lon="23.5386901131">
        <ele>27.4</ele>
        <time>2012-03-27T16:39:33Z</time>
      </trkpt>
      <trkpt lat="59.9612620834" lon="23.5383099102">
        <ele>28</ele>
        <time>2012-03-27T16:39:37Z</time>
      </trkpt>
      <trkpt lat="59.9611635123" lon="23.5379223311">
        <ele>28.4</ele>
        <time>2012-03-27T16:39:41Z</time>
      </trkpt>
      <trkpt lat="59.9610627619" lon="23.5375668547">
        <ele>28.8</ele>
        <time>2012-03-27T16:39:45Z</time>
      </trkpt>
      <trkpt lat="59.9609884144" lon="23.537308776">
        <ele>29.6</ele>
        <time>2012-03-27T16:39:48Z</time>
      </trkpt>
      <trkpt lat="59.9608577406" lon="23.5368988173">
        <ele>30.2</ele>
        <time>2012-03-27T16:39:53Z</time>
      </trkpt>
      <trkpt lat="59.9607377118" lon="23.5365545727">
        <ele>30.6</ele>
        <time>2012-03-27T16:39:57Z</time>
      </trkpt>
      <trkpt lat="59.9606063674" lon="23.5361959112">
        <ele>31.2</ele>
        <time>2012-03-27T16:40:01Z</time>
      </trkpt>
      <trkpt lat="59.9604556608" lon="23.5358421112">
        <ele>32</ele>
        <time>2012-03-27T16:40:05Z</time>
      </trkpt>
      <trkpt lat="59.9604168527" lon="23.5357521734">
        <ele>32.2</ele>
        <time>2012-03-27T16:40:06Z</time>
      </trkpt>
      <trkpt lat="59.9603373922" lon="23.535569448">
        <ele>32.4</ele>
        <time>2012-03-27T16:40:08Z</time>
      </trkpt>
      <trkpt lat="59.9602148489" lon="23.5352920909">
        <ele>32.6</ele>
        <time>2012-03-27T16:40:11Z</time>
      </trkpt>
      <trkpt lat="59.9600923893" lon="23.535027139">
        <ele>32.8</ele>
        <time>2012-03-27T16:40:14Z</time>
      </trkpt>
      <trkpt lat="59.9599376594" lon="23.5346971436">
        <ele>33</ele>
        <time>2012-03-27T16:40:18Z</time>
      </trkpt>
      <trkpt lat="59.9598073209" lon="23.5344061241">
        <ele>33.2</ele>
        <time>2012-03-27T16:40:22Z</time>
      </trkpt>
      <trkpt lat="59.9596805866" lon="23.5341354725">
        <ele>33.6</ele>
        <time>2012-03-27T16:40:25Z</time>
      </trkpt>
      <trkpt lat="59.959537759" lon="23.5338301199">
        <ele>34.2</ele>
        <time>2012-03-27T16:40:29Z</time>
      </trkpt>
      <trkpt lat="59.9594006311" lon="23.5335298802">
        <ele>34.6</ele>
        <time>2012-03-27T16:40:33Z</time>
      </trkpt>
      <trkpt lat="59.9592633356" lon="23.5332262878">
        <ele>35</ele>
        <time>2012-03-27T16:40:37Z</time>
      </trkpt>
      <trkpt lat="59.9591210109" lon="23.5329242041">
        <ele>35</ele>
        <time>2012-03-27T16:40:41Z</time>
      </trkpt>
      <trkpt lat="59.9589761717" lon="23.5326115593">
        <ele>35.2</ele>
        <time>2012-03-27T16:40:45Z</time>
      </trkpt>
      <trkpt lat="59.9588219447" lon="23.5322887723">
        <ele>35.2</ele>
        <time>2012-03-27T16:40:49Z</time>
      </trkpt>
      <trkpt lat="59.9586588329" lon="23.5319477128">
        <ele>35.4</ele>
        <time>2012-03-27T16:40:53Z</time>
      </trkpt>
      <trkpt lat="59.9585315119" lon="23.53169525">
        <ele>35.4</ele>
        <time>2012-03-27T16:40:56Z</time>
      </trkpt>
      <trkpt lat="59.9584020953" lon="23.5314442959">
        <ele>35.4</ele>
        <time>2012-03-27T16:40:59Z</time>
      </trkpt>
      <trkpt lat="59.9582550768" lon="23.5312253606">
        <ele>35.4</ele>
        <time>2012-03-27T16:41:02Z</time>
      </trkpt>
      <trkpt lat="59.9581050408" lon="23.531010784">
        <ele>35.4</ele>
        <time>2012-03-27T16:41:05Z</time>
      </trkpt>
      <trkpt lat="59.9579502271" lon="23.5308105404">
        <ele>35.4</ele>
        <time>2012-03-27T16:41:08Z</time>
      </trkpt>
      <trkpt lat="59.9577559347" lon="23.5305470973">
        <ele>35.4</ele>
        <time>2012-03-27T16:41:12Z</time>
      </trkpt>
      <trkpt lat="59.9576041385" lon="23.5303398967">
        <ele>35.4</ele>
        <time>2012-03-27T16:41:15Z</time>
      </trkpt>
      <trkpt lat="59.9574247658" lon="23.5300591869">
        <ele>35.2</ele>
        <time>2012-03-27T16:41:19Z</time>
      </trkpt>
      <trkpt lat="59.9572790046" lon="23.5297921396">
        <ele>34.6</ele>
        <time>2012-03-27T16:41:22Z</time>
      </trkpt>
      <trkpt lat="59.9572128714" lon="23.5296516589">
        <ele>34.4</ele>
        <time>2012-03-27T16:41:24Z</time>
      </trkpt>
      <trkpt lat="59.9570803535" lon="23.5292687737">
        <ele>34.2</ele>
        <time>2012-03-27T16:41:27Z</time>
      </trkpt>
      <trkpt lat="59.956972227" lon="23.5289089388">
        <ele>34</ele>
        <time>2012-03-27T16:41:30Z</time>
      </trkpt>
      <trkpt lat="59.9568835465" lon="23.5285739142">
        <ele>33.8</ele>
        <time>2012-03-27T16:41:33Z</time>
      </trkpt>
      <trkpt lat="59.9568001466" lon="23.5282411528">
        <ele>33.8</ele>
        <time>2012-03-27T16:41:35Z</time>
      </trkpt>
      <trkpt lat="59.9566989771" lon="23.5278433478">
        <ele>33.6</ele>
        <time>2012-03-27T16:41:38Z</time>
      </trkpt>
      <trkpt lat="59.9565751764" lon="23.527311181">
        <ele>32.8</ele>
        <time>2012-03-27T16:41:42Z</time>
      </trkpt>
      <trkpt lat="59.9564787008" lon="23.5269359233">
        <ele>32.4</ele>
        <time>2012-03-27T16:41:45Z</time>
      </trkpt>
      <trkpt lat="59.9563917805" lon="23.5265773456">
        <ele>32.2</ele>
        <time>2012-03-27T16:41:48Z</time>
      </trkpt>
      <trkpt lat="59.9563081291" lon="23.5262291615">
        <ele>31.8</ele>
        <time>2012-03-27T16:41:51Z</time>
      </trkpt>
      <trkpt lat="59.9562430855" lon="23.5258847492">
        <ele>31.8</ele>
        <time>2012-03-27T16:41:54Z</time>
      </trkpt>
      <trkpt lat="59.9561832388" lon="23.5255432706">
        <ele>31.6</ele>
        <time>2012-03-27T16:41:57Z</time>
      </trkpt>
      <trkpt lat="59.9561245655" lon="23.5250866247">
        <ele>31.4</ele>
        <time>2012-03-27T16:42:01Z</time>
      </trkpt>
      <trkpt lat="59.9560888586" lon="23.5246258717">
        <ele>31.4</ele>
        <time>2012-03-27T16:42:05Z</time>
      </trkpt>
      <trkpt lat="59.9560645511" lon="23.5241747578">
        <ele>31.4</ele>
        <time>2012-03-27T16:42:09Z</time>
      </trkpt>
      <trkpt lat="59.9560481226" lon="23.523720375">
        <ele>31.4</ele>
        <time>2012-03-27T16:42:13Z</time>
      </trkpt>
      <trkpt lat="59.9560325322" lon="23.5232637291">
        <ele>31.6</ele>
        <time>2012-03-27T16:42:17Z</time>
      </trkpt>
      <trkpt lat="59.9560238989" lon="23.5227984498">
        <ele>32.2</ele>
        <time>2012-03-27T16:42:21Z</time>
      </trkpt>
      <trkpt lat="59.9560107393" lon="23.5223117129">
        <ele>32.6</ele>
        <time>2012-03-27T16:42:25Z</time>
      </trkpt>
      <trkpt lat="59.9560014354" lon="23.5219424902">
        <ele>32.8</ele>
        <time>2012-03-27T16:42:28Z</time>
      </trkpt>
      <trkpt lat="59.9559873538" lon="23.5215591021">
        <ele>32.8</ele>
        <time>2012-03-27T16:42:31Z</time>
      </trkpt>
      <trkpt lat="59.9559802292" lon="23.5211630573">
        <ele>33</ele>
        <time>2012-03-27T16:42:34Z</time>
      </trkpt>
      <trkpt lat="59.955969668" lon="23.520768186">
        <ele>33</ele>
        <time>2012-03-27T16:42:37Z</time>
      </trkpt>
      <trkpt lat="59.9559593582" lon="23.5203760807">
        <ele>33.2</ele>
        <time>2012-03-27T16:42:40Z</time>
      </trkpt>
      <trkpt lat="59.9559447737" lon="23.5199926088">
        <ele>33.2</ele>
        <time>2012-03-27T16:42:43Z</time>
      </trkpt>
      <trkpt lat="59.9559273394" lon="23.5196268227">
        <ele>33.2</ele>
        <time>2012-03-27T16:42:46Z</time>
      </trkpt>
      <trkpt lat="59.9558879444" lon="23.5191621302">
        <ele>33.2</ele>
        <time>2012-03-27T16:42:50Z</time>
      </trkpt>
      <trkpt lat="59.9558258346" lon="23.5187147043">
        <ele>33.2</ele>
        <time>2012-03-27T16:42:54Z</time>
      </trkpt>
      <trkpt lat="59.9557467094" lon="23.518275409">
        <ele>33.2</ele>
        <time>2012-03-27T16:42:58Z</time>
      </trkpt>
      <trkpt lat="59.9556530836" lon="23.5178492732">
        <ele>33.2</ele>
        <time>2012-03-27T16:43:02Z</time>
      </trkpt>
      <trkpt lat="59.9555548477" lon="23.5174289209">
        <ele>33.2</ele>
        <time>2012-03-27T16:43:06Z</time>
      </trkpt>
      <trkpt lat="59.9554613057" lon="23.517033379">
        <ele>33.2</ele>
        <time>2012-03-27T16:43:10Z</time>
      </trkpt>
      <trkpt lat="59.9553419475" lon="23.5165474803">
        <ele>33.2</ele>
        <time>2012-03-27T16:43:15Z</time>
      </trkpt>
      <trkpt lat="59.9552464776" lon="23.5161796825">
        <ele>33.8</ele>
        <time>2012-03-27T16:43:19Z</time>
      </trkpt>
      <trkpt lat="59.9551168096" lon="23.5157268923">
        <ele>34.4</ele>
        <time>2012-03-27T16:43:24Z</time>
      </trkpt>
      <trkpt lat="59.9550035702" lon="23.5153632016">
        <ele>34.8</ele>
        <time>2012-03-27T16:43:28Z</time>
      </trkpt>
      <trkpt lat="59.9548785122" lon="23.5149831663">
        <ele>35</ele>
        <time>2012-03-27T16:43:32Z</time>
      </trkpt>
      <trkpt lat="59.9547757501" lon="23.5146871176">
        <ele>35</ele>
        <time>2012-03-27T16:43:35Z</time>
      </trkpt>
      <trkpt lat="59.9546704735" lon="23.5143829384">
        <ele>35.2</ele>
        <time>2012-03-27T16:43:38Z</time>
      </trkpt>
      <trkpt lat="59.9545586589" lon="23.5140688686">
        <ele>35.2</ele>
        <time>2012-03-27T16:43:41Z</time>
      </trkpt>
      <trkpt lat="59.9544361994" lon="23.5137649409">
        <ele>35.2</ele>
        <time>2012-03-27T16:43:44Z</time>
      </trkpt>
      <trkpt lat="59.9543019213" lon="23.5134776932">
        <ele>35.2</ele>
        <time>2012-03-27T16:43:47Z</time>
      </trkpt>
      <trkpt lat="59.9542048589" lon="23.5132972309">
        <ele>35.2</ele>
        <time>2012-03-27T16:43:49Z</time>
      </trkpt>
      <trkpt lat="59.953989025" lon="23.5129765394">
        <ele>35.4</ele>
        <time>2012-03-27T16:43:53Z</time>
      </trkpt>
      <trkpt lat="59.9538163579" lon="23.5127416786">
        <ele>35.4</ele>
        <time>2012-03-27T16:43:56Z</time>
      </trkpt>
      <trkpt lat="59.9536413438" lon="23.5125288621">
        <ele>35.4</ele>
        <time>2012-03-27T16:43:59Z</time>
      </trkpt>
      <trkpt lat="59.9534725323" lon="23.5123123577">
        <ele>35.2</ele>
        <time>2012-03-27T16:44:02Z</time>
      </trkpt>
      <trkpt lat="59.9533012901" lon="23.5121000441">
        <ele>34.6</ele>
        <time>2012-03-27T16:44:05Z</time>
      </trkpt>
      <trkpt lat="59.9531302155" lon="23.5118829529">
        <ele>34</ele>
        <time>2012-03-27T16:44:08Z</time>
      </trkpt>
      <trkpt lat="59.9529651759" lon="23.5116510258">
        <ele>33.2</ele>
        <time>2012-03-27T16:44:11Z</time>
      </trkpt>
      <trkpt lat="59.9528254496" lon="23.5113773567">
        <ele>32.4</ele>
        <time>2012-03-27T16:44:14Z</time>
      </trkpt>
      <trkpt lat="59.9526318278" lon="23.5107209701">
        <ele>31</ele>
        <time>2012-03-27T16:44:19Z</time>
      </trkpt>
      <trkpt lat="59.9525550495" lon="23.5103011208">
        <ele>29.8</ele>
        <time>2012-03-27T16:44:22Z</time>
      </trkpt>
      <trkpt lat="59.9525017407" lon="23.5098191615">
        <ele>29</ele>
        <time>2012-03-27T16:44:25Z</time>
      </trkpt>
      <trkpt lat="59.9524523713" lon="23.5093725739">
        <ele>27.8</ele>
        <time>2012-03-27T16:44:28Z</time>
      </trkpt>
      <trkpt lat="59.9524039239" lon="23.5089378047">
        <ele>27</ele>
        <time>2012-03-27T16:44:31Z</time>
      </trkpt>
      <trkpt lat="59.9523584102" lon="23.5085141835">
        <ele>26</ele>
        <time>2012-03-27T16:44:34Z</time>
      </trkpt>
      <trkpt lat="59.9523111363" lon="23.5081012073">
        <ele>25</ele>
        <time>2012-03-27T16:44:37Z</time>
      </trkpt>
      <trkpt lat="59.9522617669" lon="23.5076923382">
        <ele>24.4</ele>
        <time>2012-03-27T16:44:40Z</time>
      </trkpt>
      <trkpt lat="59.952211224" lon="23.5072843073">
        <ele>23.8</ele>
        <time>2012-03-27T16:44:43Z</time>
      </trkpt>
      <trkpt lat="59.9521973939" lon="23.5071509513">
        <ele>23.6</ele>
        <time>2012-03-27T16:44:44Z</time>
      </trkpt>
      <trkpt lat="59.9522515409" lon="23.5066751946">
        <ele>22.6</ele>
        <time>2012-03-27T16:44:48Z</time>
      </trkpt>
      <trkpt lat="59.9523004074" lon="23.5066002604">
        <ele>22.4</ele>
        <time>2012-03-27T16:44:49Z</time>
      </trkpt>
      <trkpt lat="59.9525421414" lon="23.5063084027">
        <ele>21.4</ele>
        <time>2012-03-27T16:44:54Z</time>
      </trkpt>
      <trkpt lat="59.9525850567" lon="23.5062592009">
        <ele>21.4</ele>
        <time>2012-03-27T16:44:55Z</time>
      </trkpt>
      <trkpt lat="59.952719251" lon="23.5061089973">
        <ele>21</ele>
        <time>2012-03-27T16:44:59Z</time>
      </trkpt>
      <trkpt lat="59.952884542" lon="23.5059156269">
        <ele>20.6</ele>
        <time>2012-03-27T16:45:04Z</time>
      </trkpt>
      <trkpt lat="59.9530669322" lon="23.5056906567">
        <ele>20.4</ele>
        <time>2012-03-27T16:45:10Z</time>
      </trkpt>
      <trkpt lat="59.9532213268" lon="23.5054912513">
        <ele>20.4</ele>
        <time>2012-03-27T16:45:15Z</time>
      </trkpt>
      <trkpt lat="59.9533763919" lon="23.5052940252">
        <ele>21.2</ele>
        <time>2012-03-27T16:45:20Z</time>
      </trkpt>
      <trkpt lat="59.953555094" lon="23.5050770178">
        <ele>22</ele>
        <time>2012-03-27T16:45:26Z</time>
      </trkpt>
      <trkpt lat="59.9537342991" lon="23.5048753492">
        <ele>23.2</ele>
        <time>2012-03-27T16:45:32Z</time>
      </trkpt>
      <trkpt lat="59.9539069662" lon="23.5046521393">
        <ele>24</ele>
        <time>2012-03-27T16:45:38Z</time>
      </trkpt>
      <trkpt lat="59.954071" lon="23.5044378979">
        <ele>25.2</ele>
        <time>2012-03-27T16:45:44Z</time>
      </trkpt>
      <trkpt lat="59.9542330221" lon="23.504240085">
        <ele>26</ele>
        <time>2012-03-27T16:45:50Z</time>
      </trkpt>
      <trkpt lat="59.9544092935" lon="23.5040285259">
        <ele>27.2</ele>
        <time>2012-03-27T16:45:56Z</time>
      </trkpt>
      <trkpt lat="59.9545792784" lon="23.5037973531">
        <ele>28</ele>
        <time>2012-03-27T16:46:02Z</time>
      </trkpt>
      <trkpt lat="59.9547635964" lon="23.5035861292">
        <ele>29.2</ele>
        <time>2012-03-27T16:46:08Z</time>
      </trkpt>
      <trkpt lat="59.9549211761" lon="23.5034111151">
        <ele>29.8</ele>
        <time>2012-03-27T16:46:13Z</time>
      </trkpt>
      <trkpt lat="59.9551058294" lon="23.5031919285">
        <ele>30.2</ele>
        <time>2012-03-27T16:46:18Z</time>
      </trkpt>
      <trkpt lat="59.9552608107" lon="23.5030047606">
        <ele>31.2</ele>
        <time>2012-03-27T16:46:22Z</time>
      </trkpt>
      <trkpt lat="59.9554323882" lon="23.5028089594">
        <ele>31.8</ele>
        <time>2012-03-27T16:46:27Z</time>
      </trkpt>
      <trkpt lat="59.9556179634" lon="23.5025737633">
        <ele>32.2</ele>
        <time>2012-03-27T16:46:32Z</time>
      </trkpt>
      <trkpt lat="59.9557693406" lon="23.5023928819">
        <ele>32.4</ele>
        <time>2012-03-27T16:46:36Z</time>
      </trkpt>
      <trkpt lat="59.9559786366" lon="23.5021136808">
        <ele>32.6</ele>
        <time>2012-03-27T16:46:42Z</time>
      </trkpt>
      <trkpt lat="59.9561499626" lon="23.5018804126">
        <ele>33.2</ele>
        <time>2012-03-27T16:46:47Z</time>
      </trkpt>
      <trkpt lat="59.9562930417" lon="23.5016585437">
        <ele>33.8</ele>
        <time>2012-03-27T16:46:51Z</time>
      </trkpt>
      <trkpt lat="59.9564469334" lon="23.5013986209">
        <ele>34.2</ele>
        <time>2012-03-27T16:46:55Z</time>
      </trkpt>
      <trkpt lat="59.9565927784" lon="23.5011229403">
        <ele>34.4</ele>
        <time>2012-03-27T16:46:59Z</time>
      </trkpt>
      <trkpt lat="59.9567484303" lon="23.5008214433">
        <ele>34.6</ele>
        <time>2012-03-27T16:47:03Z</time>
      </trkpt>
      <trkpt lat="59.9568544613" lon="23.5005807151">
        <ele>34.6</ele>
        <time>2012-03-27T16:47:06Z</time>
      </trkpt>
      <trkpt lat="59.9570438085" lon="23.5002368058">
        <ele>34.8</ele>
        <time>2012-03-27T16:47:11Z</time>
      </trkpt>
      <trkpt lat="59.9573009651" lon="23.4997359873">
        <ele>34.8</ele>
        <time>2012-03-27T16:47:18Z</time>
      </trkpt>
      <trkpt lat="59.9574628196" lon="23.4994190676">
        <ele>34.8</ele>
        <time>2012-03-27T16:47:22Z</time>
      </trkpt>
      <trkpt lat="59.9576283622" lon="23.499092425">
        <ele>34.8</ele>
        <time>2012-03-27T16:47:26Z</time>
      </trkpt>
      <trkpt lat="59.9577912225" lon="23.4987662014">
        <ele>34.8</ele>
        <time>2012-03-27T16:47:30Z</time>
      </trkpt>
      <trkpt lat="59.9579501433" lon="23.4984495333">
        <ele>34.8</ele>
        <time>2012-03-27T16:47:34Z</time>
      </trkpt>
      <trkpt lat="59.9581081421" lon="23.4981312725">
        <ele>34.8</ele>
        <time>2012-03-27T16:47:38Z</time>
      </trkpt>
      <trkpt lat="59.9582635425" lon="23.4978040431">
        <ele>34.8</ele>
        <time>2012-03-27T16:47:42Z</time>
      </trkpt>
      <trkpt lat="59.9584002513" lon="23.4974455493">
        <ele>34.8</ele>
        <time>2012-03-27T16:47:46Z</time>
      </trkpt>
      <trkpt lat="59.9584859143" lon="23.4971513446">
        <ele>34.8</ele>
        <time>2012-03-27T16:47:49Z</time>
      </trkpt>
      <trkpt lat="59.9585763551" lon="23.4966136457">
        <ele>34.8</ele>
        <time>2012-03-27T16:47:54Z</time>
      </trkpt>
      <trkpt lat="59.9586147442" lon="23.4961623642">
        <ele>34.8</ele>
        <time>2012-03-27T16:47:58Z</time>
      </trkpt>
      <trkpt lat="59.9586385487" lon="23.49573363">
        <ele>34.8</ele>
        <time>2012-03-27T16:48:02Z</time>
      </trkpt>
      <trkpt lat="59.9586549773" lon="23.4953124395">
        <ele>34.8</ele>
        <time>2012-03-27T16:48:06Z</time>
      </trkpt>
      <trkpt lat="59.9586867447" lon="23.4948915005">
        <ele>34.8</ele>
        <time>2012-03-27T16:48:10Z</time>
      </trkpt>
      <trkpt lat="59.9587331804" lon="23.4945335934">
        <ele>34.8</ele>
        <time>2012-03-27T16:48:13Z</time>
      </trkpt>
      <trkpt lat="59.9587590805" lon="23.4943764328">
        <ele>34.8</ele>
        <time>2012-03-27T16:48:15Z</time>
      </trkpt>
      <trkpt lat="59.958795877" lon="23.4941906899">
        <ele>34.8</ele>
        <time>2012-03-27T16:48:17Z</time>
      </trkpt>
      <trkpt lat="59.9588652791" lon="23.4938013506">
        <ele>34.8</ele>
        <time>2012-03-27T16:48:21Z</time>
      </trkpt>
      <trkpt lat="59.9591023193" lon="23.4929806788">
        <ele>34.8</ele>
        <time>2012-03-27T16:48:28Z</time>
      </trkpt>
      <trkpt lat="59.959221007" lon="23.49256611">
        <ele>34.8</ele>
        <time>2012-03-27T16:48:31Z</time>
      </trkpt>
      <trkpt lat="59.9593341626" lon="23.4920978133">
        <ele>34.6</ele>
        <time>2012-03-27T16:48:34Z</time>
      </trkpt>
      <trkpt lat="59.9594175625" lon="23.4915949831">
        <ele>34</ele>
        <time>2012-03-27T16:48:37Z</time>
      </trkpt>
      <trkpt lat="59.9594699494" lon="23.4910860341">
        <ele>33.4</ele>
        <time>2012-03-27T16:48:40Z</time>
      </trkpt>
      <trkpt lat="59.9595037285" lon="23.4905816114">
        <ele>32.6</ele>
        <time>2012-03-27T16:48:43Z</time>
      </trkpt>
      <trkpt lat="59.9595276169" lon="23.4900848161">
        <ele>32</ele>
        <time>2012-03-27T16:48:46Z</time>
      </trkpt>
      <trkpt lat="59.9595478173" lon="23.4896052876">
        <ele>31</ele>
        <time>2012-03-27T16:48:49Z</time>
      </trkpt>
      <trkpt lat="59.9595653354" lon="23.4891426068">
        <ele>30.2</ele>
        <time>2012-03-27T16:48:52Z</time>
      </trkpt>
      <trkpt lat="59.9595821831" lon="23.4886697">
        <ele>29.6</ele>
        <time>2012-03-27T16:48:55Z</time>
      </trkpt>
      <trkpt lat="59.959592409" lon="23.4882322486">
        <ele>28.8</ele>
        <time>2012-03-27T16:48:58Z</time>
      </trkpt>
      <trkpt lat="59.9596082508" lon="23.4877871697">
        <ele>28</ele>
        <time>2012-03-27T16:49:01Z</time>
      </trkpt>
      <trkpt lat="59.9596221647" lon="23.487352652">
        <ele>27.6</ele>
        <time>2012-03-27T16:49:04Z</time>
      </trkpt>
      <trkpt lat="59.9596370845" lon="23.4869249237">
        <ele>27.2</ele>
        <time>2012-03-27T16:49:07Z</time>
      </trkpt>
      <trkpt lat="59.9596536807" lon="23.4865158869">
        <ele>26.8</ele>
        <time>2012-03-27T16:49:10Z</time>
      </trkpt>
      <trkpt lat="59.9596696901" lon="23.4861278888">
        <ele>26.6</ele>
        <time>2012-03-27T16:49:13Z</time>
      </trkpt>
      <trkpt lat="59.9596913154" lon="23.4856201971">
        <ele>25.8</ele>
        <time>2012-03-27T16:49:17Z</time>
      </trkpt>
      <trkpt lat="59.9597083306" lon="23.4852376472">
        <ele>25.4</ele>
        <time>2012-03-27T16:49:20Z</time>
      </trkpt>
      <trkpt lat="59.9597240048" lon="23.4847276924">
        <ele>25</ele>
        <time>2012-03-27T16:49:24Z</time>
      </trkpt>
      <trkpt lat="59.9597394275" lon="23.4843682765">
        <ele>24.6</ele>
        <time>2012-03-27T16:49:27Z</time>
      </trkpt>
      <trkpt lat="59.9597533414" lon="23.4839597427">
        <ele>24.4</ele>
        <time>2012-03-27T16:49:30Z</time>
      </trkpt>
      <trkpt lat="59.9597654952" lon="23.4835977285">
        <ele>24.4</ele>
        <time>2012-03-27T16:49:33Z</time>
      </trkpt>
      <trkpt lat="59.9597807503" lon="23.4831259113">
        <ele>24.2</ele>
        <time>2012-03-27T16:49:37Z</time>
      </trkpt>
      <trkpt lat="59.9597985199" lon="23.4826785693">
        <ele>24.2</ele>
        <time>2012-03-27T16:49:41Z</time>
      </trkpt>
      <trkpt lat="59.9598226598" lon="23.4821341649">
        <ele>24</ele>
        <time>2012-03-27T16:49:46Z</time>
      </trkpt>
      <trkpt lat="59.9598394236" lon="23.4817077776">
        <ele>24</ele>
        <time>2012-03-27T16:49:50Z</time>
      </trkpt>
      <trkpt lat="59.9598565226" lon="23.4812817257">
        <ele>24</ele>
        <time>2012-03-27T16:49:54Z</time>
      </trkpt>
      <trkpt lat="59.9598732864" lon="23.4808593617">
        <ele>24</ele>
        <time>2012-03-27T16:49:58Z</time>
      </trkpt>
      <trkpt lat="59.9598872842" lon="23.4804319686">
        <ele>24</ele>
        <time>2012-03-27T16:50:02Z</time>
      </trkpt>
      <trkpt lat="59.9599027907" lon="23.480015472">
        <ele>24</ele>
        <time>2012-03-27T16:50:06Z</time>
      </trkpt>
      <trkpt lat="59.9599139387" lon="23.479613057">
        <ele>24</ele>
        <time>2012-03-27T16:50:10Z</time>
      </trkpt>
      <trkpt lat="59.9599312054" lon="23.4792015895">
        <ele>24</ele>
        <time>2012-03-27T16:50:14Z</time>
      </trkpt>
      <trkpt lat="59.9599427724" lon="23.4787695864">
        <ele>24</ele>
        <time>2012-03-27T16:50:18Z</time>
      </trkpt>
      <trkpt lat="59.9599608773" lon="23.4783668361">
        <ele>24</ele>
        <time>2012-03-27T16:50:22Z</time>
      </trkpt>
      <trkpt lat="59.9599879508" lon="23.4779976134">
        <ele>24.6</ele>
        <time>2012-03-27T16:50:26Z</time>
      </trkpt>
      <trkpt lat="59.9600310338" lon="23.4775858945">
        <ele>25.2</ele>
        <time>2012-03-27T16:50:31Z</time>
      </trkpt>
      <trkpt lat="59.9600912997" lon="23.4772045181">
        <ele>25.6</ele>
        <time>2012-03-27T16:50:36Z</time>
      </trkpt>
      <trkpt lat="59.960158271" lon="23.4768635424">
        <ele>25.6</ele>
        <time>2012-03-27T16:50:40Z</time>
      </trkpt>
      <trkpt lat="59.9602467839" lon="23.476508066">
        <ele>26.6</ele>
        <time>2012-03-27T16:50:44Z</time>
      </trkpt>
      <trkpt lat="59.9603306867" lon="23.4762369115">
        <ele>27</ele>
        <time>2012-03-27T16:50:47Z</time>
      </trkpt>
      <trkpt lat="59.9605137474" lon="23.4758364243">
        <ele>27.4</ele>
        <time>2012-03-27T16:50:52Z</time>
      </trkpt>
      <trkpt lat="59.9606746799" lon="23.4755496795">
        <ele>27.6</ele>
        <time>2012-03-27T16:50:56Z</time>
      </trkpt>
      <trkpt lat="59.9608555613" lon="23.4753164113">
        <ele>27.8</ele>
        <time>2012-03-27T16:51:00Z</time>
      </trkpt>
      <trkpt lat="59.9610578165" lon="23.4751091269">
        <ele>27.8</ele>
        <time>2012-03-27T16:51:04Z</time>
      </trkpt>
      <trkpt lat="59.9612654362" lon="23.4749046085">
        <ele>28</ele>
        <time>2012-03-27T16:51:08Z</time>
      </trkpt>
      <trkpt lat="59.9614754866" lon="23.4747121601">
        <ele>28</ele>
        <time>2012-03-27T16:51:12Z</time>
      </trkpt>
      <trkpt lat="59.9616385146" lon="23.4745603639">
        <ele>28</ele>
        <time>2012-03-27T16:51:15Z</time>
      </trkpt>
      <trkpt lat="59.9618523368" lon="23.4743827514">
        <ele>28</ele>
        <time>2012-03-27T16:51:19Z</time>
      </trkpt>
      <trkpt lat="59.9620173765" lon="23.4742399238">
        <ele>28</ele>
        <time>2012-03-27T16:51:22Z</time>
      </trkpt>
      <trkpt lat="59.9622363955" lon="23.474050912">
        <ele>28</ele>
        <time>2012-03-27T16:51:26Z</time>
      </trkpt>
      <trkpt lat="59.9624509721" lon="23.4738712041">
        <ele>28</ele>
        <time>2012-03-27T16:51:30Z</time>
      </trkpt>
      <trkpt lat="59.962628417" lon="23.4737266163">
        <ele>28</ele>
        <time>2012-03-27T16:51:33Z</time>
      </trkpt>
      <trkpt lat="59.9628198596" lon="23.4735618281">
        <ele>28</ele>
        <time>2012-03-27T16:51:37Z</time>
      </trkpt>
      <trkpt lat="59.9630291556" lon="23.4733874008">
        <ele>28</ele>
        <time>2012-03-27T16:51:41Z</time>
      </trkpt>
      <trkpt lat="59.963239206" lon="23.4732055974">
        <ele>28</ele>
        <time>2012-03-27T16:51:45Z</time>
      </trkpt>
      <trkpt lat="59.9634351748" lon="23.4729952117">
        <ele>28</ele>
        <time>2012-03-27T16:51:49Z</time>
      </trkpt>
      <trkpt lat="59.9636220912" lon="23.4727133284">
        <ele>28</ele>
        <time>2012-03-27T16:51:53Z</time>
      </trkpt>
      <trkpt lat="59.9637564531" lon="23.4724515617">
        <ele>28</ele>
        <time>2012-03-27T16:51:56Z</time>
      </trkpt>
      <trkpt lat="59.9638962632" lon="23.4721592848">
        <ele>28</ele>
        <time>2012-03-27T16:51:59Z</time>
      </trkpt>
      <trkpt lat="59.9640243386" lon="23.4718271939">
        <ele>27.6</ele>
        <time>2012-03-27T16:52:02Z</time>
      </trkpt>
      <trkpt lat="59.9641492289" lon="23.471467359">
        <ele>27.2</ele>
        <time>2012-03-27T16:52:05Z</time>
      </trkpt>
      <trkpt lat="59.9642788131" lon="23.4711012376">
        <ele>27</ele>
        <time>2012-03-27T16:52:08Z</time>
      </trkpt>
      <trkpt lat="59.9644175335" lon="23.4707419055">
        <ele>26.2</ele>
        <time>2012-03-27T16:52:11Z</time>
      </trkpt>
      <trkpt lat="59.9645693297" lon="23.470400846">
        <ele>25.6</ele>
        <time>2012-03-27T16:52:14Z</time>
      </trkpt>
      <trkpt lat="59.9647306813" lon="23.4700971698">
        <ele>24.6</ele>
        <time>2012-03-27T16:52:17Z</time>
      </trkpt>
      <trkpt lat="59.9648984869" lon="23.4698585371">
        <ele>23.8</ele>
        <time>2012-03-27T16:52:20Z</time>
      </trkpt>
      <trkpt lat="59.9651232895" lon="23.469617306">
        <ele>22.8</ele>
        <time>2012-03-27T16:52:24Z</time>
      </trkpt>
      <trkpt lat="59.9652931068" lon="23.4694215886">
        <ele>22</ele>
        <time>2012-03-27T16:52:27Z</time>
      </trkpt>
      <trkpt lat="59.9654629241" lon="23.4692320739">
        <ele>21.4</ele>
        <time>2012-03-27T16:52:30Z</time>
      </trkpt>
      <trkpt lat="59.965632909" lon="23.4690505219">
        <ele>20.8</ele>
        <time>2012-03-27T16:52:33Z</time>
      </trkpt>
      <trkpt lat="59.9658023072" lon="23.4688741667">
        <ele>20</ele>
        <time>2012-03-27T16:52:36Z</time>
      </trkpt>
      <trkpt lat="59.9659643293" lon="23.4686982307">
        <ele>19.4</ele>
        <time>2012-03-27T16:52:39Z</time>
      </trkpt>
      <trkpt lat="59.966172871" lon="23.4684741825">
        <ele>18.8</ele>
        <time>2012-03-27T16:52:43Z</time>
      </trkpt>
      <trkpt lat="59.9663328815" lon="23.4682981626">
        <ele>18.6</ele>
        <time>2012-03-27T16:52:46Z</time>
      </trkpt>
      <trkpt lat="59.9664969153" lon="23.468115521">
        <ele>18.4</ele>
        <time>2012-03-27T16:52:49Z</time>
      </trkpt>
      <trkpt lat="59.9667036967" lon="23.4678918919">
        <ele>18.2</ele>
        <time>2012-03-27T16:52:53Z</time>
      </trkpt>
      <trkpt lat="59.9669066225" lon="23.46767698">
        <ele>18</ele>
        <time>2012-03-27T16:52:57Z</time>
      </trkpt>
      <trkpt lat="59.9670993224" lon="23.4674593858">
        <ele>18</ele>
        <time>2012-03-27T16:53:01Z</time>
      </trkpt>
      <trkpt lat="59.9672886695" lon="23.4672504251">
        <ele>17.8</ele>
        <time>2012-03-27T16:53:05Z</time>
      </trkpt>
      <trkpt lat="59.967464438" lon="23.4670444818">
        <ele>17.8</ele>
        <time>2012-03-27T16:53:09Z</time>
      </trkpt>
      <trkpt lat="59.9676474987" lon="23.466852201">
        <ele>17.8</ele>
        <time>2012-03-27T16:53:13Z</time>
      </trkpt>
      <trkpt lat="59.9678346665" lon="23.4666460063">
        <ele>17.8</ele>
        <time>2012-03-27T16:53:17Z</time>
      </trkpt>
      <trkpt lat="59.9680829384" lon="23.4663836528">
        <ele>17.8</ele>
        <time>2012-03-27T16:53:22Z</time>
      </trkpt>
      <trkpt lat="59.9682889655" lon="23.4661591017">
        <ele>17.8</ele>
        <time>2012-03-27T16:53:26Z</time>
      </trkpt>
      <trkpt lat="59.9685093256" lon="23.4659477102">
        <ele>17.8</ele>
        <time>2012-03-27T16:53:30Z</time>
      </trkpt>
      <trkpt lat="59.9686814899" lon="23.4658031224">
        <ele>17.8</ele>
        <time>2012-03-27T16:53:33Z</time>
      </trkpt>
      <trkpt lat="59.9688538217" lon="23.4656861111">
        <ele>17.8</ele>
        <time>2012-03-27T16:53:36Z</time>
      </trkpt>
      <trkpt lat="59.9690804683" lon="23.4655739613">
        <ele>17.8</ele>
        <time>2012-03-27T16:53:40Z</time>
      </trkpt>
      <trkpt lat="59.9692961346" lon="23.4655035533">
        <ele>17.8</ele>
        <time>2012-03-27T16:53:44Z</time>
      </trkpt>
      <trkpt lat="59.9695104598" lon="23.4654741328">
        <ele>17.8</ele>
        <time>2012-03-27T16:53:48Z</time>
      </trkpt>
      <trkpt lat="59.9697244497" lon="23.4654707801">
        <ele>17.8</ele>
        <time>2012-03-27T16:53:52Z</time>
      </trkpt>
      <trkpt lat="59.9699301415" lon="23.4654717021">
        <ele>17.8</ele>
        <time>2012-03-27T16:53:56Z</time>
      </trkpt>
      <trkpt lat="59.9701315586" lon="23.4654799163">
        <ele>17.8</ele>
        <time>2012-03-27T16:54:00Z</time>
      </trkpt>
      <trkpt lat="59.970330042" lon="23.4655249271">
        <ele>17.8</ele>
        <time>2012-03-27T16:54:04Z</time>
      </trkpt>
      <trkpt lat="59.970510169" lon="23.4655797448">
        <ele>17.8</ele>
        <time>2012-03-27T16:54:08Z</time>
      </trkpt>
      <trkpt lat="59.9707115022" lon="23.4656625579">
        <ele>17.8</ele>
        <time>2012-03-27T16:54:13Z</time>
      </trkpt>
      <trkpt lat="59.970912584" lon="23.4657696786">
        <ele>18.6</ele>
        <time>2012-03-27T16:54:18Z</time>
      </trkpt>
      <trkpt lat="59.9711956408" lon="23.4658998495">
        <ele>19.2</ele>
        <time>2012-03-27T16:54:25Z</time>
      </trkpt>
      <trkpt lat="59.9713962196" lon="23.4659847582">
        <ele>20.2</ele>
        <time>2012-03-27T16:54:30Z</time>
      </trkpt>
      <trkpt lat="59.9715993969" lon="23.4660437667">
        <ele>21</ele>
        <time>2012-03-27T16:54:35Z</time>
      </trkpt>
      <trkpt lat="59.9717935217" lon="23.466065392">
        <ele>22.2</ele>
        <time>2012-03-27T16:54:40Z</time>
      </trkpt>
      <trkpt lat="59.9719923404" lon="23.4660679066">
        <ele>23</ele>
        <time>2012-03-27T16:54:45Z</time>
      </trkpt>
      <trkpt lat="59.9721888121" lon="23.4660445211">
        <ele>24.2</ele>
        <time>2012-03-27T16:54:50Z</time>
      </trkpt>
      <trkpt lat="59.9723914026" lon="23.4659746999">
        <ele>25</ele>
        <time>2012-03-27T16:54:55Z</time>
      </trkpt>
      <trkpt lat="59.9725866171" lon="23.4658919705">
        <ele>25.8</ele>
        <time>2012-03-27T16:55:00Z</time>
      </trkpt>
      <trkpt lat="59.9727920575" lon="23.4657674993">
        <ele>26.8</ele>
        <time>2012-03-27T16:55:05Z</time>
      </trkpt>
      <trkpt lat="59.9729597793" lon="23.4656384181">
        <ele>27.4</ele>
        <time>2012-03-27T16:55:09Z</time>
      </trkpt>
      <trkpt lat="59.9731565863" lon="23.465438845">
        <ele>27.6</ele>
        <time>2012-03-27T16:55:14Z</time>
      </trkpt>
      <trkpt lat="59.9733279961" lon="23.465226783">
        <ele>28.4</ele>
        <time>2012-03-27T16:55:19Z</time>
      </trkpt>
      <trkpt lat="59.9734875875" lon="23.4650147209">
        <ele>29.2</ele>
        <time>2012-03-27T16:55:24Z</time>
      </trkpt>
      <trkpt lat="59.9736390484" lon="23.4647754176">
        <ele>29.6</ele>
        <time>2012-03-27T16:55:29Z</time>
      </trkpt>
      <trkpt lat="59.9737915152" lon="23.4645030059">
        <ele>30</ele>
        <time>2012-03-27T16:55:34Z</time>
      </trkpt>
      <trkpt lat="59.9739457422" lon="23.4642048617">
        <ele>30</ele>
        <time>2012-03-27T16:55:39Z</time>
      </trkpt>
      <trkpt lat="59.9739754979" lon="23.4641493735">
        <ele>30</ele>
        <time>2012-03-27T16:55:40Z</time>
      </trkpt>
      <trkpt lat="59.9741386097" lon="23.4638183723">
        <ele>30.8</ele>
        <time>2012-03-27T16:55:45Z</time>
      </trkpt>
      <trkpt lat="59.9742756538" lon="23.4635588687">
        <ele>31.2</ele>
        <time>2012-03-27T16:55:49Z</time>
      </trkpt>
      <trkpt lat="59.9744252707" lon="23.4633143686">
        <ele>31.6</ele>
        <time>2012-03-27T16:55:53Z</time>
      </trkpt>
      <trkpt lat="59.9745911485" lon="23.4630710421">
        <ele>31.8</ele>
        <time>2012-03-27T16:55:57Z</time>
      </trkpt>
      <trkpt lat="59.9747702697" lon="23.4628360136">
        <ele>32</ele>
        <time>2012-03-27T16:56:01Z</time>
      </trkpt>
      <trkpt lat="59.974958108" lon="23.4626249574">
        <ele>32.2</ele>
        <time>2012-03-27T16:56:05Z</time>
      </trkpt>
      <trkpt lat="59.9751588546" lon="23.4624294915">
        <ele>32.2</ele>
        <time>2012-03-27T16:56:09Z</time>
      </trkpt>
      <trkpt lat="59.9753692402" lon="23.4622398929">
        <ele>32.2</ele>
        <time>2012-03-27T16:56:13Z</time>
      </trkpt>
      <trkpt lat="59.975573591" lon="23.462095808">
        <ele>32.2</ele>
        <time>2012-03-27T16:56:17Z</time>
      </trkpt>
      <trkpt lat="59.9756428255" lon="23.4620533118">
        <ele>32.4</ele>
        <time>2012-03-27T16:56:18Z</time>
      </trkpt>
      <trkpt lat="59.97575464" lon="23.4619915372">
        <ele>32.4</ele>
        <time>2012-03-27T16:56:20Z</time>
      </trkpt>
      <trkpt lat="59.9759766765" lon="23.4618703349">
        <ele>32.4</ele>
        <time>2012-03-27T16:56:24Z</time>
      </trkpt>
      <trkpt lat="59.9761977911" lon="23.4617636333">
        <ele>32.4</ele>
        <time>2012-03-27T16:56:28Z</time>
      </trkpt>
      <trkpt lat="59.9764198276" lon="23.4616473764">
        <ele>32.4</ele>
        <time>2012-03-27T16:56:32Z</time>
      </trkpt>
      <trkpt lat="59.9766297104" lon="23.4615400042">
        <ele>32.4</ele>
        <time>2012-03-27T16:56:36Z</time>
      </trkpt>
      <trkpt lat="59.9768321333" lon="23.4614361525">
        <ele>32.4</ele>
        <time>2012-03-27T16:56:40Z</time>
      </trkpt>
      <trkpt lat="59.9770327959" lon="23.4613402636">
        <ele>32.4</ele>
        <time>2012-03-27T16:56:44Z</time>
      </trkpt>
      <trkpt lat="59.977239745" lon="23.4612385073">
        <ele>32.4</ele>
        <time>2012-03-27T16:56:48Z</time>
      </trkpt>
      <trkpt lat="59.9774394857" lon="23.461134907">
        <ele>33</ele>
        <time>2012-03-27T16:56:52Z</time>
      </trkpt>
      <trkpt lat="59.977630593" lon="23.4610303009">
        <ele>33.6</ele>
        <time>2012-03-27T16:56:56Z</time>
      </trkpt>
      <trkpt lat="59.9776761068" lon="23.4610054905">
        <ele>33.6</ele>
        <time>2012-03-27T16:56:57Z</time>
      </trkpt>
      <trkpt lat="59.9777613507" lon="23.460972382">
        <ele>33.8</ele>
        <time>2012-03-27T16:56:59Z</time>
      </trkpt>
      <trkpt lat="59.9778467622" lon="23.4611371701">
        <ele>34</ele>
        <time>2012-03-27T16:57:03Z</time>
      </trkpt>
      <trkpt lat="59.9778771885" lon="23.4613674209">
        <ele>34</ele>
        <time>2012-03-27T16:57:06Z</time>
      </trkpt>
      <trkpt lat="59.9779415615" lon="23.4618192891">
        <ele>34.2</ele>
        <time>2012-03-27T16:57:11Z</time>
      </trkpt>
      <trkpt lat="59.9780004863" lon="23.4621947144">
        <ele>34.2</ele>
        <time>2012-03-27T16:57:15Z</time>
      </trkpt>
      <trkpt lat="59.9780324213" lon="23.4623714887">
        <ele>34.4</ele>
        <time>2012-03-27T16:57:16Z</time>
      </trkpt>
      <trkpt lat="59.9780891668" lon="23.4628495923">
        <ele>35.2</ele>
        <time>2012-03-27T16:57:21Z</time>
      </trkpt>
      <trkpt lat="59.9781023264" lon="23.4629502589">
        <ele>35.2</ele>
        <time>2012-03-27T16:57:22Z</time>
      </trkpt>
      <trkpt lat="59.9781577307" lon="23.4633404364">
        <ele>35.6</ele>
        <time>2012-03-27T16:57:26Z</time>
      </trkpt>
      <trkpt lat="59.9782078545" lon="23.4637600343">
        <ele>36</ele>
        <time>2012-03-27T16:57:30Z</time>
      </trkpt>
      <trkpt lat="59.9782418012" lon="23.463986597">
        <ele>36</ele>
        <time>2012-03-27T16:57:32Z</time>
      </trkpt>
      <trkpt lat="59.9783643446" lon="23.4644640301">
        <ele>36.2</ele>
        <time>2012-03-27T16:57:36Z</time>
      </trkpt>
      <trkpt lat="59.978503065" lon="23.4648166566">
        <ele>36.2</ele>
        <time>2012-03-27T16:57:39Z</time>
      </trkpt>
      <trkpt lat="59.9786629917" lon="23.4651225959">
        <ele>35.6</ele>
        <time>2012-03-27T16:57:42Z</time>
      </trkpt>
      <trkpt lat="59.9788085853" lon="23.4654180579">
        <ele>35.4</ele>
        <time>2012-03-27T16:57:45Z</time>
      </trkpt>
      <trkpt lat="59.9789455455" lon="23.4657036292">
        <ele>35</ele>
        <time>2012-03-27T16:57:48Z</time>
      </trkpt>
      <trkpt lat="59.979077309" lon="23.4659770468">
        <ele>34.8</ele>
        <time>2012-03-27T16:57:51Z</time>
      </trkpt>
      <trkpt lat="59.9792058035" lon="23.4662341197">
        <ele>34.6</ele>
        <time>2012-03-27T16:57:54Z</time>
      </trkpt>
      <trkpt lat="59.9793608687" lon="23.4665477704">
        <ele>34.6</ele>
        <time>2012-03-27T16:57:58Z</time>
      </trkpt>
      <trkpt lat="59.9795240643" lon="23.4668366107">
        <ele>34.4</ele>
        <time>2012-03-27T16:58:02Z</time>
      </trkpt>
      <trkpt lat="59.9796808896" lon="23.4671201703">
        <ele>34.4</ele>
        <time>2012-03-27T16:58:06Z</time>
      </trkpt>
      <trkpt lat="59.9798464321" lon="23.4674063284">
        <ele>34.4</ele>
        <time>2012-03-27T16:58:10Z</time>
      </trkpt>
      <trkpt lat="59.980012729" lon="23.4676734596">
        <ele>34.4</ele>
        <time>2012-03-27T16:58:14Z</time>
      </trkpt>
      <trkpt lat="59.9802353523" lon="23.4679721067">
        <ele>34.2</ele>
        <time>2012-03-27T16:58:19Z</time>
      </trkpt>
      <trkpt lat="59.980423945" lon="23.4681877729">
        <ele>34.2</ele>
        <time>2012-03-27T16:58:23Z</time>
      </trkpt>
      <trkpt lat="59.9806261165" lon="23.4683920399">
        <ele>34.2</ele>
        <time>2012-03-27T16:58:27Z</time>
      </trkpt>
      <trkpt lat="59.9808401902" lon="23.4685927025">
        <ele>34.2</ele>
        <time>2012-03-27T16:58:31Z</time>
      </trkpt>
      <trkpt lat="59.9810499891" lon="23.4687937005">
        <ele>34.2</ele>
        <time>2012-03-27T16:58:35Z</time>
      </trkpt>
      <trkpt lat="59.9812524959" lon="23.4689912619">
        <ele>34.2</ele>
        <time>2012-03-27T16:58:39Z</time>
      </trkpt>
      <trkpt lat="59.9814576009" lon="23.4692164835">
        <ele>34.2</ele>
        <time>2012-03-27T16:58:43Z</time>
      </trkpt>
      <trkpt lat="59.9816133366" lon="23.4694115303">
        <ele>34.2</ele>
        <time>2012-03-27T16:58:46Z</time>
      </trkpt>
      <trkpt lat="59.9817685694" lon="23.4696190662">
        <ele>34.2</ele>
        <time>2012-03-27T16:58:49Z</time>
      </trkpt>
      <trkpt lat="59.9819635324" lon="23.469890053">
        <ele>34.2</ele>
        <time>2012-03-27T16:58:53Z</time>
      </trkpt>
      <trkpt lat="59.9821059409" lon="23.4701087368">
        <ele>34.2</ele>
        <time>2012-03-27T16:58:56Z</time>
      </trkpt>
      <trkpt lat="59.9821965493" lon="23.4702646401">
        <ele>34.2</ele>
        <time>2012-03-27T16:58:58Z</time>
      </trkpt>
      <trkpt lat="59.9822422306" lon="23.470339742">
        <ele>34.2</ele>
        <time>2012-03-27T16:58:59Z</time>
      </trkpt>
      <trkpt lat="59.9824172447" lon="23.4706602658">
        <ele>34.2</ele>
        <time>2012-03-27T16:59:03Z</time>
      </trkpt>
      <trkpt lat="59.982550014" lon="23.4709230384">
        <ele>34</ele>
        <time>2012-03-27T16:59:06Z</time>
      </trkpt>
      <trkpt lat="59.9826837053" lon="23.4711970427">
        <ele>33.6</ele>
        <time>2012-03-27T16:59:09Z</time>
      </trkpt>
      <trkpt lat="59.9828204979" lon="23.4714746512">
        <ele>33.2</ele>
        <time>2012-03-27T16:59:12Z</time>
      </trkpt>
      <trkpt lat="59.9829576258" lon="23.4717629886">
        <ele>33</ele>
        <time>2012-03-27T16:59:15Z</time>
      </trkpt>
      <trkpt lat="59.9830910656" lon="23.4720555169">
        <ele>32.8</ele>
        <time>2012-03-27T16:59:18Z</time>
      </trkpt>
      <trkpt lat="59.9832315463" lon="23.4723470394">
        <ele>32.6</ele>
        <time>2012-03-27T16:59:21Z</time>
      </trkpt>
      <trkpt lat="59.9833698476" lon="23.4726488716">
        <ele>32.6</ele>
        <time>2012-03-27T16:59:24Z</time>
      </trkpt>
      <trkpt lat="59.9835012758" lon="23.4729432439">
        <ele>32.4</ele>
        <time>2012-03-27T16:59:27Z</time>
      </trkpt>
      <trkpt lat="59.9836301056" lon="23.4732415557">
        <ele>32.4</ele>
        <time>2012-03-27T16:59:30Z</time>
      </trkpt>
      <trkpt lat="59.9837689937" lon="23.473573479">
        <ele>32.4</ele>
        <time>2012-03-27T16:59:33Z</time>
      </trkpt>
      <trkpt lat="59.9839092229" lon="23.4739227527">
        <ele>31.8</ele>
        <time>2012-03-27T16:59:36Z</time>
      </trkpt>
      <trkpt lat="59.9840498712" lon="23.4742685061">
        <ele>31.4</ele>
        <time>2012-03-27T16:59:39Z</time>
      </trkpt>
      <trkpt lat="59.9841855741" lon="23.4746062967">
        <ele>31</ele>
        <time>2012-03-27T16:59:42Z</time>
      </trkpt>
      <trkpt lat="59.9843104644" lon="23.4749216238">
        <ele>30.8</ele>
        <time>2012-03-27T16:59:45Z</time>
      </trkpt>
      <trkpt lat="59.9844309962" lon="23.475219265">
        <ele>30.6</ele>
        <time>2012-03-27T16:59:48Z</time>
      </trkpt>
      <trkpt lat="59.9845081096" lon="23.4754098694">
        <ele>30.6</ele>
        <time>2012-03-27T16:59:50Z</time>
      </trkpt>
      <trkpt lat="59.9846798548" lon="23.4758785015">
        <ele>30.4</ele>
        <time>2012-03-27T16:59:55Z</time>
      </trkpt>
      <trkpt lat="59.9847108678" lon="23.475961147">
        <ele>30.4</ele>
        <time>2012-03-27T16:59:56Z</time>
      </trkpt>
      <trkpt lat="59.984838105" lon="23.4763016198">
        <ele>30.4</ele>
        <time>2012-03-27T17:00:00Z</time>
      </trkpt>
      <trkpt lat="59.9848650948" lon="23.476384433">
        <ele>30.4</ele>
        <time>2012-03-27T17:00:01Z</time>
      </trkpt>
      <trkpt lat="59.9850074194" lon="23.476774778">
        <ele>30.4</ele>
        <time>2012-03-27T17:00:06Z</time>
      </trkpt>
      <trkpt lat="59.9850595548" lon="23.4769225509">
        <ele>30.4</ele>
        <time>2012-03-27T17:00:08Z</time>
      </trkpt>
      <trkpt lat="59.9851965151" lon="23.4773704797">
        <ele>30.2</ele>
        <time>2012-03-27T17:00:14Z</time>
      </trkpt>
      <trkpt lat="59.9852973493" lon="23.4776986311">
        <ele>30.2</ele>
        <time>2012-03-27T17:00:18Z</time>
      </trkpt>
      <trkpt lat="59.9853944117" lon="23.4780014691">
        <ele>30.2</ele>
        <time>2012-03-27T17:00:22Z</time>
      </trkpt>
      <trkpt lat="59.9854189707" lon="23.4780687758">
        <ele>30.4</ele>
        <time>2012-03-27T17:00:23Z</time>
      </trkpt>
      <trkpt lat="59.9854457928" lon="23.4781354957">
        <ele>30.6</ele>
        <time>2012-03-27T17:00:24Z</time>
      </trkpt>
      <trkpt lat="59.9855484711" lon="23.4784302033">
        <ele>31.2</ele>
        <time>2012-03-27T17:00:28Z</time>
      </trkpt>
      <trkpt lat="59.9856384927" lon="23.4786656509">
        <ele>31.6</ele>
        <time>2012-03-27T17:00:31Z</time>
      </trkpt>
      <trkpt lat="59.9857964915" lon="23.4790429202">
        <ele>32</ele>
        <time>2012-03-27T17:00:36Z</time>
      </trkpt>
      <trkpt lat="59.985860613" lon="23.479187005">
        <ele>32.6</ele>
        <time>2012-03-27T17:00:38Z</time>
      </trkpt>
      <trkpt lat="59.9860420812" lon="23.4795710637">
        <ele>33.4</ele>
        <time>2012-03-27T17:00:44Z</time>
      </trkpt>
      <trkpt lat="59.986174599" lon="23.4798303159">
        <ele>33.8</ele>
        <time>2012-03-27T17:00:48Z</time>
      </trkpt>
      <trkpt lat="59.9863150796" lon="23.4800943457">
        <ele>34.6</ele>
        <time>2012-03-27T17:00:52Z</time>
      </trkpt>
      <trkpt lat="59.986476515" lon="23.4804043922">
        <ele>35.4</ele>
        <time>2012-03-27T17:00:57Z</time>
      </trkpt>
      <trkpt lat="59.986641387" lon="23.4807077332">
        <ele>35.8</ele>
        <time>2012-03-27T17:01:02Z</time>
      </trkpt>
      <trkpt lat="59.9867758327" lon="23.4809479584">
        <ele>36</ele>
        <time>2012-03-27T17:01:06Z</time>
      </trkpt>
      <trkpt lat="59.9869170677" lon="23.4811981581">
        <ele>36.2</ele>
        <time>2012-03-27T17:01:10Z</time>
      </trkpt>
      <trkpt lat="59.9870712108" lon="23.4814438316">
        <ele>36.4</ele>
        <time>2012-03-27T17:01:14Z</time>
      </trkpt>
      <trkpt lat="59.9872592169" lon="23.481709454">
        <ele>36.4</ele>
        <time>2012-03-27T17:01:19Z</time>
      </trkpt>
      <trkpt lat="59.9874382542" lon="23.4819153135">
        <ele>36.4</ele>
        <time>2012-03-27T17:01:23Z</time>
      </trkpt>
      <trkpt lat="59.9876327981" lon="23.482079934">
        <ele>36.4</ele>
        <time>2012-03-27T17:01:28Z</time>
      </trkpt>
      <trkpt lat="59.9878267553" lon="23.4821757391">
        <ele>36.4</ele>
        <time>2012-03-27T17:01:33Z</time>
      </trkpt>
      <trkpt lat="59.9879516456" lon="23.4822245218">
        <ele>36.4</ele>
        <time>2012-03-27T17:01:38Z</time>
      </trkpt>
      <trkpt lat="59.9880357999" lon="23.4822474882">
        <ele>36.4</ele>
        <time>2012-03-27T17:01:42Z</time>
      </trkpt>
      <trkpt lat="59.988136718" lon="23.4821262859">
        <ele>36.4</ele>
        <time>2012-03-27T17:01:48Z</time>
      </trkpt>
      <trkpt lat="59.9881539847" lon="23.4820956082">
        <ele>36.4</ele>
        <time>2012-03-27T17:01:54Z</time>
      </trkpt>
      <trkpt lat="59.9881461895" lon="23.4821025651">
        <ele>36.4</ele>
        <time>2012-03-27T17:02:05Z</time>
      </trkpt>
      <trkpt lat="59.9881410765" lon="23.4820985418">
        <ele>36.4</ele>
        <time>2012-03-27T17:02:13Z</time>
      </trkpt>
      <trkpt lat="59.98813764" lon="23.4820832868">
        <ele>36.4</ele>
        <time>2012-03-27T17:02:35Z</time>
      </trkpt>
      <trkpt lat="59.9882149211" lon="23.4820238591">
        <ele>36.4</ele>
        <time>2012-03-27T17:02:39Z</time>
      </trkpt>
      <trkpt lat="59.9882355406" lon="23.4817475917">
        <ele>36.4</ele>
        <time>2012-03-27T17:02:42Z</time>
      </trkpt>
      <trkpt lat="59.9882184415" lon="23.4816377888">
        <ele>36.4</ele>
        <time>2012-03-27T17:02:43Z</time>
      </trkpt>
      <trkpt lat="59.9881985764" lon="23.4815236273">
        <ele>36.4</ele>
        <time>2012-03-27T17:02:44Z</time>
      </trkpt>
      <trkpt lat="59.9881321079" lon="23.4811757785">
        <ele>36.4</ele>
        <time>2012-03-27T17:02:47Z</time>
      </trkpt>
      <trkpt lat="59.988062622" lon="23.4808279296">
        <ele>36.4</ele>
        <time>2012-03-27T17:02:50Z</time>
      </trkpt>
      <trkpt lat="59.9879842512" lon="23.4804842717">
        <ele>36.4</ele>
        <time>2012-03-27T17:02:53Z</time>
      </trkpt>
      <trkpt lat="59.987907473" lon="23.4801391051">
        <ele>36.4</ele>
        <time>2012-03-27T17:02:56Z</time>
      </trkpt>
      <trkpt lat="59.9878276773" lon="23.4798048349">
        <ele>36.4</ele>
        <time>2012-03-27T17:02:59Z</time>
      </trkpt>
      <trkpt lat="59.9877505638" lon="23.4794698103">
        <ele>36.4</ele>
        <time>2012-03-27T17:03:02Z</time>
      </trkpt>
      <trkpt lat="59.9876689241" lon="23.4791448441">
        <ele>36.4</ele>
        <time>2012-03-27T17:03:05Z</time>
      </trkpt>
      <trkpt lat="59.9875894637" lon="23.4788233982">
        <ele>36.4</ele>
        <time>2012-03-27T17:03:08Z</time>
      </trkpt>
      <trkpt lat="59.9874821754" lon="23.4783996932">
        <ele>36.4</ele>
        <time>2012-03-27T17:03:12Z</time>
      </trkpt>
      <trkpt lat="59.9874038884" lon="23.4780753136">
        <ele>36.4</ele>
        <time>2012-03-27T17:03:15Z</time>
      </trkpt>
      <trkpt lat="59.9872968516" lon="23.4776589847">
        <ele>36.4</ele>
        <time>2012-03-27T17:03:19Z</time>
      </trkpt>
      <trkpt lat="59.9871862943" lon="23.4772394706">
        <ele>36.4</ele>
        <time>2012-03-27T17:03:23Z</time>
      </trkpt>
      <trkpt lat="59.9870681095" lon="23.4768242313">
        <ele>36.4</ele>
        <time>2012-03-27T17:03:27Z</time>
      </trkpt>
      <trkpt lat="59.9869763277" lon="23.4765051323">
        <ele>36.4</ele>
        <time>2012-03-27T17:03:30Z</time>
      </trkpt>
      <trkpt lat="59.986883121" lon="23.4761826806">
        <ele>37</ele>
        <time>2012-03-27T17:03:33Z</time>
      </trkpt>
      <trkpt lat="59.9867869806" lon="23.4758570438">
        <ele>37.4</ele>
        <time>2012-03-27T17:03:36Z</time>
      </trkpt>
      <trkpt lat="59.9866870684" lon="23.4755206782">
        <ele>37.8</ele>
        <time>2012-03-27T17:03:39Z</time>
      </trkpt>
      <trkpt lat="59.9865843901" lon="23.4751881682">
        <ele>38</ele>
        <time>2012-03-27T17:03:42Z</time>
      </trkpt>
      <trkpt lat="59.986479784" lon="23.4748604359">
        <ele>38</ele>
        <time>2012-03-27T17:03:45Z</time>
      </trkpt>
      <trkpt lat="59.9863761837" lon="23.4745328712">
        <ele>38.2</ele>
        <time>2012-03-27T17:03:48Z</time>
      </trkpt>
      <trkpt lat="59.9862708232" lon="23.4742011995">
        <ele>38.2</ele>
        <time>2012-03-27T17:03:51Z</time>
      </trkpt>
      <trkpt lat="59.9861686478" lon="23.4738577092">
        <ele>38.4</ele>
        <time>2012-03-27T17:03:54Z</time>
      </trkpt>
      <trkpt lat="59.9860808055" lon="23.4735139675">
        <ele>38.4</ele>
        <time>2012-03-27T17:03:57Z</time>
      </trkpt>
      <trkpt lat="59.9859863415" lon="23.4731731594">
        <ele>38.4</ele>
        <time>2012-03-27T17:04:00Z</time>
      </trkpt>
      <trkpt lat="59.9858981639" lon="23.4728191918">
        <ele>38.4</ele>
        <time>2012-03-27T17:04:03Z</time>
      </trkpt>
      <trkpt lat="59.9858134229" lon="23.4724538248">
        <ele>38.4</ele>
        <time>2012-03-27T17:04:06Z</time>
      </trkpt>
      <trkpt lat="59.9857326214" lon="23.4720762202">
        <ele>38.4</ele>
        <time>2012-03-27T17:04:09Z</time>
      </trkpt>
      <trkpt lat="59.9856557594" lon="23.4716962686">
        <ele>38.2</ele>
        <time>2012-03-27T17:04:12Z</time>
      </trkpt>
      <trkpt lat="59.9855803223" lon="23.4712967873">
        <ele>37.6</ele>
        <time>2012-03-27T17:04:15Z</time>
      </trkpt>
      <trkpt lat="59.9855135185" lon="23.4708941208">
        <ele>37.4</ele>
        <time>2012-03-27T17:04:18Z</time>
      </trkpt>
      <trkpt lat="59.9854467148" lon="23.4704637941">
        <ele>37.2</ele>
        <time>2012-03-27T17:04:21Z</time>
      </trkpt>
      <trkpt lat="59.9853867842" lon="23.4700198048">
        <ele>36.6</ele>
        <time>2012-03-27T17:04:24Z</time>
      </trkpt>
      <trkpt lat="59.9853343973" lon="23.4695619855">
        <ele>36</ele>
        <time>2012-03-27T17:04:27Z</time>
      </trkpt>
      <trkpt lat="59.9852841059" lon="23.4690827922">
        <ele>35.6</ele>
        <time>2012-03-27T17:04:30Z</time>
      </trkpt>
      <trkpt lat="59.9852421126" lon="23.4685875896">
        <ele>34.8</ele>
        <time>2012-03-27T17:04:33Z</time>
      </trkpt>
      <trkpt lat="59.9852121892" lon="23.4680822448">
        <ele>34.2</ele>
        <time>2012-03-27T17:04:36Z</time>
      </trkpt>
      <trkpt lat="59.9851892228" lon="23.4675700269">
        <ele>33.6</ele>
        <time>2012-03-27T17:04:39Z</time>
      </trkpt>
      <trkpt lat="59.9851790807" lon="23.467050852">
        <ele>32.6</ele>
        <time>2012-03-27T17:04:42Z</time>
      </trkpt>
      <trkpt lat="59.9851671784" lon="23.4665254745">
        <ele>32</ele>
        <time>2012-03-27T17:04:45Z</time>
      </trkpt>
      <trkpt lat="59.9851551923" lon="23.4660041204">
        <ele>31.4</ele>
        <time>2012-03-27T17:04:48Z</time>
      </trkpt>
      <trkpt lat="59.9851415298" lon="23.4654942494">
        <ele>30.4</ele>
        <time>2012-03-27T17:04:51Z</time>
      </trkpt>
      <trkpt lat="59.9851292922" lon="23.4649974542">
        <ele>29.8</ele>
        <time>2012-03-27T17:04:54Z</time>
      </trkpt>
      <trkpt lat="59.9851077508" lon="23.4645114716">
        <ele>29.2</ele>
        <time>2012-03-27T17:04:57Z</time>
      </trkpt>
      <trkpt lat="59.9850827727" lon="23.4640393192">
        <ele>28.6</ele>
        <time>2012-03-27T17:05:00Z</time>
      </trkpt>
      <trkpt lat="59.9850546095" lon="23.4635766383">
        <ele>27.8</ele>
        <time>2012-03-27T17:05:03Z</time>
      </trkpt>
      <trkpt lat="59.9850264463" lon="23.4631386002">
        <ele>27.2</ele>
        <time>2012-03-27T17:05:06Z</time>
      </trkpt>
      <trkpt lat="59.9849843692" lon="23.4627241991">
        <ele>26.8</ele>
        <time>2012-03-27T17:05:09Z</time>
      </trkpt>
      <trkpt lat="59.9849344131" lon="23.4623206944">
        <ele>26.4</ele>
        <time>2012-03-27T17:05:12Z</time>
      </trkpt>
      <trkpt lat="59.9848855466" lon="23.4619269127">
        <ele>26.2</ele>
        <time>2012-03-27T17:05:15Z</time>
      </trkpt>
      <trkpt lat="59.9848115344" lon="23.4613965061">
        <ele>26</ele>
        <time>2012-03-27T17:05:19Z</time>
      </trkpt>
      <trkpt lat="59.9847536993" lon="23.4610075021">
        <ele>26</ele>
        <time>2012-03-27T17:05:22Z</time>
      </trkpt>
      <trkpt lat="59.9846886558" lon="23.4606156483">
        <ele>25.8</ele>
        <time>2012-03-27T17:05:25Z</time>
      </trkpt>
      <trkpt lat="59.984620008" lon="23.460223543">
        <ele>25.8</ele>
        <time>2012-03-27T17:05:28Z</time>
      </trkpt>
      <trkpt lat="59.984544068" lon="23.4598372213">
        <ele>25.8</ele>
        <time>2012-03-27T17:05:31Z</time>
      </trkpt>
      <trkpt lat="59.9844695529" lon="23.4594560124">
        <ele>25.8</ele>
        <time>2012-03-27T17:05:34Z</time>
      </trkpt>
      <trkpt lat="59.9843897572" lon="23.4590791622">
        <ele>25.6</ele>
        <time>2012-03-27T17:05:37Z</time>
      </trkpt>
      <trkpt lat="59.984306022" lon="23.4587013062">
        <ele>25.6</ele>
        <time>2012-03-27T17:05:40Z</time>
      </trkpt>
      <trkpt lat="59.9842154137" lon="23.4583234501">
        <ele>25.6</ele>
        <time>2012-03-27T17:05:43Z</time>
      </trkpt>
      <trkpt lat="59.9841200277" lon="23.4579466837">
        <ele>25.6</ele>
        <time>2012-03-27T17:05:46Z</time>
      </trkpt>
      <trkpt lat="59.9840192772" lon="23.4575680733">
        <ele>25.6</ele>
        <time>2012-03-27T17:05:49Z</time>
      </trkpt>
      <trkpt lat="59.9839118213" lon="23.4571860263">
        <ele>25</ele>
        <time>2012-03-27T17:05:52Z</time>
      </trkpt>
      <trkpt lat="59.9837989171" lon="23.4567886404">
        <ele>24.6</ele>
        <time>2012-03-27T17:05:55Z</time>
      </trkpt>
      <trkpt lat="59.9836915449" lon="23.4564145562">
        <ele>24.4</ele>
        <time>2012-03-27T17:05:58Z</time>
      </trkpt>
      <trkpt lat="59.9835842566" lon="23.4560297432">
        <ele>24.2</ele>
        <time>2012-03-27T17:06:01Z</time>
      </trkpt>
      <trkpt lat="59.9834811592" lon="23.4556476124">
        <ele>24</ele>
        <time>2012-03-27T17:06:04Z</time>
      </trkpt>
      <trkpt lat="59.983381247" lon="23.4552591113">
        <ele>23.8</ele>
        <time>2012-03-27T17:06:07Z</time>
      </trkpt>
      <trkpt lat="59.9832815862" lon="23.454865162">
        <ele>23.2</ele>
        <time>2012-03-27T17:06:10Z</time>
      </trkpt>
      <trkpt lat="59.9831546004" lon="23.4543303968">
        <ele>22.6</ele>
        <time>2012-03-27T17:06:14Z</time>
      </trkpt>
      <trkpt lat="59.9830664228" lon="23.4539185102">
        <ele>22.4</ele>
        <time>2012-03-27T17:06:17Z</time>
      </trkpt>
      <trkpt lat="59.9829841126" lon="23.4534881835">
        <ele>22.2</ele>
        <time>2012-03-27T17:06:20Z</time>
      </trkpt>
      <trkpt lat="59.9829055742" lon="23.4530479661">
        <ele>22</ele>
        <time>2012-03-27T17:06:23Z</time>
      </trkpt>
      <trkpt lat="59.9828345795" lon="23.4526034739">
        <ele>21.8</ele>
        <time>2012-03-27T17:06:26Z</time>
      </trkpt>
      <trkpt lat="59.9827724696" lon="23.4521604905">
        <ele>21.2</ele>
        <time>2012-03-27T17:06:29Z</time>
      </trkpt>
      <trkpt lat="59.9827196636" lon="23.4517211951">
        <ele>20.8</ele>
        <time>2012-03-27T17:06:32Z</time>
      </trkpt>
      <trkpt lat="59.9826686179" lon="23.4512780441">
        <ele>20.4</ele>
        <time>2012-03-27T17:06:35Z</time>
      </trkpt>
      <trkpt lat="59.9826260378" lon="23.4508676662">
        <ele>20.2</ele>
        <time>2012-03-27T17:06:38Z</time>
      </trkpt>
      <trkpt lat="59.9825896604" lon="23.4504587972">
        <ele>19.4</ele>
        <time>2012-03-27T17:06:41Z</time>
      </trkpt>
      <trkpt lat="59.9825586473" lon="23.4500547058">
        <ele>19</ele>
        <time>2012-03-27T17:06:44Z</time>
      </trkpt>
      <trkpt lat="59.9825335854" lon="23.4496511173">
        <ele>18.6</ele>
        <time>2012-03-27T17:06:47Z</time>
      </trkpt>
      <trkpt lat="59.9825138042" lon="23.4492561622">
        <ele>18.2</ele>
        <time>2012-03-27T17:06:50Z</time>
      </trkpt>
      <trkpt lat="59.9824984653" lon="23.4488670744">
        <ele>18</ele>
        <time>2012-03-27T17:06:53Z</time>
      </trkpt>
      <trkpt lat="59.9824811148" lon="23.4484856141">
        <ele>17.8</ele>
        <time>2012-03-27T17:06:56Z</time>
      </trkpt>
      <trkpt lat="59.9824626746" lon="23.448111949">
        <ele>17.2</ele>
        <time>2012-03-27T17:06:59Z</time>
      </trkpt>
      <trkpt lat="59.9824469166" lon="23.4477410499">
        <ele>16.6</ele>
        <time>2012-03-27T17:07:02Z</time>
      </trkpt>
      <trkpt lat="59.9824345114" lon="23.4473727492">
        <ele>16.4</ele>
        <time>2012-03-27T17:07:05Z</time>
      </trkpt>
      <trkpt lat="59.9824210165" lon="23.4470114893">
        <ele>16.2</ele>
        <time>2012-03-27T17:07:08Z</time>
      </trkpt>
      <trkpt lat="59.9824085275" lon="23.4466533307">
        <ele>16</ele>
        <time>2012-03-27T17:07:11Z</time>
      </trkpt>
      <trkpt lat="59.9823880757" lon="23.4461749757">
        <ele>15.8</ele>
        <time>2012-03-27T17:07:15Z</time>
      </trkpt>
      <trkpt lat="59.9823652769" lon="23.4457226046">
        <ele>15.6</ele>
        <time>2012-03-27T17:07:19Z</time>
      </trkpt>
      <trkpt lat="59.9823524526" lon="23.4452650366">
        <ele>15.6</ele>
        <time>2012-03-27T17:07:23Z</time>
      </trkpt>
      <trkpt lat="59.9823356888" lon="23.4448157668">
        <ele>15.6</ele>
        <time>2012-03-27T17:07:27Z</time>
      </trkpt>
      <trkpt lat="59.9823099564" lon="23.4443442011">
        <ele>16.2</ele>
        <time>2012-03-27T17:07:31Z</time>
      </trkpt>
      <trkpt lat="59.982277686" lon="23.4438689474">
        <ele>16.6</ele>
        <time>2012-03-27T17:07:35Z</time>
      </trkpt>
      <trkpt lat="59.982252708" lon="23.4434069371">
        <ele>17</ele>
        <time>2012-03-27T17:07:39Z</time>
      </trkpt>
      <trkpt lat="59.9822251315" lon="23.4429323539">
        <ele>17.2</ele>
        <time>2012-03-27T17:07:43Z</time>
      </trkpt>
      <trkpt lat="59.9822035062" lon="23.4425731056">
        <ele>17.2</ele>
        <time>2012-03-27T17:07:46Z</time>
      </trkpt>
      <trkpt lat="59.9821817971" lon="23.4422089959">
        <ele>17.4</ele>
        <time>2012-03-27T17:07:49Z</time>
      </trkpt>
      <trkpt lat="59.9821655362" lon="23.4418424554">
        <ele>17.4</ele>
        <time>2012-03-27T17:07:52Z</time>
      </trkpt>
      <trkpt lat="59.9821515384" lon="23.4414737356">
        <ele>17.4</ele>
        <time>2012-03-27T17:07:55Z</time>
      </trkpt>
      <trkpt lat="59.9821337688" lon="23.4410093784">
        <ele>17.4</ele>
        <time>2012-03-27T17:07:59Z</time>
      </trkpt>
      <trkpt lat="59.982124884" lon="23.4406499625">
        <ele>17.4</ele>
        <time>2012-03-27T17:08:02Z</time>
      </trkpt>
      <trkpt lat="59.9821198549" lon="23.4402889541">
        <ele>17.4</ele>
        <time>2012-03-27T17:08:05Z</time>
      </trkpt>
      <trkpt lat="59.982119771" lon="23.4399266045">
        <ele>17.4</ele>
        <time>2012-03-27T17:08:08Z</time>
      </trkpt>
      <trkpt lat="59.9821143228" lon="23.4395620757">
        <ele>17.4</ele>
        <time>2012-03-27T17:08:11Z</time>
      </trkpt>
      <trkpt lat="59.9821109701" lon="23.4391951161">
        <ele>17.4</ele>
        <time>2012-03-27T17:08:14Z</time>
      </trkpt>
      <trkpt lat="59.982113317" lon="23.4388275698">
        <ele>17.4</ele>
        <time>2012-03-27T17:08:17Z</time>
      </trkpt>
      <trkpt lat="59.982117005" lon="23.4384607779">
        <ele>17.6</ele>
        <time>2012-03-27T17:08:20Z</time>
      </trkpt>
      <trkpt lat="59.9821284044" lon="23.4379605461">
        <ele>17.6</ele>
        <time>2012-03-27T17:08:24Z</time>
      </trkpt>
      <trkpt lat="59.9821423184" lon="23.4375830253">
        <ele>17.6</ele>
        <time>2012-03-27T17:08:27Z</time>
      </trkpt>
      <trkpt lat="59.982158244" lon="23.4371998886">
        <ele>17.6</ele>
        <time>2012-03-27T17:08:30Z</time>
      </trkpt>
      <trkpt lat="59.982185066" lon="23.4366916102">
        <ele>17.6</ele>
        <time>2012-03-27T17:08:34Z</time>
      </trkpt>
      <trkpt lat="59.9822032548" lon="23.4363112396">
        <ele>17.6</ele>
        <time>2012-03-27T17:08:37Z</time>
      </trkpt>
      <trkpt lat="59.982227227" lon="23.4359320425">
        <ele>17.6</ele>
        <time>2012-03-27T17:08:40Z</time>
      </trkpt>
      <trkpt lat="59.9822539653" lon="23.4355564495">
        <ele>17.6</ele>
        <time>2012-03-27T17:08:43Z</time>
      </trkpt>
      <trkpt lat="59.9822801168" lon="23.4351767494">
        <ele>17.6</ele>
        <time>2012-03-27T17:08:46Z</time>
      </trkpt>
      <trkpt lat="59.9823129738" lon="23.4347979714">
        <ele>17.6</ele>
        <time>2012-03-27T17:08:49Z</time>
      </trkpt>
      <trkpt lat="59.9823474235" lon="23.4344212888">
        <ele>17.6</ele>
        <time>2012-03-27T17:08:52Z</time>
      </trkpt>
      <trkpt lat="59.982386986" lon="23.4340375654">
        <ele>17.6</ele>
        <time>2012-03-27T17:08:55Z</time>
      </trkpt>
      <trkpt lat="59.9824271353" lon="23.4336791554">
        <ele>17.6</ele>
        <time>2012-03-27T17:08:58Z</time>
      </trkpt>
      <trkpt lat="59.9824702183" lon="23.4333158838">
        <ele>17.6</ele>
        <time>2012-03-27T17:09:01Z</time>
      </trkpt>
      <trkpt lat="59.9825113734" lon="23.4329589825">
        <ele>17.6</ele>
        <time>2012-03-27T17:09:04Z</time>
      </trkpt>
      <trkpt lat="59.9825516065" lon="23.4326059369">
        <ele>17.4</ele>
        <time>2012-03-27T17:09:07Z</time>
      </trkpt>
      <trkpt lat="59.9825951086" lon="23.4322544838">
        <ele>16.8</ele>
        <time>2012-03-27T17:09:10Z</time>
      </trkpt>
      <trkpt lat="59.982641712" lon="23.4319010191">
        <ele>16.4</ele>
        <time>2012-03-27T17:09:13Z</time>
      </trkpt>
      <trkpt lat="59.9827054982" lon="23.4314138631">
        <ele>16.2</ele>
        <time>2012-03-27T17:09:17Z</time>
      </trkpt>
      <trkpt lat="59.9827572984" lon="23.4310476579">
        <ele>16</ele>
        <time>2012-03-27T17:09:20Z</time>
      </trkpt>
      <trkpt lat="59.9828109425" lon="23.4306832967">
        <ele>15.8</ele>
        <time>2012-03-27T17:09:23Z</time>
      </trkpt>
      <trkpt lat="59.9828464818" lon="23.430442317">
        <ele>15.8</ele>
        <time>2012-03-27T17:09:25Z</time>
      </trkpt>
      <trkpt lat="59.9828639161" lon="23.4303223721">
        <ele>15.8</ele>
        <time>2012-03-27T17:09:26Z</time>
      </trkpt>
      <trkpt lat="59.982934827" lon="23.4298409995">
        <ele>15.6</ele>
        <time>2012-03-27T17:09:30Z</time>
      </trkpt>
      <trkpt lat="59.9829889741" lon="23.4294932345">
        <ele>15.6</ele>
        <time>2012-03-27T17:09:33Z</time>
      </trkpt>
      <trkpt lat="59.9830596335" lon="23.4290389355">
        <ele>15.6</ele>
        <time>2012-03-27T17:09:37Z</time>
      </trkpt>
      <trkpt lat="59.9831344839" lon="23.4285844689">
        <ele>15.6</ele>
        <time>2012-03-27T17:09:41Z</time>
      </trkpt>
      <trkpt lat="59.9832114297" lon="23.4281325169">
        <ele>15.6</ele>
        <time>2012-03-27T17:09:45Z</time>
      </trkpt>
      <trkpt lat="59.9832900519" lon="23.4276860969">
        <ele>15.6</ele>
        <time>2012-03-27T17:09:49Z</time>
      </trkpt>
      <trkpt lat="59.9833676683" lon="23.4272462148">
        <ele>15.4</ele>
        <time>2012-03-27T17:09:53Z</time>
      </trkpt>
      <trkpt lat="59.983472945" lon="23.4266609067">
        <ele>15.4</ele>
        <time>2012-03-27T17:09:58Z</time>
      </trkpt>
      <trkpt lat="59.983550729" lon="23.4262594137">
        <ele>15.4</ele>
        <time>2012-03-27T17:10:02Z</time>
      </trkpt>
      <trkpt lat="59.9836397448" lon="23.4258238063">
        <ele>15.4</ele>
        <time>2012-03-27T17:10:06Z</time>
      </trkpt>
      <trkpt lat="59.9837051236" lon="23.4254845908">
        <ele>15.4</ele>
        <time>2012-03-27T17:10:09Z</time>
      </trkpt>
      <trkpt lat="59.9837268327" lon="23.4253745365">
        <ele>15.4</ele>
        <time>2012-03-27T17:10:10Z</time>
      </trkpt>
      <trkpt lat="59.9839062892" lon="23.4250873726">
        <ele>15.4</ele>
        <time>2012-03-27T17:10:14Z</time>
      </trkpt>
      <trkpt lat="59.9839870069" lon="23.425087205">
        <ele>15.4</ele>
        <time>2012-03-27T17:10:15Z</time>
      </trkpt>
      <trkpt lat="59.9840271562" lon="23.4250862829">
        <ele>15.4</ele>
        <time>2012-03-27T17:10:16Z</time>
      </trkpt>
      <trkpt lat="59.9843169185" lon="23.4251530867">
        <ele>15.4</ele>
        <time>2012-03-27T17:10:20Z</time>
      </trkpt>
      <trkpt lat="59.9845034996" lon="23.4251902185">
        <ele>15.4</ele>
        <time>2012-03-27T17:10:23Z</time>
      </trkpt>
      <trkpt lat="59.9847024859" lon="23.4252263445">
        <ele>15.4</ele>
        <time>2012-03-27T17:10:26Z</time>
      </trkpt>
      <trkpt lat="59.9849414539" lon="23.4252479698">
        <ele>15.4</ele>
        <time>2012-03-27T17:10:30Z</time>
      </trkpt>
      <trkpt lat="59.9852416935" lon="23.4252521608">
        <ele>15.4</ele>
        <time>2012-03-27T17:10:35Z</time>
      </trkpt>
      <trkpt lat="59.985466077" lon="23.4252572737">
        <ele>15.4</ele>
        <time>2012-03-27T17:10:39Z</time>
      </trkpt>
      <trkpt lat="59.9856848446" lon="23.425248808">
        <ele>15.4</ele>
        <time>2012-03-27T17:10:43Z</time>
      </trkpt>
      <trkpt lat="59.9859044504" lon="23.4252447009">
        <ele>15.4</ele>
        <time>2012-03-27T17:10:47Z</time>
      </trkpt>
      <trkpt lat="59.9861352879" lon="23.4252312898">
        <ele>15.4</ele>
        <time>2012-03-27T17:10:51Z</time>
      </trkpt>
      <trkpt lat="59.9863724118" lon="23.4252300325">
        <ele>15.4</ele>
        <time>2012-03-27T17:10:55Z</time>
      </trkpt>
      <trkpt lat="59.986594616" lon="23.4252480536">
        <ele>15.4</ele>
        <time>2012-03-27T17:10:59Z</time>
      </trkpt>
      <trkpt lat="59.9868114558" lon="23.4253346386">
        <ele>15.4</ele>
        <time>2012-03-27T17:11:03Z</time>
      </trkpt>
      <trkpt lat="59.9870257809" lon="23.4254491354">
        <ele>15.4</ele>
        <time>2012-03-27T17:11:07Z</time>
      </trkpt>
      <trkpt lat="59.9872488233" lon="23.425567404">
        <ele>15.4</ele>
        <time>2012-03-27T17:11:11Z</time>
      </trkpt>
      <trkpt lat="59.987481421" lon="23.4256519774">
        <ele>15.4</ele>
        <time>2012-03-27T17:11:15Z</time>
      </trkpt>
      <trkpt lat="59.9876840115" lon="23.4257239779">
        <ele>15.4</ele>
        <time>2012-03-27T17:11:19Z</time>
      </trkpt>
      <trkpt lat="59.9878954869" lon="23.4257670609">
        <ele>16</ele>
        <time>2012-03-27T17:11:23Z</time>
      </trkpt>
      <trkpt lat="59.988110315" lon="23.4258191963">
        <ele>16.6</ele>
        <time>2012-03-27T17:11:27Z</time>
      </trkpt>
      <trkpt lat="59.9883147495" lon="23.425855909">
        <ele>17</ele>
        <time>2012-03-27T17:11:31Z</time>
      </trkpt>
      <trkpt lat="59.9885041805" lon="23.425876277">
        <ele>17.2</ele>
        <time>2012-03-27T17:11:35Z</time>
      </trkpt>
      <trkpt lat="59.9886962936" lon="23.4259046917">
        <ele>17.8</ele>
        <time>2012-03-27T17:11:39Z</time>
      </trkpt>
      <trkpt lat="59.9889154803" lon="23.425936962">
        <ele>18.4</ele>
        <time>2012-03-27T17:11:43Z</time>
      </trkpt>
      <trkpt lat="59.9891007203" lon="23.4259517141">
        <ele>18.8</ele>
        <time>2012-03-27T17:11:46Z</time>
      </trkpt>
      <trkpt lat="59.989295348" lon="23.4259757702">
        <ele>19</ele>
        <time>2012-03-27T17:11:49Z</time>
      </trkpt>
      <trkpt lat="59.9894841922" lon="23.4259969764">
        <ele>19.2</ele>
        <time>2012-03-27T17:11:52Z</time>
      </trkpt>
      <trkpt lat="59.98967136" lon="23.4260288276">
        <ele>19.2</ele>
        <time>2012-03-27T17:11:55Z</time>
      </trkpt>
      <trkpt lat="59.9899020299" lon="23.4260532189">
        <ele>19.4</ele>
        <time>2012-03-27T17:11:59Z</time>
      </trkpt>
      <trkpt lat="59.9901288441" lon="23.426081885">
        <ele>19.4</ele>
        <time>2012-03-27T17:12:03Z</time>
      </trkpt>
      <trkpt lat="59.9903590949" lon="23.4261132333">
        <ele>19.4</ele>
        <time>2012-03-27T17:12:07Z</time>
      </trkpt>
      <trkpt lat="59.990577192" lon="23.4261509519">
        <ele>19.6</ele>
        <time>2012-03-27T17:12:11Z</time>
      </trkpt>
      <trkpt lat="59.9907891702" lon="23.4261931967">
        <ele>19.6</ele>
        <time>2012-03-27T17:12:15Z</time>
      </trkpt>
      <trkpt lat="59.9909882403" lon="23.4262339327">
        <ele>19.6</ele>
        <time>2012-03-27T17:12:19Z</time>
      </trkpt>
      <trkpt lat="59.9912098578" lon="23.4262940309">
        <ele>19.6</ele>
        <time>2012-03-27T17:12:23Z</time>
      </trkpt>
      <trkpt lat="59.9914250212" lon="23.4264021574">
        <ele>19.6</ele>
        <time>2012-03-27T17:12:27Z</time>
      </trkpt>
      <trkpt lat="59.9916425315" lon="23.4265852181">
        <ele>19.6</ele>
        <time>2012-03-27T17:12:31Z</time>
      </trkpt>
      <trkpt lat="59.9918452896" lon="23.4268502538">
        <ele>19.6</ele>
        <time>2012-03-27T17:12:35Z</time>
      </trkpt>
      <trkpt lat="59.9920367322" lon="23.4271011241">
        <ele>19.6</ele>
        <time>2012-03-27T17:12:39Z</time>
      </trkpt>
      <trkpt lat="59.9920841738" lon="23.4271608032">
        <ele>19.6</ele>
        <time>2012-03-27T17:12:40Z</time>
      </trkpt>
      <trkpt lat="59.9922363891" lon="23.427300278">
        <ele>19.6</ele>
        <time>2012-03-27T17:12:43Z</time>
      </trkpt>
      <trkpt lat="59.9925254808" lon="23.4274036268">
        <ele>19.6</ele>
        <time>2012-03-27T17:12:48Z</time>
      </trkpt>
      <trkpt lat="59.9927211982" lon="23.4274222347">
        <ele>19.6</ele>
        <time>2012-03-27T17:12:51Z</time>
      </trkpt>
      <trkpt lat="59.9929226152" lon="23.4274192172">
        <ele>19.6</ele>
        <time>2012-03-27T17:12:54Z</time>
      </trkpt>
      <trkpt lat="59.9931107889" lon="23.427435059">
        <ele>19.6</ele>
        <time>2012-03-27T17:12:57Z</time>
      </trkpt>
      <trkpt lat="59.9933364296" lon="23.4274984261">
        <ele>19.6</ele>
        <time>2012-03-27T17:13:01Z</time>
      </trkpt>
      <trkpt lat="59.9935443007" lon="23.4275838377">
        <ele>19.6</ele>
        <time>2012-03-27T17:13:05Z</time>
      </trkpt>
      <trkpt lat="59.9937675107" lon="23.4277526492">
        <ele>19.6</ele>
        <time>2012-03-27T17:13:09Z</time>
      </trkpt>
      <trkpt lat="59.9939670838" lon="23.4279298425">
        <ele>19.6</ele>
        <time>2012-03-27T17:13:12Z</time>
      </trkpt>
      <trkpt lat="59.9941954906" lon="23.4281381327">
        <ele>19</ele>
        <time>2012-03-27T17:13:15Z</time>
      </trkpt>
      <trkpt lat="59.9944067983" lon="23.428323708">
        <ele>18.6</ele>
        <time>2012-03-27T17:13:18Z</time>
      </trkpt>
      <trkpt lat="59.9946354565" lon="23.4285356863">
        <ele>18</ele>
        <time>2012-03-27T17:13:21Z</time>
      </trkpt>
      <trkpt lat="59.9949362829" lon="23.4288084333">
        <ele>17.2</ele>
        <time>2012-03-27T17:13:25Z</time>
      </trkpt>
      <trkpt lat="59.9951361912" lon="23.428987303">
        <ele>16.6</ele>
        <time>2012-03-27T17:13:28Z</time>
      </trkpt>
      <trkpt lat="59.9953693757" lon="23.4292013768">
        <ele>16.2</ele>
        <time>2012-03-27T17:13:32Z</time>
      </trkpt>
      <trkpt lat="59.9955795099" lon="23.4293841022">
        <ele>15.8</ele>
        <time>2012-03-27T17:13:36Z</time>
      </trkpt>
      <trkpt lat="59.9957847826" lon="23.4295618823">
        <ele>15.6</ele>
        <time>2012-03-27T17:13:40Z</time>
      </trkpt>
      <trkpt lat="59.9959947492" lon="23.4297575996">
        <ele>15.6</ele>
        <time>2012-03-27T17:13:44Z</time>
      </trkpt>
      <trkpt lat="59.9961877844" lon="23.4299275008">
        <ele>15.4</ele>
        <time>2012-03-27T17:13:48Z</time>
      </trkpt>
      <trkpt lat="59.9963621279" lon="23.4300801351">
        <ele>15.4</ele>
        <time>2012-03-27T17:13:52Z</time>
      </trkpt>
      <trkpt lat="59.9965395727" lon="23.4302346974">
        <ele>15.4</ele>
        <time>2012-03-27T17:13:57Z</time>
      </trkpt>
      <trkpt lat="59.9965731841" lon="23.4302657942">
        <ele>15.4</ele>
        <time>2012-03-27T17:13:58Z</time>
      </trkpt>
      <trkpt lat="59.9966678158" lon="23.4303555644">
        <ele>15.4</ele>
        <time>2012-03-27T17:14:01Z</time>
      </trkpt>
      <trkpt lat="59.9967039418" lon="23.4305662854">
        <ele>15.4</ele>
        <time>2012-03-27T17:14:05Z</time>
      </trkpt>
      <trkpt lat="59.9966955599" lon="23.4306245396">
        <ele>15.4</ele>
        <time>2012-03-27T17:14:06Z</time>
      </trkpt>
      <trkpt lat="59.996608891" lon="23.430992505">
        <ele>16.2</ele>
        <time>2012-03-27T17:14:12Z</time>
      </trkpt>
      <trkpt lat="59.9964775467" lon="23.4310736418">
        <ele>16.6</ele>
        <time>2012-03-27T17:14:17Z</time>
      </trkpt>
      <trkpt lat="59.9963644748" lon="23.4308720571">
        <ele>17</ele>
        <time>2012-03-27T17:14:23Z</time>
      </trkpt>
      <trkpt lat="59.9963621279" lon="23.430806343">
        <ele>17.2</ele>
        <time>2012-03-27T17:14:27Z</time>
      </trkpt>
      <trkpt lat="59.9963568473" lon="23.4308108692">
        <ele>17.4</ele>
        <time>2012-03-27T17:14:35Z</time>
      </trkpt>
    </trkseg>
  </trk>
</gpx>